<?xml version='1.0' encoding='UTF-8'?><gpx version="1.1" creator="JPX - https://github.com/jenetics/jpx" xmlns="http://www.topografix.com/GPX/1/1"><trk><trkseg><trkpt lat="48.57335378393377" lon="-4.41576424717437"><ele>62.00000000000001</ele><time>2026-05-02T13:28:16.317Z</time></trkpt><trkpt lat="48.57336233543117" lon="-4.415664086448517"><ele>62.0</ele><time>2026-05-02T13:28:22.998Z</time></trkpt><trkpt lat="48.573415614022444" lon="-4.41558973112746"><ele>62.0</ele><time>2026-05-02T13:31:27.002Z</time></trkpt><trkpt lat="48.573410963901395" lon="-4.415444518665552"><ele>62.0</ele><time>2026-05-02T13:31:30.002Z</time></trkpt><trkpt lat="48.57339783296854" lon="-4.415320624715986"><ele>62.00000000000001</ele><time>2026-05-02T13:31:33.001Z</time></trkpt><trkpt lat="48.57338540985988" lon="-4.415227296985946"><ele>62.0</ele><time>2026-05-02T13:31:35.001Z</time></trkpt><trkpt lat="48.57339760407384" lon="-4.415109782352111"><ele>62.2</ele><time>2026-05-02T13:31:37.001Z</time></trkpt><trkpt lat="48.57338370692864" lon="-4.4150149898559246"><ele>62.400000000000006</ele><time>2026-05-02T13:31:40.001Z</time></trkpt><trkpt lat="48.5733914825682" lon="-4.414901387662677"><ele>62.599999999999994</ele><time>2026-05-02T13:31:43.001Z</time></trkpt><trkpt lat="48.57341993013412" lon="-4.414809906812155"><ele>62.8</ele><time>2026-05-02T13:31:45.001Z</time></trkpt><trkpt lat="48.57355461598077" lon="-4.4145957400615465"><ele>63.0</ele><time>2026-05-02T13:31:54.001Z</time></trkpt><trkpt lat="48.573618308649486" lon="-4.414581674493517"><ele>62.75</ele><time>2026-05-02T13:31:56.001Z</time></trkpt><trkpt lat="48.5737430723746" lon="-4.414564627487839"><ele>62.5</ele><time>2026-05-02T13:31:59Z</time></trkpt><trkpt lat="48.57397137746363" lon="-4.41451037414445"><ele>62.25</ele><time>2026-05-02T13:32:04Z</time></trkpt><trkpt lat="48.57403898614012" lon="-4.414523165233798"><ele>62.0</ele><time>2026-05-02T13:32:05Z</time></trkpt><trkpt lat="48.574134993688716" lon="-4.414513589556183"><ele>62.00000000000001</ele><time>2026-05-02T13:32:07Z</time></trkpt><trkpt lat="48.574247546668175" lon="-4.414442828000963"><ele>62.0</ele><time>2026-05-02T13:32:09Z</time></trkpt><trkpt lat="48.57431202453468" lon="-4.414425692709268"><ele>62.0</ele><time>2026-05-02T13:32:10Z</time></trkpt><trkpt lat="48.574382313171526" lon="-4.414407523303415"><ele>62.0</ele><time>2026-05-02T13:32:11Z</time></trkpt><trkpt lat="48.57446418142631" lon="-4.414401527428583"><ele>62.00000000000001</ele><time>2026-05-02T13:32:12Z</time></trkpt><trkpt lat="48.57452787220059" lon="-4.414389046080841"><ele>62.0</ele><time>2026-05-02T13:32:13Z</time></trkpt><trkpt lat="48.57464796299788" lon="-4.414370577279801"><ele>62.16666666666667</ele><time>2026-05-02T13:32:15Z</time></trkpt><trkpt lat="48.574713537560996" lon="-4.414354787633967"><ele>62.333333333333336</ele><time>2026-05-02T13:32:16Z</time></trkpt><trkpt lat="48.57484601464212" lon="-4.414339579446536"><ele>62.5</ele><time>2026-05-02T13:32:18Z</time></trkpt><trkpt lat="48.57492851350875" lon="-4.414334480585551"><ele>62.66666666666667</ele><time>2026-05-02T13:32:19Z</time></trkpt><trkpt lat="48.575004168325435" lon="-4.414327738677614"><ele>62.833333333333336</ele><time>2026-05-02T13:32:20Z</time></trkpt><trkpt lat="48.57507687491657" lon="-4.414312039394147"><ele>63.0</ele><time>2026-05-02T13:32:21Z</time></trkpt><trkpt lat="48.57520613496909" lon="-4.4143243659186915"><ele>63.0</ele><time>2026-05-02T13:32:23Z</time></trkpt><trkpt lat="48.57528461866566" lon="-4.414330310195289"><ele>63.0</ele><time>2026-05-02T13:32:24Z</time></trkpt><trkpt lat="48.57536717538273" lon="-4.4143269403969185"><ele>63.0</ele><time>2026-05-02T13:32:25Z</time></trkpt><trkpt lat="48.57544678662489" lon="-4.414317850094964"><ele>63.0</ele><time>2026-05-02T13:32:26Z</time></trkpt><trkpt lat="48.575576859585205" lon="-4.414312281902633"><ele>63.0</ele><time>2026-05-02T13:32:28Z</time></trkpt><trkpt lat="48.57564739982907" lon="-4.414320346143279"><ele>63.0</ele><time>2026-05-02T13:32:29Z</time></trkpt><trkpt lat="48.57571818169667" lon="-4.4143300766810665"><ele>63.166666666666664</ele><time>2026-05-02T13:32:30Z</time></trkpt><trkpt lat="48.5757868800196" lon="-4.414331249370792"><ele>63.33333333333333</ele><time>2026-05-02T13:32:31Z</time></trkpt><trkpt lat="48.575862324771016" lon="-4.414324162802381"><ele>63.5</ele><time>2026-05-02T13:32:32Z</time></trkpt><trkpt lat="48.57594549215341" lon="-4.4143263254189575"><ele>63.666666666666664</ele><time>2026-05-02T13:32:33Z</time></trkpt><trkpt lat="48.576035270957235" lon="-4.414324592509849"><ele>63.83333333333333</ele><time>2026-05-02T13:32:34Z</time></trkpt><trkpt lat="48.576127957842004" lon="-4.4143388984270056"><ele>64.0</ele><time>2026-05-02T13:32:35Z</time></trkpt><trkpt lat="48.576222363849794" lon="-4.414348673620269"><ele>64.5</ele><time>2026-05-02T13:32:36Z</time></trkpt><trkpt lat="48.57631395255387" lon="-4.414339145847724"><ele>65.0</ele><time>2026-05-02T13:32:37Z</time></trkpt><trkpt lat="48.57639744426533" lon="-4.41433327954755"><ele>65.5</ele><time>2026-05-02T13:32:38Z</time></trkpt><trkpt lat="48.57647649331853" lon="-4.414354175740441"><ele>66.0</ele><time>2026-05-02T13:32:39Z</time></trkpt><trkpt lat="48.57655760520293" lon="-4.414355079717755"><ele>66.5</ele><time>2026-05-02T13:32:40Z</time></trkpt><trkpt lat="48.576632164955974" lon="-4.414341419464752"><ele>67.0</ele><time>2026-05-02T13:32:41Z</time></trkpt><trkpt lat="48.57670928855932" lon="-4.41434995731441"><ele>67.0</ele><time>2026-05-02T13:32:42Z</time></trkpt><trkpt lat="48.57678876003097" lon="-4.414357702267971"><ele>67.0</ele><time>2026-05-02T13:32:43Z</time></trkpt><trkpt lat="48.5768609978378" lon="-4.414363232643695"><ele>67.0</ele><time>2026-05-02T13:32:44Z</time></trkpt><trkpt lat="48.57693697280113" lon="-4.4143536203020695"><ele>67.0</ele><time>2026-05-02T13:32:45Z</time></trkpt><trkpt lat="48.57701859082432" lon="-4.4143406106022764"><ele>67.0</ele><time>2026-05-02T13:32:46Z</time></trkpt><trkpt lat="48.5770930013391" lon="-4.414331332726009"><ele>67.0</ele><time>2026-05-02T13:32:47Z</time></trkpt><trkpt lat="48.57715795571232" lon="-4.4143430611049235"><ele>67.16666666666666</ele><time>2026-05-02T13:32:48Z</time></trkpt><trkpt lat="48.57723365780726" lon="-4.414341091352331"><ele>67.33333333333333</ele><time>2026-05-02T13:32:49Z</time></trkpt><trkpt lat="48.57730956318091" lon="-4.414328386640606"><ele>67.5</ele><time>2026-05-02T13:32:50Z</time></trkpt><trkpt lat="48.57739533132774" lon="-4.414300366318078"><ele>67.66666666666667</ele><time>2026-05-02T13:32:51Z</time></trkpt><trkpt lat="48.57748387615124" lon="-4.414278638867563"><ele>67.83333333333334</ele><time>2026-05-02T13:32:52Z</time></trkpt><trkpt lat="48.5775661979416" lon="-4.414256325600221"><ele>68.0</ele><time>2026-05-02T13:32:53Z</time></trkpt><trkpt lat="48.577644622122406" lon="-4.414240537054964"><ele>68.0</ele><time>2026-05-02T13:32:54Z</time></trkpt><trkpt lat="48.577740251716435" lon="-4.4141868109026685"><ele>68.0</ele><time>2026-05-02T13:32:56Z</time></trkpt><trkpt lat="48.57778959386484" lon="-4.414060103753966"><ele>68.0</ele><time>2026-05-02T13:32:58Z</time></trkpt><trkpt lat="48.577809919351864" lon="-4.413957534237446"><ele>68.0</ele><time>2026-05-02T13:32:59Z</time></trkpt><trkpt lat="48.577836868474655" lon="-4.413844021510491"><ele>68.0</ele><time>2026-05-02T13:33:00Z</time></trkpt><trkpt lat="48.57786612248595" lon="-4.413721670194649"><ele>68.0</ele><time>2026-05-02T13:33:01Z</time></trkpt><trkpt lat="48.57789175924483" lon="-4.413600050312273"><ele>68.33333333333334</ele><time>2026-05-02T13:33:02Z</time></trkpt><trkpt lat="48.5779193525504" lon="-4.4134695376894655"><ele>68.66666666666667</ele><time>2026-05-02T13:33:03Z</time></trkpt><trkpt lat="48.5779491584596" lon="-4.413353835535058"><ele>69.0</ele><time>2026-05-02T13:33:04Z</time></trkpt><trkpt lat="48.57797602491879" lon="-4.413238420839359"><ele>69.33333333333333</ele><time>2026-05-02T13:33:05Z</time></trkpt><trkpt lat="48.57800679457118" lon="-4.4131271185182195"><ele>69.66666666666666</ele><time>2026-05-02T13:33:06Z</time></trkpt><trkpt lat="48.57802709549305" lon="-4.413036214932255"><ele>70.0</ele><time>2026-05-02T13:33:07Z</time></trkpt><trkpt lat="48.578045337935876" lon="-4.412924349748817"><ele>70.0</ele><time>2026-05-02T13:33:08Z</time></trkpt><trkpt lat="48.578072737793" lon="-4.412827342354436"><ele>70.0</ele><time>2026-05-02T13:33:09Z</time></trkpt><trkpt lat="48.57809078859337" lon="-4.412732844191872"><ele>70.0</ele><time>2026-05-02T13:33:10Z</time></trkpt><trkpt lat="48.57812213744894" lon="-4.41257652385139"><ele>70.0</ele><time>2026-05-02T13:33:12Z</time></trkpt><trkpt lat="48.578165324754686" lon="-4.412412931943923"><ele>70.0</ele><time>2026-05-02T13:33:14Z</time></trkpt><trkpt lat="48.57819186944724" lon="-4.412319294558799"><ele>70.0</ele><time>2026-05-02T13:33:15Z</time></trkpt><trkpt lat="48.578217598081125" lon="-4.4122176600298495"><ele>69.85714285714286</ele><time>2026-05-02T13:33:16.002Z</time></trkpt><trkpt lat="48.57824362355255" lon="-4.412124809506232"><ele>69.71428571428572</ele><time>2026-05-02T13:33:17.002Z</time></trkpt><trkpt lat="48.578270880584746" lon="-4.412027367865765"><ele>69.57142857142857</ele><time>2026-05-02T13:33:18.002Z</time></trkpt><trkpt lat="48.578298544105735" lon="-4.411930049474323"><ele>69.42857142857143</ele><time>2026-05-02T13:33:19.002Z</time></trkpt><trkpt lat="48.57831929079434" lon="-4.411828612479989"><ele>69.28571428571429</ele><time>2026-05-02T13:33:20.002Z</time></trkpt><trkpt lat="48.57835121805055" lon="-4.411737333547436"><ele>69.14285714285714</ele><time>2026-05-02T13:33:21.002Z</time></trkpt><trkpt lat="48.578377117156755" lon="-4.411643082685678"><ele>69.0</ele><time>2026-05-02T13:33:22.002Z</time></trkpt><trkpt lat="48.57841777103378" lon="-4.411489092301988"><ele>69.0</ele><time>2026-05-02T13:33:24.001Z</time></trkpt><trkpt lat="48.57845520078149" lon="-4.411326897668917"><ele>69.0</ele><time>2026-05-02T13:33:26.001Z</time></trkpt><trkpt lat="48.57849577752263" lon="-4.411178730545734"><ele>69.0</ele><time>2026-05-02T13:33:28.001Z</time></trkpt><trkpt lat="48.57853286969831" lon="-4.41104868493848"><ele>69.0</ele><time>2026-05-02T13:33:30.001Z</time></trkpt><trkpt lat="48.57856826314281" lon="-4.410910244450033"><ele>69.0</ele><time>2026-05-02T13:33:32.001Z</time></trkpt><trkpt lat="48.57861419475641" lon="-4.4107546950878485"><ele>69.2</ele><time>2026-05-02T13:33:34.001Z</time></trkpt><trkpt lat="48.57864541804289" lon="-4.410584101772693"><ele>69.4</ele><time>2026-05-02T13:33:36.001Z</time></trkpt><trkpt lat="48.57866495966478" lon="-4.4104841091993245"><ele>69.6</ele><time>2026-05-02T13:33:37.001Z</time></trkpt><trkpt lat="48.57870300252922" lon="-4.410290568533217"><ele>69.8</ele><time>2026-05-02T13:33:39.001Z</time></trkpt><trkpt lat="48.57874463367063" lon="-4.41016230154339"><ele>70.0</ele><time>2026-05-02T13:33:40.001Z</time></trkpt><trkpt lat="48.57878020321167" lon="-4.410041508070195"><ele>70.33333333333333</ele><time>2026-05-02T13:33:41.001Z</time></trkpt><trkpt lat="48.578796998327405" lon="-4.409913750147689"><ele>70.66666666666666</ele><time>2026-05-02T13:33:42.001Z</time></trkpt><trkpt lat="48.57882415162266" lon="-4.409802725931202"><ele>71.0</ele><time>2026-05-02T13:33:43.001Z</time></trkpt><trkpt lat="48.5788475297995" lon="-4.409699512434133"><ele>71.33333333333333</ele><time>2026-05-02T13:33:44.001Z</time></trkpt><trkpt lat="48.57886919337555" lon="-4.409604505925724"><ele>71.66666666666667</ele><time>2026-05-02T13:33:45.001Z</time></trkpt><trkpt lat="48.578892036044884" lon="-4.409501242450723"><ele>72.0</ele><time>2026-05-02T13:33:46.001Z</time></trkpt><trkpt lat="48.578923688916184" lon="-4.409390515548231"><ele>72.0</ele><time>2026-05-02T13:33:47Z</time></trkpt><trkpt lat="48.57895147793132" lon="-4.409298076132614"><ele>72.0</ele><time>2026-05-02T13:33:48Z</time></trkpt><trkpt lat="48.57901143737382" lon="-4.409128331017341"><ele>72.0</ele><time>2026-05-02T13:33:50Z</time></trkpt><trkpt lat="48.57904750216033" lon="-4.409039903583049"><ele>72.0</ele><time>2026-05-02T13:33:51Z</time></trkpt><trkpt lat="48.579074770262444" lon="-4.408936953632755"><ele>72.0</ele><time>2026-05-02T13:33:52Z</time></trkpt><trkpt lat="48.579099457086194" lon="-4.408823574216156"><ele>72.0</ele><time>2026-05-02T13:33:53Z</time></trkpt><trkpt lat="48.579126412399" lon="-4.408712413723844"><ele>72.0</ele><time>2026-05-02T13:33:54Z</time></trkpt><trkpt lat="48.57914933106493" lon="-4.408583742108018"><ele>72.0</ele><time>2026-05-02T13:33:55Z</time></trkpt><trkpt lat="48.57918510055545" lon="-4.408452529942818"><ele>72.0</ele><time>2026-05-02T13:33:56Z</time></trkpt><trkpt lat="48.579234676167545" lon="-4.408327827216726"><ele>72.0</ele><time>2026-05-02T13:33:57Z</time></trkpt><trkpt lat="48.57926689819232" lon="-4.408202918233565"><ele>72.0</ele><time>2026-05-02T13:33:58Z</time></trkpt><trkpt lat="48.57928437134121" lon="-4.408088726270762"><ele>72.0</ele><time>2026-05-02T13:34:00Z</time></trkpt><trkpt lat="48.57925668972507" lon="-4.408181158234316"><ele>72.2</ele><time>2026-05-02T13:34:03Z</time></trkpt><trkpt lat="48.57932798358932" lon="-4.407982155367522"><ele>72.4</ele><time>2026-05-02T13:34:21Z</time></trkpt><trkpt lat="48.57936025351298" lon="-4.407882714260603"><ele>72.6</ele><time>2026-05-02T13:34:22Z</time></trkpt><trkpt lat="48.57933243780368" lon="-4.407722046570978"><ele>72.8</ele><time>2026-05-02T13:34:23Z</time></trkpt><trkpt lat="48.57936943125102" lon="-4.407577221153341"><ele>73.0</ele><time>2026-05-02T13:34:24Z</time></trkpt><trkpt lat="48.579423136537805" lon="-4.407423189756044"><ele>73.0</ele><time>2026-05-02T13:34:25Z</time></trkpt><trkpt lat="48.57946293216366" lon="-4.407249421887266"><ele>73.0</ele><time>2026-05-02T13:34:26Z</time></trkpt><trkpt lat="48.5795153977498" lon="-4.407044336293195"><ele>73.0</ele><time>2026-05-02T13:34:27Z</time></trkpt><trkpt lat="48.57956833094984" lon="-4.406848414874699"><ele>73.0</ele><time>2026-05-02T13:34:28Z</time></trkpt><trkpt lat="48.57961878714594" lon="-4.406660838469259"><ele>73.25</ele><time>2026-05-02T13:34:29Z</time></trkpt><trkpt lat="48.579665321293014" lon="-4.4064765480487145"><ele>73.5</ele><time>2026-05-02T13:34:30Z</time></trkpt><trkpt lat="48.579697957754995" lon="-4.406287202705313"><ele>73.75</ele><time>2026-05-02T13:34:31Z</time></trkpt><trkpt lat="48.57975662827721" lon="-4.406121728032606"><ele>74.0</ele><time>2026-05-02T13:34:32Z</time></trkpt><trkpt lat="48.579793448249475" lon="-4.405941206409987"><ele>74.0</ele><time>2026-05-02T13:34:33Z</time></trkpt><trkpt lat="48.579833907591365" lon="-4.405767235364033"><ele>74.0</ele><time>2026-05-02T13:34:34Z</time></trkpt><trkpt lat="48.57987430346826" lon="-4.405611451454687"><ele>74.0</ele><time>2026-05-02T13:34:35Z</time></trkpt><trkpt lat="48.57991369580918" lon="-4.405472831895035"><ele>74.0</ele><time>2026-05-02T13:34:36Z</time></trkpt><trkpt lat="48.57994852774387" lon="-4.405342784489792"><ele>74.0</ele><time>2026-05-02T13:34:37Z</time></trkpt><trkpt lat="48.5799786578939" lon="-4.405216890870617"><ele>74.0</ele><time>2026-05-02T13:34:38Z</time></trkpt><trkpt lat="48.58000859812226" lon="-4.405110302223123"><ele>74.0</ele><time>2026-05-02T13:34:39Z</time></trkpt><trkpt lat="48.580039257206906" lon="-4.405005875047447"><ele>74.0</ele><time>2026-05-02T13:34:40Z</time></trkpt><trkpt lat="48.580066085821365" lon="-4.4048993892198745"><ele>74.0</ele><time>2026-05-02T13:34:41Z</time></trkpt><trkpt lat="48.580088757703926" lon="-4.404793028256307"><ele>74.0</ele><time>2026-05-02T13:34:42Z</time></trkpt><trkpt lat="48.58011989785438" lon="-4.404675113088397"><ele>74.0</ele><time>2026-05-02T13:34:43Z</time></trkpt><trkpt lat="48.580133162098576" lon="-4.404553406840642"><ele>73.8</ele><time>2026-05-02T13:34:44Z</time></trkpt><trkpt lat="48.58015323602155" lon="-4.404443454802022"><ele>73.60000000000001</ele><time>2026-05-02T13:34:45Z</time></trkpt><trkpt lat="48.58029860138716" lon="-4.404365444435712"><ele>73.4</ele><time>2026-05-02T13:34:46Z</time></trkpt><trkpt lat="48.58038247116232" lon="-4.404263252403358"><ele>73.2</ele><time>2026-05-02T13:34:47Z</time></trkpt><trkpt lat="48.580469544248075" lon="-4.404178880669951"><ele>73.0</ele><time>2026-05-02T13:34:48Z</time></trkpt><trkpt lat="48.5805480232403" lon="-4.404063137854066"><ele>73.5</ele><time>2026-05-02T13:34:49Z</time></trkpt><trkpt lat="48.58063879271153" lon="-4.403917827808201"><ele>74.0</ele><time>2026-05-02T13:34:50Z</time></trkpt><trkpt lat="48.58073126660535" lon="-4.403752062680404"><ele>74.5</ele><time>2026-05-02T13:34:51Z</time></trkpt><trkpt lat="48.58082562920049" lon="-4.4035921653676"><ele>75.0</ele><time>2026-05-02T13:34:52Z</time></trkpt><trkpt lat="48.580912887361215" lon="-4.403408848137064"><ele>75.0</ele><time>2026-05-02T13:34:53Z</time></trkpt><trkpt lat="48.58101100466475" lon="-4.403242039358941"><ele>75.0</ele><time>2026-05-02T13:34:54Z</time></trkpt><trkpt lat="48.581105849855746" lon="-4.40306522085927"><ele>75.0</ele><time>2026-05-02T13:34:55Z</time></trkpt><trkpt lat="48.58119587937758" lon="-4.4028819504432635"><ele>75.0</ele><time>2026-05-02T13:34:56Z</time></trkpt><trkpt lat="48.581283433710134" lon="-4.402720803656514"><ele>75.0</ele><time>2026-05-02T13:34:57Z</time></trkpt><trkpt lat="48.581370868817324" lon="-4.402586458055935"><ele>75.0</ele><time>2026-05-02T13:34:58Z</time></trkpt><trkpt lat="48.58144272179453" lon="-4.402468704050919"><ele>75.0</ele><time>2026-05-02T13:34:59Z</time></trkpt><trkpt lat="48.58148955578783" lon="-4.402351867025424"><ele>75.0</ele><time>2026-05-02T13:35:00Z</time></trkpt><trkpt lat="48.58153049686359" lon="-4.402246425465727"><ele>75.0</ele><time>2026-05-02T13:35:01Z</time></trkpt><trkpt lat="48.58156735851575" lon="-4.402136866598638"><ele>75.0</ele><time>2026-05-02T13:35:02Z</time></trkpt><trkpt lat="48.58161058172205" lon="-4.402066717773668"><ele>75.0</ele><time>2026-05-02T13:35:03Z</time></trkpt><trkpt lat="48.58170835129993" lon="-4.401961837366749"><ele>75.0</ele><time>2026-05-02T13:35:05Z</time></trkpt><trkpt lat="48.58178898977236" lon="-4.401854674732255"><ele>75.0</ele><time>2026-05-02T13:35:07Z</time></trkpt><trkpt lat="48.581840536145364" lon="-4.401789111359775"><ele>75.0</ele><time>2026-05-02T13:35:09Z</time></trkpt><trkpt lat="48.58198306989215" lon="-4.401806582474122"><ele>75.16666666666667</ele><time>2026-05-02T13:35:12Z</time></trkpt><trkpt lat="48.58204514898908" lon="-4.401847833226078"><ele>75.33333333333333</ele><time>2026-05-02T13:35:13Z</time></trkpt><trkpt lat="48.58211144143681" lon="-4.401881499381779"><ele>75.5</ele><time>2026-05-02T13:35:14Z</time></trkpt><trkpt lat="48.582189949969134" lon="-4.401930625331779"><ele>75.66666666666666</ele><time>2026-05-02T13:35:15Z</time></trkpt><trkpt lat="48.58227216754707" lon="-4.402000209793711"><ele>75.83333333333333</ele><time>2026-05-02T13:35:16Z</time></trkpt><trkpt lat="48.582361452219374" lon="-4.402054842250277"><ele>76.0</ele><time>2026-05-02T13:35:17Z</time></trkpt><trkpt lat="48.58245392168483" lon="-4.402137880996245"><ele>76.0</ele><time>2026-05-02T13:35:18Z</time></trkpt><trkpt lat="48.582565764382885" lon="-4.4021891632903305"><ele>76.0</ele><time>2026-05-02T13:35:19Z</time></trkpt><trkpt lat="48.58266783654649" lon="-4.4022483324064865"><ele>76.0</ele><time>2026-05-02T13:35:20Z</time></trkpt><trkpt lat="48.58278109668091" lon="-4.402307757216576"><ele>76.0</ele><time>2026-05-02T13:35:21Z</time></trkpt><trkpt lat="48.58288489045864" lon="-4.4023521868332836"><ele>76.0</ele><time>2026-05-02T13:35:22.001Z</time></trkpt><trkpt lat="48.58297328532333" lon="-4.402392900005233"><ele>76.0</ele><time>2026-05-02T13:35:23.001Z</time></trkpt><trkpt lat="48.58304171049887" lon="-4.402421577253222"><ele>76.0</ele><time>2026-05-02T13:35:24.001Z</time></trkpt><trkpt lat="48.5831378141619" lon="-4.402473074950615"><ele>76.0</ele><time>2026-05-02T13:35:26.001Z</time></trkpt><trkpt lat="48.58321291289761" lon="-4.402513584058942"><ele>76.0</ele><time>2026-05-02T13:35:28.001Z</time></trkpt><trkpt lat="48.583211287211995" lon="-4.402907160728879"><ele>76.0</ele><time>2026-05-02T13:35:48Z</time></trkpt><trkpt lat="48.583186332167095" lon="-4.403013011482552"><ele>76.0</ele><time>2026-05-02T13:35:49Z</time></trkpt><trkpt lat="48.58315646653739" lon="-4.403119218312416"><ele>76.0</ele><time>2026-05-02T13:35:50Z</time></trkpt><trkpt lat="48.58313117530827" lon="-4.403215060236367"><ele>76.0</ele><time>2026-05-02T13:35:51Z</time></trkpt><trkpt lat="48.583114813136774" lon="-4.403323560589356"><ele>76.0</ele><time>2026-05-02T13:35:52Z</time></trkpt><trkpt lat="48.583082979650946" lon="-4.403434336526215"><ele>76.0</ele><time>2026-05-02T13:35:53Z</time></trkpt><trkpt lat="48.58304861379008" lon="-4.403552875326812"><ele>76.0</ele><time>2026-05-02T13:35:54Z</time></trkpt><trkpt lat="48.58301819901517" lon="-4.403690032650496"><ele>76.0</ele><time>2026-05-02T13:35:55Z</time></trkpt><trkpt lat="48.58298196104808" lon="-4.403854131682489"><ele>76.0</ele><time>2026-05-02T13:35:56Z</time></trkpt><trkpt lat="48.58293126374417" lon="-4.404004820893541"><ele>76.0</ele><time>2026-05-02T13:35:57Z</time></trkpt><trkpt lat="48.582898266225676" lon="-4.404172399018662"><ele>76.0</ele><time>2026-05-02T13:35:58Z</time></trkpt><trkpt lat="48.582862525249475" lon="-4.404376016266587"><ele>76.0</ele><time>2026-05-02T13:35:59Z</time></trkpt><trkpt lat="48.582818596763424" lon="-4.404567666453542"><ele>76.0</ele><time>2026-05-02T13:36:00Z</time></trkpt><trkpt lat="48.5827646238879" lon="-4.4047669355262915"><ele>76.0</ele><time>2026-05-02T13:36:01Z</time></trkpt><trkpt lat="48.58272186403079" lon="-4.404921489510723"><ele>76.0</ele><time>2026-05-02T13:36:02Z</time></trkpt><trkpt lat="48.58269128929845" lon="-4.405051586854104"><ele>75.8</ele><time>2026-05-02T13:36:03Z</time></trkpt><trkpt lat="48.58266220112386" lon="-4.405189933411859"><ele>75.6</ele><time>2026-05-02T13:36:04Z</time></trkpt><trkpt lat="48.582637558046" lon="-4.405332135403951"><ele>75.4</ele><time>2026-05-02T13:36:05Z</time></trkpt><trkpt lat="48.58260222292183" lon="-4.405476525948604"><ele>75.2</ele><time>2026-05-02T13:36:06Z</time></trkpt><trkpt lat="48.5825708753149" lon="-4.405632918968869"><ele>75.0</ele><time>2026-05-02T13:36:07Z</time></trkpt><trkpt lat="48.582536731427126" lon="-4.405815857282088"><ele>75.0</ele><time>2026-05-02T13:36:08Z</time></trkpt><trkpt lat="48.582500820256946" lon="-4.405978135824823"><ele>75.0</ele><time>2026-05-02T13:36:09Z</time></trkpt><trkpt lat="48.582461441804014" lon="-4.406159458961788"><ele>75.0</ele><time>2026-05-02T13:36:10Z</time></trkpt><trkpt lat="48.58242426581138" lon="-4.406318230700717"><ele>75.0</ele><time>2026-05-02T13:36:11Z</time></trkpt><trkpt lat="48.58238776508328" lon="-4.406460124362271"><ele>74.8</ele><time>2026-05-02T13:36:12Z</time></trkpt><trkpt lat="48.582358632645665" lon="-4.406588658314409"><ele>74.6</ele><time>2026-05-02T13:36:13Z</time></trkpt><trkpt lat="48.58233948421424" lon="-4.406729782053199"><ele>74.4</ele><time>2026-05-02T13:36:14Z</time></trkpt><trkpt lat="48.58234596342146" lon="-4.406892319652455"><ele>74.2</ele><time>2026-05-02T13:36:15Z</time></trkpt><trkpt lat="48.58234663318526" lon="-4.407036496002669"><ele>74.0</ele><time>2026-05-02T13:36:16Z</time></trkpt><trkpt lat="48.58235469140873" lon="-4.4071855073332005"><ele>73.8</ele><time>2026-05-02T13:36:17Z</time></trkpt><trkpt lat="48.582363041934975" lon="-4.407324688721072"><ele>73.60000000000001</ele><time>2026-05-02T13:36:18Z</time></trkpt><trkpt lat="48.582364465077774" lon="-4.407475132826187"><ele>73.4</ele><time>2026-05-02T13:36:19Z</time></trkpt><trkpt lat="48.582369050230454" lon="-4.407614620676681"><ele>73.2</ele><time>2026-05-02T13:36:20Z</time></trkpt><trkpt lat="48.58236323659323" lon="-4.407752492074769"><ele>73.0</ele><time>2026-05-02T13:36:21Z</time></trkpt><trkpt lat="48.58234857065018" lon="-4.407923436828363"><ele>72.6</ele><time>2026-05-02T13:36:22Z</time></trkpt><trkpt lat="48.582322300725664" lon="-4.408088319365323"><ele>72.19999999999999</ele><time>2026-05-02T13:36:23Z</time></trkpt><trkpt lat="48.58229833432547" lon="-4.408242950479457"><ele>71.8</ele><time>2026-05-02T13:36:24Z</time></trkpt><trkpt lat="48.58228643087176" lon="-4.408404954667298"><ele>71.39999999999999</ele><time>2026-05-02T13:36:25Z</time></trkpt><trkpt lat="48.582264807391674" lon="-4.408585426446195"><ele>71.0</ele><time>2026-05-02T13:36:26Z</time></trkpt><trkpt lat="48.5822328294601" lon="-4.408743522061502"><ele>71.0</ele><time>2026-05-02T13:36:27Z</time></trkpt><trkpt lat="48.582212107854005" lon="-4.408907268356993"><ele>71.0</ele><time>2026-05-02T13:36:28Z</time></trkpt><trkpt lat="48.582193265627005" lon="-4.409063067433351"><ele>71.0</ele><time>2026-05-02T13:36:29Z</time></trkpt><trkpt lat="48.582181174734146" lon="-4.4091918006333595"><ele>71.0</ele><time>2026-05-02T13:36:30Z</time></trkpt><trkpt lat="48.582169731278896" lon="-4.4093042043571415"><ele>71.0</ele><time>2026-05-02T13:36:31Z</time></trkpt><trkpt lat="48.58214528633936" lon="-4.409403089757927"><ele>71.0</ele><time>2026-05-02T13:36:32Z</time></trkpt><trkpt lat="48.58211228432199" lon="-4.409534423891796"><ele>71.0</ele><time>2026-05-02T13:36:34Z</time></trkpt><trkpt lat="48.5821002760652" lon="-4.409630624180254"><ele>71.0</ele><time>2026-05-02T13:37:11.999Z</time></trkpt><trkpt lat="48.58205879660019" lon="-4.409709149049877"><ele>71.0</ele><time>2026-05-02T13:37:23.999Z</time></trkpt><trkpt lat="48.58203993095936" lon="-4.409816915677136"><ele>71.0</ele><time>2026-05-02T13:37:26.999Z</time></trkpt><trkpt lat="48.58201270602574" lon="-4.409961719781285"><ele>71.0</ele><time>2026-05-02T13:37:30Z</time></trkpt><trkpt lat="48.58198427413851" lon="-4.410103298366628"><ele>71.0</ele><time>2026-05-02T13:37:32Z</time></trkpt><trkpt lat="48.581954744815604" lon="-4.410257932617158"><ele>71.0</ele><time>2026-05-02T13:37:34Z</time></trkpt><trkpt lat="48.58191756209122" lon="-4.41043444114063"><ele>71.0</ele><time>2026-05-02T13:37:36Z</time></trkpt><trkpt lat="48.58188452560394" lon="-4.410583822652737"><ele>71.0</ele><time>2026-05-02T13:37:38Z</time></trkpt><trkpt lat="48.58186844977674" lon="-4.410727534935591"><ele>71.0</ele><time>2026-05-02T13:37:40Z</time></trkpt><trkpt lat="48.581821804478665" lon="-4.410875799211389"><ele>71.0</ele><time>2026-05-02T13:37:42Z</time></trkpt><trkpt lat="48.58178409525161" lon="-4.4109658479079235"><ele>70.6</ele><time>2026-05-02T13:37:43Z</time></trkpt><trkpt lat="48.58171322245684" lon="-4.411029006094642"><ele>70.19999999999999</ele><time>2026-05-02T13:37:44Z</time></trkpt><trkpt lat="48.58164257060853" lon="-4.411105780960207"><ele>69.80000000000001</ele><time>2026-05-02T13:37:45Z</time></trkpt><trkpt lat="48.58157627686192" lon="-4.411209674708098"><ele>69.4</ele><time>2026-05-02T13:37:46Z</time></trkpt><trkpt lat="48.58152182821728" lon="-4.411326048432464"><ele>69.0</ele><time>2026-05-02T13:37:47Z</time></trkpt><trkpt lat="48.58147172167456" lon="-4.411460976729487"><ele>68.75</ele><time>2026-05-02T13:37:48Z</time></trkpt><trkpt lat="48.58142273758611" lon="-4.411625311549172"><ele>68.5</ele><time>2026-05-02T13:37:49Z</time></trkpt><trkpt lat="48.58142795917617" lon="-4.411829123880829"><ele>68.25</ele><time>2026-05-02T13:37:50Z</time></trkpt><trkpt lat="48.58134703325117" lon="-4.4120548330477884"><ele>68.0</ele><time>2026-05-02T13:37:51Z</time></trkpt><trkpt lat="48.58128353111" lon="-4.412227931235705"><ele>68.0</ele><time>2026-05-02T13:37:52Z</time></trkpt><trkpt lat="48.58126210020131" lon="-4.41236479515122"><ele>68.0</ele><time>2026-05-02T13:37:53Z</time></trkpt><trkpt lat="48.58122892493216" lon="-4.4125218243307955"><ele>68.0</ele><time>2026-05-02T13:37:55Z</time></trkpt><trkpt lat="48.58119936401292" lon="-4.412658969064966"><ele>68.0</ele><time>2026-05-02T13:37:57Z</time></trkpt><trkpt lat="48.58106878258614" lon="-4.4127288401909945"><ele>68.0</ele><time>2026-05-02T13:37:59Z</time></trkpt><trkpt lat="48.58096344190744" lon="-4.412730612477008"><ele>68.0</ele><time>2026-05-02T13:38:00Z</time></trkpt><trkpt lat="48.58086734561325" lon="-4.412771215015859"><ele>68.0</ele><time>2026-05-02T13:38:01Z</time></trkpt><trkpt lat="48.580771716789336" lon="-4.41284950279536"><ele>68.0</ele><time>2026-05-02T13:38:02Z</time></trkpt><trkpt lat="48.58066621217719" lon="-4.412895522410716"><ele>68.0</ele><time>2026-05-02T13:38:03Z</time></trkpt><trkpt lat="48.58055335518464" lon="-4.412939421363185"><ele>68.0</ele><time>2026-05-02T13:38:04Z</time></trkpt><trkpt lat="48.58043076543978" lon="-4.41299044867832"><ele>68.25</ele><time>2026-05-02T13:38:05Z</time></trkpt><trkpt lat="48.580302872518885" lon="-4.413104161202038"><ele>68.5</ele><time>2026-05-02T13:38:06Z</time></trkpt><trkpt lat="48.580179984693636" lon="-4.413198075807149"><ele>68.75</ele><time>2026-05-02T13:38:07Z</time></trkpt><trkpt lat="48.58006984387267" lon="-4.413272875833985"><ele>69.0</ele><time>2026-05-02T13:38:08Z</time></trkpt><trkpt lat="48.5799915210529" lon="-4.413338181619937"><ele>69.0</ele><time>2026-05-02T13:38:09Z</time></trkpt><trkpt lat="48.57993548356161" lon="-4.413396283465798"><ele>69.0</ele><time>2026-05-02T13:38:10Z</time></trkpt><trkpt lat="48.57984396334129" lon="-4.413474825344476"><ele>69.0</ele><time>2026-05-02T13:38:12Z</time></trkpt><trkpt lat="48.579769234092375" lon="-4.413451617273595"><ele>69.0</ele><time>2026-05-02T13:38:13Z</time></trkpt><trkpt lat="48.57965829796701" lon="-4.413516279477998"><ele>69.0</ele><time>2026-05-02T13:38:15Z</time></trkpt><trkpt lat="48.57970513987472" lon="-4.413832218477004"><ele>68.5</ele><time>2026-05-02T13:38:17Z</time></trkpt><trkpt lat="48.57973581280268" lon="-4.414113141677936"><ele>68.0</ele><time>2026-05-02T13:38:19Z</time></trkpt><trkpt lat="48.579718605913776" lon="-4.414299376961028"><ele>67.5</ele><time>2026-05-02T13:38:20Z</time></trkpt><trkpt lat="48.579699819865276" lon="-4.414456449382309"><ele>67.0</ele><time>2026-05-02T13:38:20.999Z</time></trkpt><trkpt lat="48.57969573262827" lon="-4.414649123001042"><ele>67.33333333333333</ele><time>2026-05-02T13:38:21.999Z</time></trkpt><trkpt lat="48.579624549253836" lon="-4.414901022859416"><ele>67.66666666666667</ele><time>2026-05-02T13:38:23.999Z</time></trkpt><trkpt lat="48.57957209915507" lon="-4.4151111970217185"><ele>68.0</ele><time>2026-05-02T13:38:24.999Z</time></trkpt><trkpt lat="48.57952513561741" lon="-4.415294518976228"><ele>68.5</ele><time>2026-05-02T13:38:25.999Z</time></trkpt><trkpt lat="48.57948288869682" lon="-4.415498257942969"><ele>69.0</ele><time>2026-05-02T13:38:26.999Z</time></trkpt><trkpt lat="48.57943578624891" lon="-4.415712633978056"><ele>69.5</ele><time>2026-05-02T13:38:27.999Z</time></trkpt><trkpt lat="48.579399458026025" lon="-4.415924723621731"><ele>70.0</ele><time>2026-05-02T13:38:28.999Z</time></trkpt><trkpt lat="48.57936644876508" lon="-4.416139180150451"><ele>69.75</ele><time>2026-05-02T13:38:29.999Z</time></trkpt><trkpt lat="48.57932079416935" lon="-4.416338065669527"><ele>69.5</ele><time>2026-05-02T13:38:30.999Z</time></trkpt><trkpt lat="48.579259667931105" lon="-4.416544876870365"><ele>69.25</ele><time>2026-05-02T13:38:31.999Z</time></trkpt><trkpt lat="48.579206263038074" lon="-4.416743459506004"><ele>69.0</ele><time>2026-05-02T13:38:32.999Z</time></trkpt><trkpt lat="48.57917669793799" lon="-4.416974201975555"><ele>68.75</ele><time>2026-05-02T13:38:33.999Z</time></trkpt><trkpt lat="48.57911550388174" lon="-4.41718837416095"><ele>68.5</ele><time>2026-05-02T13:38:34.999Z</time></trkpt><trkpt lat="48.57906516357739" lon="-4.417407413591213"><ele>68.25</ele><time>2026-05-02T13:38:35.999Z</time></trkpt><trkpt lat="48.579022564907845" lon="-4.417604776536169"><ele>68.0</ele><time>2026-05-02T13:38:36.999Z</time></trkpt><trkpt lat="48.57897958498623" lon="-4.417814395314011"><ele>68.0</ele><time>2026-05-02T13:38:37.999Z</time></trkpt><trkpt lat="48.57896287873177" lon="-4.418029816701254"><ele>68.0</ele><time>2026-05-02T13:38:38.999Z</time></trkpt><trkpt lat="48.57892933336576" lon="-4.418229667429533"><ele>68.0</ele><time>2026-05-02T13:38:39.999Z</time></trkpt><trkpt lat="48.57890137905998" lon="-4.418437389947309"><ele>68.0</ele><time>2026-05-02T13:38:40.999Z</time></trkpt><trkpt lat="48.57886698167903" lon="-4.418649235013561"><ele>68.0</ele><time>2026-05-02T13:38:41.999Z</time></trkpt><trkpt lat="48.578840670388544" lon="-4.4188635935318805"><ele>68.0</ele><time>2026-05-02T13:38:42.999Z</time></trkpt><trkpt lat="48.578817191660896" lon="-4.419060174376455"><ele>68.0</ele><time>2026-05-02T13:38:43.999Z</time></trkpt><trkpt lat="48.57879920335539" lon="-4.419265828450664"><ele>68.0</ele><time>2026-05-02T13:38:44.999Z</time></trkpt><trkpt lat="48.57877319620954" lon="-4.4194647194953305"><ele>68.0</ele><time>2026-05-02T13:38:45.999Z</time></trkpt><trkpt lat="48.57875854617934" lon="-4.419664126095894"><ele>68.0</ele><time>2026-05-02T13:38:46.999Z</time></trkpt><trkpt lat="48.57875593171651" lon="-4.419862374916153"><ele>68.0</ele><time>2026-05-02T13:38:47.999Z</time></trkpt><trkpt lat="48.578744252471544" lon="-4.420047954920072"><ele>68.0</ele><time>2026-05-02T13:38:48.999Z</time></trkpt><trkpt lat="48.57873932055602" lon="-4.420233830070491"><ele>68.0</ele><time>2026-05-02T13:38:49.999Z</time></trkpt><trkpt lat="48.578751244416154" lon="-4.420432449097113"><ele>68.0</ele><time>2026-05-02T13:38:50.999Z</time></trkpt><trkpt lat="48.578771574664394" lon="-4.42062823322388"><ele>68.0</ele><time>2026-05-02T13:38:51.999Z</time></trkpt><trkpt lat="48.578790396727875" lon="-4.42082092549934"><ele>68.0</ele><time>2026-05-02T13:38:52.999Z</time></trkpt><trkpt lat="48.578808723442016" lon="-4.421025691134331"><ele>68.25</ele><time>2026-05-02T13:38:53.999Z</time></trkpt><trkpt lat="48.57882430436441" lon="-4.4212283144552895"><ele>68.5</ele><time>2026-05-02T13:38:54.999Z</time></trkpt><trkpt lat="48.57883719085184" lon="-4.421430457205212"><ele>68.75</ele><time>2026-05-02T13:38:55.999Z</time></trkpt><trkpt lat="48.57885817652842" lon="-4.421638029515241"><ele>69.0</ele><time>2026-05-02T13:38:56.999Z</time></trkpt><trkpt lat="48.57887049024819" lon="-4.421839840695097"><ele>68.60000000000001</ele><time>2026-05-02T13:38:57.999Z</time></trkpt><trkpt lat="48.578876733081" lon="-4.422018102936835"><ele>68.2</ele><time>2026-05-02T13:38:58.999Z</time></trkpt><trkpt lat="48.57887823489526" lon="-4.422181827195575"><ele>67.80000000000001</ele><time>2026-05-02T13:38:59.999Z</time></trkpt><trkpt lat="48.57887452564916" lon="-4.4223389578775825"><ele>67.4</ele><time>2026-05-02T13:39:00.999Z</time></trkpt><trkpt lat="48.57886769830741" lon="-4.422502034202293"><ele>67.0</ele><time>2026-05-02T13:39:01.999Z</time></trkpt><trkpt lat="48.57886718529015" lon="-4.422633390810606"><ele>66.8</ele><time>2026-05-02T13:39:02.999Z</time></trkpt><trkpt lat="48.57888521027021" lon="-4.42274748569445"><ele>66.6</ele><time>2026-05-02T13:39:03.999Z</time></trkpt><trkpt lat="48.57888867334662" lon="-4.422876370736813"><ele>66.39999999999999</ele><time>2026-05-02T13:39:04.999Z</time></trkpt><trkpt lat="48.57888299786351" lon="-4.423065930125324"><ele>66.2</ele><time>2026-05-02T13:39:06.999Z</time></trkpt><trkpt lat="48.57890349288775" lon="-4.423194474226158"><ele>66.0</ele><time>2026-05-02T13:39:08.999Z</time></trkpt><trkpt lat="48.57895074201263" lon="-4.423281359628773"><ele>66.0</ele><time>2026-05-02T13:39:12.999Z</time></trkpt><trkpt lat="48.579001428968525" lon="-4.423373000652445"><ele>66.0</ele><time>2026-05-02T13:39:14.999Z</time></trkpt><trkpt lat="48.579161440995065" lon="-4.423513302526876"><ele>66.0</ele><time>2026-05-02T13:39:16.999Z</time></trkpt><trkpt lat="48.579040717793085" lon="-4.423457206159889"><ele>66.0</ele><time>2026-05-02T13:39:18.999Z</time></trkpt><trkpt lat="48.57926042580218" lon="-4.423613826470635"><ele>66.0</ele><time>2026-05-02T13:39:19.999Z</time></trkpt><trkpt lat="48.57933990736914" lon="-4.423652910141346"><ele>66.0</ele><time>2026-05-02T13:39:22.999Z</time></trkpt><trkpt lat="48.579583316288215" lon="-4.423305509915115"><ele>66.0</ele><time>2026-05-02T13:39:26.999Z</time></trkpt><trkpt lat="48.579656608730545" lon="-4.423262869376711"><ele>66.0</ele><time>2026-05-02T13:39:37Z</time></trkpt><trkpt lat="48.57976998730144" lon="-4.423264622447892"><ele>66.0</ele><time>2026-05-02T13:39:39Z</time></trkpt><trkpt lat="48.57984361501232" lon="-4.423282523835612"><ele>66.0</ele><time>2026-05-02T13:39:40Z</time></trkpt><trkpt lat="48.5799482342455" lon="-4.423300872308306"><ele>66.0</ele><time>2026-05-02T13:39:42Z</time></trkpt><trkpt lat="48.58003844551586" lon="-4.423281409085467"><ele>66.0</ele><time>2026-05-02T13:39:44Z</time></trkpt><trkpt lat="48.580101006205425" lon="-4.4232985054786536"><ele>66.0</ele><time>2026-05-02T13:39:45Z</time></trkpt><trkpt lat="48.580175224959866" lon="-4.42331496458207"><ele>66.0</ele><time>2026-05-02T13:39:46Z</time></trkpt><trkpt lat="48.58024504892194" lon="-4.423324700761936"><ele>66.0</ele><time>2026-05-02T13:39:47Z</time></trkpt><trkpt lat="48.580322771860985" lon="-4.423320087299366"><ele>66.0</ele><time>2026-05-02T13:39:49Z</time></trkpt><trkpt lat="48.58042216160432" lon="-4.423432550046942"><ele>66.0</ele><time>2026-05-02T13:40:00Z</time></trkpt><trkpt lat="48.58051640427218" lon="-4.423443126461071"><ele>66.0</ele><time>2026-05-02T13:40:01Z</time></trkpt><trkpt lat="48.580613212728395" lon="-4.423465203352048"><ele>65.75</ele><time>2026-05-02T13:40:02Z</time></trkpt><trkpt lat="48.580716899096814" lon="-4.423492114655791"><ele>65.5</ele><time>2026-05-02T13:40:03Z</time></trkpt><trkpt lat="48.58085070130871" lon="-4.42350068959742"><ele>65.25</ele><time>2026-05-02T13:40:04Z</time></trkpt><trkpt lat="48.580977502805574" lon="-4.423526217825325"><ele>65.0</ele><time>2026-05-02T13:40:05Z</time></trkpt><trkpt lat="48.58107367473529" lon="-4.423555387027486"><ele>65.0</ele><time>2026-05-02T13:40:06Z</time></trkpt><trkpt lat="48.58114994890919" lon="-4.423556530192676"><ele>65.0</ele><time>2026-05-02T13:40:07Z</time></trkpt><trkpt lat="48.58125527936835" lon="-4.423534972016209"><ele>65.0</ele><time>2026-05-02T13:40:09Z</time></trkpt><trkpt lat="48.58132211336644" lon="-4.423527195106286"><ele>65.0</ele><time>2026-05-02T13:40:11Z</time></trkpt><trkpt lat="48.5813974297555" lon="-4.423530829210504"><ele>65.0</ele><time>2026-05-02T13:40:15Z</time></trkpt><trkpt lat="48.581464843701895" lon="-4.423545155011587"><ele>65.0</ele><time>2026-05-02T13:40:17.999Z</time></trkpt><trkpt lat="48.58153272062474" lon="-4.423414207383577"><ele>64.2</ele><time>2026-05-02T13:40:26.999Z</time></trkpt><trkpt lat="48.58157600503988" lon="-4.423335897921981"><ele>63.4</ele><time>2026-05-02T13:40:27.999Z</time></trkpt><trkpt lat="48.581612390891365" lon="-4.423239819564605"><ele>62.599999999999994</ele><time>2026-05-02T13:40:28.999Z</time></trkpt><trkpt lat="48.58162984094579" lon="-4.423069204214107"><ele>61.8</ele><time>2026-05-02T13:40:30.999Z</time></trkpt><trkpt lat="48.58164010471547" lon="-4.422958380636487"><ele>61.0</ele><time>2026-05-02T13:40:33.999Z</time></trkpt><trkpt lat="48.5815198506296" lon="-4.422799735420791"><ele>60.99999999999999</ele><time>2026-05-02T13:40:35.999Z</time></trkpt><trkpt lat="48.58146972933646" lon="-4.422737616489295"><ele>61.0</ele><time>2026-05-02T13:40:36.999Z</time></trkpt><trkpt lat="48.581460494396566" lon="-4.422595139369227"><ele>61.0</ele><time>2026-05-02T13:40:38.999Z</time></trkpt><trkpt lat="48.581494768863664" lon="-4.42246209005703"><ele>61.0</ele><time>2026-05-02T13:40:41.999Z</time></trkpt><trkpt lat="48.58147083532469" lon="-4.42234410267113"><ele>60.99999999999999</ele><time>2026-05-02T13:40:43.999Z</time></trkpt><trkpt lat="48.58145766085954" lon="-4.422241364968939"><ele>61.0</ele><time>2026-05-02T13:40:45.999Z</time></trkpt><trkpt lat="48.58139840897679" lon="-4.422147938577821"><ele>60.99999999999999</ele><time>2026-05-02T13:40:47.999Z</time></trkpt><trkpt lat="48.58129099079825" lon="-4.422110108176491"><ele>61.0</ele><time>2026-05-02T13:40:50.999Z</time></trkpt><trkpt lat="48.58129196878411" lon="-4.422216093499293"><ele>61.0</ele><time>2026-05-02T13:41:06.999Z</time></trkpt><trkpt lat="48.58133296479184" lon="-4.422290434346834"><ele>61.0</ele><time>2026-05-02T13:41:07.999Z</time></trkpt><trkpt lat="48.581357099706224" lon="-4.42240638468176"><ele>60.99999999999999</ele><time>2026-05-02T13:41:09.999Z</time></trkpt><trkpt lat="48.58136318040328" lon="-4.422518473965802"><ele>61.0</ele><time>2026-05-02T13:41:11.999Z</time></trkpt><trkpt lat="48.58139171043791" lon="-4.422651065664896"><ele>61.0</ele><time>2026-05-02T13:41:13.999Z</time></trkpt><trkpt lat="48.58144585703963" lon="-4.422773914630796"><ele>60.99999999999999</ele><time>2026-05-02T13:41:22.999Z</time></trkpt><trkpt lat="48.581486092799" lon="-4.422880983524827"><ele>60.99999999999999</ele><time>2026-05-02T13:41:24.999Z</time></trkpt><trkpt lat="48.58149942214984" lon="-4.4230693517360935"><ele>61.0</ele><time>2026-05-02T13:41:28.143Z</time></trkpt><trkpt lat="48.58152302886343" lon="-4.423195518680481"><ele>61.0</ele><time>2026-05-02T13:41:31.143Z</time></trkpt><trkpt lat="48.5815940895843" lon="-4.423500831999571"><ele>60.83333333333333</ele><time>2026-05-02T13:41:33.143Z</time></trkpt><trkpt lat="48.581652174733144" lon="-4.423566518149519"><ele>60.666666666666664</ele><time>2026-05-02T13:41:34.143Z</time></trkpt><trkpt lat="48.58173190349446" lon="-4.423650605042973"><ele>60.5</ele><time>2026-05-02T13:41:37.999Z</time></trkpt><trkpt lat="48.58184504948584" lon="-4.423673914039414"><ele>60.33333333333333</ele><time>2026-05-02T13:41:41Z</time></trkpt><trkpt lat="48.58177556865539" lon="-4.423658844217567"><ele>60.166666666666664</ele><time>2026-05-02T13:42:19.999Z</time></trkpt><trkpt lat="48.581699947520256" lon="-4.423626892210629"><ele>60.0</ele><time>2026-05-02T13:42:23.999Z</time></trkpt><trkpt lat="48.581619609096755" lon="-4.42359704901884"><ele>60.0</ele><time>2026-05-02T13:42:40.999Z</time></trkpt><trkpt lat="48.581543285248415" lon="-4.423538439285937"><ele>60.0</ele><time>2026-05-02T13:42:52.999Z</time></trkpt><trkpt lat="48.58146801066097" lon="-4.423501021566126"><ele>60.0</ele><time>2026-05-02T13:42:54.999Z</time></trkpt><trkpt lat="48.58138465351941" lon="-4.42347332581528"><ele>60.0</ele><time>2026-05-02T13:42:56.999Z</time></trkpt><trkpt lat="48.58129077449414" lon="-4.423439978359852"><ele>60.0</ele><time>2026-05-02T13:42:58.999Z</time></trkpt><trkpt lat="48.58119406845364" lon="-4.423425892608256"><ele>60.0</ele><time>2026-05-02T13:42:59.999Z</time></trkpt><trkpt lat="48.58107486127927" lon="-4.4234548126910695"><ele>60.833333333333336</ele><time>2026-05-02T13:43:00.999Z</time></trkpt><trkpt lat="48.580984931361655" lon="-4.42345205264783"><ele>61.66666666666667</ele><time>2026-05-02T13:43:01.999Z</time></trkpt><trkpt lat="48.58089984831963" lon="-4.42345007314312"><ele>62.5</ele><time>2026-05-02T13:43:02.999Z</time></trkpt><trkpt lat="48.58081655772512" lon="-4.423445568634374"><ele>63.333333333333336</ele><time>2026-05-02T13:43:03.999Z</time></trkpt><trkpt lat="48.58072972775023" lon="-4.423440886088396"><ele>64.16666666666667</ele><time>2026-05-02T13:43:04.999Z</time></trkpt><trkpt lat="48.58064811639272" lon="-4.423438346943388"><ele>65.0</ele><time>2026-05-02T13:43:05.999Z</time></trkpt><trkpt lat="48.58057487619085" lon="-4.423424937077338"><ele>65.0</ele><time>2026-05-02T13:43:06.999Z</time></trkpt><trkpt lat="48.58050286053422" lon="-4.423428501800264"><ele>65.0</ele><time>2026-05-02T13:43:07.999Z</time></trkpt><trkpt lat="48.580434677797726" lon="-4.423421226134152"><ele>65.0</ele><time>2026-05-02T13:43:08.999Z</time></trkpt><trkpt lat="48.58034502188306" lon="-4.423419995101496"><ele>65.0</ele><time>2026-05-02T13:43:10.999Z</time></trkpt><trkpt lat="48.58025517583131" lon="-4.423439196016222"><ele>65.0</ele><time>2026-05-02T13:43:13.999Z</time></trkpt><trkpt lat="48.580169095661304" lon="-4.423404643967152"><ele>65.0</ele><time>2026-05-02T13:43:22.999Z</time></trkpt><trkpt lat="48.58009898161394" lon="-4.423385278381722"><ele>65.2</ele><time>2026-05-02T13:43:24.999Z</time></trkpt><trkpt lat="48.58003087837093" lon="-4.423360787730319"><ele>65.4</ele><time>2026-05-02T13:43:30.999Z</time></trkpt><trkpt lat="48.57993139790622" lon="-4.423326520171295"><ele>65.6</ele><time>2026-05-02T13:43:48Z</time></trkpt><trkpt lat="48.57979092910734" lon="-4.423325288719188"><ele>65.8</ele><time>2026-05-02T13:43:50Z</time></trkpt><trkpt lat="48.57970418529008" lon="-4.423312119846087"><ele>66.0</ele><time>2026-05-02T13:43:51Z</time></trkpt><trkpt lat="48.57960934604504" lon="-4.423305255289448"><ele>66.0</ele><time>2026-05-02T13:43:52Z</time></trkpt><trkpt lat="48.579511140352956" lon="-4.4232944109496275"><ele>66.0</ele><time>2026-05-02T13:43:53Z</time></trkpt><trkpt lat="48.57942424617099" lon="-4.42329167816176"><ele>66.0</ele><time>2026-05-02T13:43:54Z</time></trkpt><trkpt lat="48.57933085935954" lon="-4.423300482951561"><ele>66.0</ele><time>2026-05-02T13:43:55Z</time></trkpt><trkpt lat="48.57924472348536" lon="-4.423308201921754"><ele>66.0</ele><time>2026-05-02T13:43:56Z</time></trkpt><trkpt lat="48.57914337103133" lon="-4.423313825628911"><ele>66.0</ele><time>2026-05-02T13:43:58Z</time></trkpt><trkpt lat="48.57904170749115" lon="-4.423309756923555"><ele>66.0</ele><time>2026-05-02T13:44:00Z</time></trkpt><trkpt lat="48.57897914380883" lon="-4.4232931612569635"><ele>66.0</ele><time>2026-05-02T13:44:02Z</time></trkpt><trkpt lat="48.578960610544364" lon="-4.423424974738472"><ele>66.0</ele><time>2026-05-02T13:44:06Z</time></trkpt><trkpt lat="48.578961018224085" lon="-4.423580846908772"><ele>66.0</ele><time>2026-05-02T13:44:07Z</time></trkpt><trkpt lat="48.57898546359233" lon="-4.423739110851207"><ele>65.75</ele><time>2026-05-02T13:44:08Z</time></trkpt><trkpt lat="48.57899980566061" lon="-4.423882835284438"><ele>65.5</ele><time>2026-05-02T13:44:09Z</time></trkpt><trkpt lat="48.57901881402808" lon="-4.424036242598049"><ele>65.25</ele><time>2026-05-02T13:44:10Z</time></trkpt><trkpt lat="48.57905062344843" lon="-4.424248242451186"><ele>65.0</ele><time>2026-05-02T13:44:11Z</time></trkpt><trkpt lat="48.579095699140375" lon="-4.424452673237776"><ele>65.0</ele><time>2026-05-02T13:44:12Z</time></trkpt><trkpt lat="48.57911923545144" lon="-4.424644643945172"><ele>65.0</ele><time>2026-05-02T13:44:13Z</time></trkpt><trkpt lat="48.57915773200354" lon="-4.424860165664189"><ele>65.0</ele><time>2026-05-02T13:44:14Z</time></trkpt><trkpt lat="48.5791923110646" lon="-4.425081597593622"><ele>65.0</ele><time>2026-05-02T13:44:14.999Z</time></trkpt><trkpt lat="48.57922639888471" lon="-4.425294005167223"><ele>64.0</ele><time>2026-05-02T13:44:15.999Z</time></trkpt><trkpt lat="48.57926621989849" lon="-4.4255271201493676"><ele>63.0</ele><time>2026-05-02T13:44:16.999Z</time></trkpt><trkpt lat="48.57929823255225" lon="-4.425777062369108"><ele>62.0</ele><time>2026-05-02T13:44:17.999Z</time></trkpt><trkpt lat="48.579331767633434" lon="-4.426005808064767"><ele>62.0</ele><time>2026-05-02T13:44:18.999Z</time></trkpt><trkpt lat="48.57937295379565" lon="-4.426232926775314"><ele>62.0</ele><time>2026-05-02T13:44:19.999Z</time></trkpt><trkpt lat="48.579392936318996" lon="-4.426435171298127"><ele>62.0</ele><time>2026-05-02T13:44:20.999Z</time></trkpt><trkpt lat="48.57942201095283" lon="-4.426642059239825"><ele>62.0</ele><time>2026-05-02T13:44:21.999Z</time></trkpt><trkpt lat="48.579443303169995" lon="-4.426817408760603"><ele>61.833333333333336</ele><time>2026-05-02T13:44:22.999Z</time></trkpt><trkpt lat="48.57946765692407" lon="-4.426961087638004"><ele>61.66666666666667</ele><time>2026-05-02T13:44:23.999Z</time></trkpt><trkpt lat="48.57949084357332" lon="-4.427082801368547"><ele>61.5</ele><time>2026-05-02T13:44:24.999Z</time></trkpt><trkpt lat="48.57951948426998" lon="-4.42721261117294"><ele>61.33333333333333</ele><time>2026-05-02T13:44:26.999Z</time></trkpt><trkpt lat="48.57956570228662" lon="-4.4272932210865905"><ele>61.166666666666664</ele><time>2026-05-02T13:44:28.999Z</time></trkpt><trkpt lat="48.57966618504384" lon="-4.427313129530667"><ele>61.0</ele><time>2026-05-02T13:44:31.999Z</time></trkpt><trkpt lat="48.57973241184846" lon="-4.427312218689344"><ele>60.75</ele><time>2026-05-02T13:44:32.999Z</time></trkpt><trkpt lat="48.57987068197573" lon="-4.427300213381928"><ele>60.5</ele><time>2026-05-02T13:44:33.999Z</time></trkpt><trkpt lat="48.57999254710737" lon="-4.427281277347886"><ele>60.25</ele><time>2026-05-02T13:44:34.999Z</time></trkpt><trkpt lat="48.58010284171308" lon="-4.427262426306965"><ele>60.0</ele><time>2026-05-02T13:44:35.999Z</time></trkpt><trkpt lat="48.58021387122847" lon="-4.427268569675548"><ele>60.0</ele><time>2026-05-02T13:44:36.999Z</time></trkpt><trkpt lat="48.58032863983054" lon="-4.427247973338068"><ele>60.0</ele><time>2026-05-02T13:44:37.999Z</time></trkpt><trkpt lat="48.58043265137733" lon="-4.427198110738873"><ele>60.0</ele><time>2026-05-02T13:44:38.999Z</time></trkpt><trkpt lat="48.580530516646064" lon="-4.427170187340965"><ele>60.0</ele><time>2026-05-02T13:44:39.999Z</time></trkpt><trkpt lat="48.58061286809097" lon="-4.427155056833273"><ele>60.0</ele><time>2026-05-02T13:44:40.999Z</time></trkpt><trkpt lat="48.58070915634792" lon="-4.42714916488427"><ele>60.0</ele><time>2026-05-02T13:44:41.999Z</time></trkpt><trkpt lat="48.580800367472094" lon="-4.4271284857954765"><ele>60.0</ele><time>2026-05-02T13:44:42.999Z</time></trkpt><trkpt lat="48.580882222482025" lon="-4.427120631722476"><ele>60.0</ele><time>2026-05-02T13:44:43.999Z</time></trkpt><trkpt lat="48.58097586961124" lon="-4.427122875019258"><ele>60.0</ele><time>2026-05-02T13:44:44.999Z</time></trkpt><trkpt lat="48.5810548870311" lon="-4.427124072554023"><ele>60.0</ele><time>2026-05-02T13:44:45.999Z</time></trkpt><trkpt lat="48.581133311353035" lon="-4.427131755671497"><ele>60.0</ele><time>2026-05-02T13:44:46.999Z</time></trkpt><trkpt lat="48.58120441268923" lon="-4.42715911140308"><ele>59.666666666666664</ele><time>2026-05-02T13:44:47.999Z</time></trkpt><trkpt lat="48.58125989384785" lon="-4.427210683264002"><ele>59.33333333333333</ele><time>2026-05-02T13:44:48.999Z</time></trkpt><trkpt lat="48.5812901009007" lon="-4.427307999283881"><ele>59.0</ele><time>2026-05-02T13:44:49.999Z</time></trkpt><trkpt lat="48.58131293791798" lon="-4.427416402069076"><ele>58.666666666666664</ele><time>2026-05-02T13:44:50.999Z</time></trkpt><trkpt lat="48.58134081710093" lon="-4.427534868790558"><ele>58.33333333333333</ele><time>2026-05-02T13:44:52.999Z</time></trkpt><trkpt lat="48.58143151210201" lon="-4.427612266111759"><ele>58.0</ele><time>2026-05-02T13:44:56.999Z</time></trkpt><trkpt lat="48.581637592228354" lon="-4.427836375584867"><ele>57.8</ele><time>2026-05-02T13:44:58.999Z</time></trkpt><trkpt lat="48.581676567727" lon="-4.428013427758901"><ele>57.599999999999994</ele><time>2026-05-02T13:45:00.999Z</time></trkpt><trkpt lat="48.581702102206584" lon="-4.428232045857078"><ele>57.400000000000006</ele><time>2026-05-02T13:45:02.999Z</time></trkpt><trkpt lat="48.58172734360091" lon="-4.428342842506976"><ele>57.2</ele><time>2026-05-02T13:45:03.999Z</time></trkpt><trkpt lat="48.58174007446155" lon="-4.428443603800358"><ele>57.0</ele><time>2026-05-02T13:45:04.999Z</time></trkpt><trkpt lat="48.58173312974783" lon="-4.428607895722726"><ele>57.0</ele><time>2026-05-02T13:45:06.999Z</time></trkpt><trkpt lat="48.58174204112172" lon="-4.428723515678597"><ele>57.0</ele><time>2026-05-02T13:45:08.999Z</time></trkpt><trkpt lat="48.581756218917214" lon="-4.4288199355340785"><ele>57.0</ele><time>2026-05-02T13:45:09.999Z</time></trkpt><trkpt lat="48.58178682737516" lon="-4.428936251919772"><ele>57.0</ele><time>2026-05-02T13:45:10.999Z</time></trkpt><trkpt lat="48.58183388972791" lon="-4.429058946569671"><ele>57.0</ele><time>2026-05-02T13:45:11.999Z</time></trkpt><trkpt lat="48.58189663513263" lon="-4.429139579887888"><ele>57.0</ele><time>2026-05-02T13:45:12.999Z</time></trkpt><trkpt lat="48.58195498516022" lon="-4.429221064369225"><ele>57.0</ele><time>2026-05-02T13:45:13.999Z</time></trkpt><trkpt lat="48.5820079869794" lon="-4.42929632021264"><ele>57.0</ele><time>2026-05-02T13:45:14.999Z</time></trkpt><trkpt lat="48.582064860303234" lon="-4.429391964329052"><ele>57.0</ele><time>2026-05-02T13:45:15.999Z</time></trkpt><trkpt lat="48.582167139296864" lon="-4.429537829058927"><ele>57.0</ele><time>2026-05-02T13:45:16.999Z</time></trkpt><trkpt lat="48.582228254750696" lon="-4.429628526039521"><ele>57.0</ele><time>2026-05-02T13:45:17.999Z</time></trkpt><trkpt lat="48.58231667662163" lon="-4.42974208503227"><ele>57.0</ele><time>2026-05-02T13:45:19.999Z</time></trkpt><trkpt lat="48.58240060915912" lon="-4.429816527192903"><ele>57.0</ele><time>2026-05-02T13:45:21.999Z</time></trkpt><trkpt lat="48.582542209097404" lon="-4.42977556213459"><ele>57.0</ele><time>2026-05-02T13:45:24.999Z</time></trkpt><trkpt lat="48.58266012013624" lon="-4.429645473263721"><ele>57.0</ele><time>2026-05-02T13:45:26.999Z</time></trkpt><trkpt lat="48.58272969904815" lon="-4.429566328556326"><ele>57.0</ele><time>2026-05-02T13:45:27.999Z</time></trkpt><trkpt lat="48.582794036127474" lon="-4.429512153092702"><ele>57.0</ele><time>2026-05-02T13:45:28.999Z</time></trkpt><trkpt lat="48.582885348837216" lon="-4.429377469924755"><ele>57.0</ele><time>2026-05-02T13:45:30.999Z</time></trkpt><trkpt lat="48.582945812043384" lon="-4.429278657741636"><ele>57.0</ele><time>2026-05-02T13:45:31.999Z</time></trkpt><trkpt lat="48.58301421706606" lon="-4.429211424741889"><ele>57.0</ele><time>2026-05-02T13:45:32.999Z</time></trkpt><trkpt lat="48.58308190954289" lon="-4.429116540545965"><ele>57.25</ele><time>2026-05-02T13:45:33.999Z</time></trkpt><trkpt lat="48.58314719988211" lon="-4.428931033263497"><ele>57.5</ele><time>2026-05-02T13:45:34.999Z</time></trkpt><trkpt lat="48.58321007920057" lon="-4.4288014515456355"><ele>57.75</ele><time>2026-05-02T13:45:35.999Z</time></trkpt><trkpt lat="48.58328299303704" lon="-4.4286691421240665"><ele>58.0</ele><time>2026-05-02T13:45:36.999Z</time></trkpt><trkpt lat="48.58336147518521" lon="-4.428514878383024"><ele>58.0</ele><time>2026-05-02T13:45:37.999Z</time></trkpt><trkpt lat="48.583430164554045" lon="-4.428378293832641"><ele>58.0</ele><time>2026-05-02T13:45:38.998Z</time></trkpt><trkpt lat="48.58349907585371" lon="-4.428233021687731"><ele>58.0</ele><time>2026-05-02T13:45:39.998Z</time></trkpt><trkpt lat="48.58356723504153" lon="-4.4280968995994465"><ele>58.0</ele><time>2026-05-02T13:45:40.998Z</time></trkpt><trkpt lat="48.58366667743858" lon="-4.427973874859837"><ele>58.599999999999994</ele><time>2026-05-02T13:45:41.998Z</time></trkpt><trkpt lat="48.583750975431784" lon="-4.427865724783262"><ele>59.199999999999996</ele><time>2026-05-02T13:45:42.998Z</time></trkpt><trkpt lat="48.58383170718973" lon="-4.427773792356728"><ele>59.8</ele><time>2026-05-02T13:45:43.998Z</time></trkpt><trkpt lat="48.583924748281184" lon="-4.427684387140742"><ele>60.4</ele><time>2026-05-02T13:45:44.998Z</time></trkpt><trkpt lat="48.58399989134224" lon="-4.427595084142868"><ele>61.0</ele><time>2026-05-02T13:45:45.998Z</time></trkpt><trkpt lat="48.584080609654926" lon="-4.427541805386624"><ele>61.0</ele><time>2026-05-02T13:45:46.998Z</time></trkpt><trkpt lat="48.58416608008306" lon="-4.427501176594307"><ele>60.99999999999999</ele><time>2026-05-02T13:45:47.998Z</time></trkpt><trkpt lat="48.58425136705529" lon="-4.427476955157985"><ele>60.99999999999999</ele><time>2026-05-02T13:45:48.998Z</time></trkpt><trkpt lat="48.584345882793386" lon="-4.427442399276529"><ele>61.0</ele><time>2026-05-02T13:45:49.998Z</time></trkpt><trkpt lat="48.584443458860946" lon="-4.4274069423084885"><ele>61.0</ele><time>2026-05-02T13:45:50.998Z</time></trkpt><trkpt lat="48.584544975049845" lon="-4.427377515057538"><ele>61.599999999999994</ele><time>2026-05-02T13:45:51.998Z</time></trkpt><trkpt lat="48.584643555614946" lon="-4.427326952907924"><ele>62.199999999999996</ele><time>2026-05-02T13:45:53Z</time></trkpt><trkpt lat="48.58475209013558" lon="-4.427288478486796"><ele>62.800000000000004</ele><time>2026-05-02T13:45:54Z</time></trkpt><trkpt lat="48.58486106601427" lon="-4.4272689801882255"><ele>63.400000000000006</ele><time>2026-05-02T13:45:55Z</time></trkpt><trkpt lat="48.58496963103646" lon="-4.427244748417928"><ele>64.0</ele><time>2026-05-02T13:45:56Z</time></trkpt><trkpt lat="48.585085107893704" lon="-4.427189697056423"><ele>64.0</ele><time>2026-05-02T13:45:57Z</time></trkpt><trkpt lat="48.58520067815368" lon="-4.427132576292221"><ele>64.0</ele><time>2026-05-02T13:45:58Z</time></trkpt><trkpt lat="48.58531809099748" lon="-4.427085932603093"><ele>64.0</ele><time>2026-05-02T13:45:59Z</time></trkpt><trkpt lat="48.58543904657722" lon="-4.427017691662967"><ele>64.0</ele><time>2026-05-02T13:46:00Z</time></trkpt><trkpt lat="48.58556339521361" lon="-4.426939539634712"><ele>64.0</ele><time>2026-05-02T13:46:01Z</time></trkpt><trkpt lat="48.58568202923882" lon="-4.426863650628265"><ele>64.0</ele><time>2026-05-02T13:46:02Z</time></trkpt><trkpt lat="48.58580676499397" lon="-4.426787245816548"><ele>64.0</ele><time>2026-05-02T13:46:03Z</time></trkpt><trkpt lat="48.585931262554105" lon="-4.426732673174196"><ele>64.0</ele><time>2026-05-02T13:46:04Z</time></trkpt><trkpt lat="48.58606451550685" lon="-4.426664028364037"><ele>64.0</ele><time>2026-05-02T13:46:05Z</time></trkpt><trkpt lat="48.58621419321274" lon="-4.426599628154587"><ele>64.0</ele><time>2026-05-02T13:46:06Z</time></trkpt><trkpt lat="48.58635729777468" lon="-4.42656992023175"><ele>64.0</ele><time>2026-05-02T13:46:07Z</time></trkpt><trkpt lat="48.58651534519149" lon="-4.426539775466825"><ele>64.0</ele><time>2026-05-02T13:46:08Z</time></trkpt><trkpt lat="48.58667243005703" lon="-4.426529379048401"><ele>64.0</ele><time>2026-05-02T13:46:09Z</time></trkpt><trkpt lat="48.58682513876044" lon="-4.426540541299634"><ele>64.0</ele><time>2026-05-02T13:46:10Z</time></trkpt><trkpt lat="48.586982454314715" lon="-4.426533039172351"><ele>64.0</ele><time>2026-05-02T13:46:11Z</time></trkpt><trkpt lat="48.58714118852016" lon="-4.426519499964222"><ele>64.0</ele><time>2026-05-02T13:46:12Z</time></trkpt><trkpt lat="48.58729249209018" lon="-4.4265083808675225"><ele>64.0</ele><time>2026-05-02T13:46:13Z</time></trkpt><trkpt lat="48.58742530557653" lon="-4.426503549640279"><ele>64.0</ele><time>2026-05-02T13:46:14Z</time></trkpt><trkpt lat="48.587546225104575" lon="-4.426510008862158"><ele>64.0</ele><time>2026-05-02T13:46:15Z</time></trkpt><trkpt lat="48.587659970473155" lon="-4.426513175033027"><ele>64.0</ele><time>2026-05-02T13:46:16Z</time></trkpt><trkpt lat="48.58777147195441" lon="-4.426512266075658"><ele>64.0</ele><time>2026-05-02T13:46:16.999Z</time></trkpt><trkpt lat="48.58789075224942" lon="-4.426493402205939"><ele>64.0</ele><time>2026-05-02T13:46:17.999Z</time></trkpt><trkpt lat="48.58800297291943" lon="-4.426484561718555"><ele>64.0</ele><time>2026-05-02T13:46:18.999Z</time></trkpt><trkpt lat="48.58811335758758" lon="-4.426473322264251"><ele>64.0</ele><time>2026-05-02T13:46:19.999Z</time></trkpt><trkpt lat="48.58822729960548" lon="-4.4264749121284765"><ele>64.0</ele><time>2026-05-02T13:46:20.999Z</time></trkpt><trkpt lat="48.58835270121903" lon="-4.426472774391804"><ele>64.0</ele><time>2026-05-02T13:46:21.999Z</time></trkpt><trkpt lat="48.58848675482167" lon="-4.426468605256111"><ele>64.0</ele><time>2026-05-02T13:46:22.999Z</time></trkpt><trkpt lat="48.58862124799635" lon="-4.426473046298024"><ele>64.0</ele><time>2026-05-02T13:46:23.999Z</time></trkpt><trkpt lat="48.58875865640652" lon="-4.426467601734454"><ele>64.0</ele><time>2026-05-02T13:46:24.999Z</time></trkpt><trkpt lat="48.58889618160269" lon="-4.426454464245258"><ele>64.0</ele><time>2026-05-02T13:46:25.999Z</time></trkpt><trkpt lat="48.58903924907234" lon="-4.4264485360805965"><ele>64.0</ele><time>2026-05-02T13:46:26.999Z</time></trkpt><trkpt lat="48.58918024633823" lon="-4.4264513072219565"><ele>64.0</ele><time>2026-05-02T13:46:27.999Z</time></trkpt><trkpt lat="48.58931150236664" lon="-4.426451380239242"><ele>64.0</ele><time>2026-05-02T13:46:28.999Z</time></trkpt><trkpt lat="48.589458282575244" lon="-4.42643300337692"><ele>64.0</ele><time>2026-05-02T13:46:29.999Z</time></trkpt><trkpt lat="48.589600264644865" lon="-4.426431796711455"><ele>64.25</ele><time>2026-05-02T13:46:30.999Z</time></trkpt><trkpt lat="48.58974494165541" lon="-4.426436252646732"><ele>64.5</ele><time>2026-05-02T13:46:31.999Z</time></trkpt><trkpt lat="48.58990212099613" lon="-4.426437380038619"><ele>64.75</ele><time>2026-05-02T13:46:32.999Z</time></trkpt><trkpt lat="48.590046492721136" lon="-4.426424552142968"><ele>65.0</ele><time>2026-05-02T13:46:33.999Z</time></trkpt><trkpt lat="48.59018030722482" lon="-4.42641500908383"><ele>65.0</ele><time>2026-05-02T13:46:34.999Z</time></trkpt><trkpt lat="48.59033056324559" lon="-4.426406591632314"><ele>65.0</ele><time>2026-05-02T13:46:35.999Z</time></trkpt><trkpt lat="48.590472392585795" lon="-4.42642527408008"><ele>65.0</ele><time>2026-05-02T13:46:36.999Z</time></trkpt><trkpt lat="48.59062662316524" lon="-4.4264274507467"><ele>65.0</ele><time>2026-05-02T13:46:37.999Z</time></trkpt><trkpt lat="48.590771433937036" lon="-4.426409901181502"><ele>65.33333333333334</ele><time>2026-05-02T13:46:38.999Z</time></trkpt><trkpt lat="48.590921652077085" lon="-4.426414997080561"><ele>65.66666666666667</ele><time>2026-05-02T13:46:39.999Z</time></trkpt><trkpt lat="48.59108196657872" lon="-4.426416627762134"><ele>66.0</ele><time>2026-05-02T13:46:40.999Z</time></trkpt><trkpt lat="48.59122946999066" lon="-4.42641323726468"><ele>67.0</ele><time>2026-05-02T13:46:41.999Z</time></trkpt><trkpt lat="48.591359527750996" lon="-4.426398736280502"><ele>68.0</ele><time>2026-05-02T13:46:42.999Z</time></trkpt><trkpt lat="48.59148665285198" lon="-4.426391078430814"><ele>69.0</ele><time>2026-05-02T13:46:43.999Z</time></trkpt><trkpt lat="48.59159468073375" lon="-4.426427857838977"><ele>70.0</ele><time>2026-05-02T13:46:44.999Z</time></trkpt><trkpt lat="48.591704243398" lon="-4.426431759559778"><ele>70.0</ele><time>2026-05-02T13:46:45.999Z</time></trkpt><trkpt lat="48.59180983459347" lon="-4.426435797654183"><ele>70.0</ele><time>2026-05-02T13:46:46.999Z</time></trkpt><trkpt lat="48.59191189640457" lon="-4.426447183435247"><ele>70.0</ele><time>2026-05-02T13:46:47.999Z</time></trkpt><trkpt lat="48.592011130032795" lon="-4.4264503683422785"><ele>70.0</ele><time>2026-05-02T13:46:48.999Z</time></trkpt><trkpt lat="48.59211586930231" lon="-4.4264470760467995"><ele>70.0</ele><time>2026-05-02T13:46:49.999Z</time></trkpt><trkpt lat="48.59221837954502" lon="-4.426446073030605"><ele>70.2</ele><time>2026-05-02T13:46:50.999Z</time></trkpt><trkpt lat="48.592325699556774" lon="-4.426443924205377"><ele>70.4</ele><time>2026-05-02T13:46:51.999Z</time></trkpt><trkpt lat="48.59243565093741" lon="-4.426430401629858"><ele>70.6</ele><time>2026-05-02T13:46:52.999Z</time></trkpt><trkpt lat="48.59254288073656" lon="-4.426446459994506"><ele>70.8</ele><time>2026-05-02T13:46:53.999Z</time></trkpt><trkpt lat="48.592664887557845" lon="-4.426436866076987"><ele>71.0</ele><time>2026-05-02T13:46:54.999Z</time></trkpt><trkpt lat="48.59278445509585" lon="-4.4264097361445875"><ele>71.16666666666667</ele><time>2026-05-02T13:46:55.999Z</time></trkpt><trkpt lat="48.592879134750014" lon="-4.426384090432723"><ele>71.33333333333334</ele><time>2026-05-02T13:46:56.999Z</time></trkpt><trkpt lat="48.59296999368639" lon="-4.426354816373539"><ele>71.5</ele><time>2026-05-02T13:46:57.999Z</time></trkpt><trkpt lat="48.59304382627811" lon="-4.426308480496609"><ele>71.66666666666667</ele><time>2026-05-02T13:46:58.999Z</time></trkpt><trkpt lat="48.593122396656554" lon="-4.426279404661932"><ele>71.83333333333333</ele><time>2026-05-02T13:46:59.999Z</time></trkpt><trkpt lat="48.593210509349646" lon="-4.426273228782617"><ele>72.0</ele><time>2026-05-02T13:47:00.999Z</time></trkpt><trkpt lat="48.593298237921324" lon="-4.426243469491291"><ele>72.0</ele><time>2026-05-02T13:47:01.999Z</time></trkpt><trkpt lat="48.59337678161287" lon="-4.426216554995106"><ele>72.0</ele><time>2026-05-02T13:47:02.999Z</time></trkpt><trkpt lat="48.59347840020566" lon="-4.426178142170413"><ele>72.0</ele><time>2026-05-02T13:47:04.999Z</time></trkpt><trkpt lat="48.593570488694645" lon="-4.426141393256127"><ele>72.0</ele><time>2026-05-02T13:47:06.999Z</time></trkpt><trkpt lat="48.593673121638886" lon="-4.426102670267179"><ele>72.0</ele><time>2026-05-02T13:47:08.999Z</time></trkpt><trkpt lat="48.5937435255934" lon="-4.426078399450622"><ele>72.0</ele><time>2026-05-02T13:47:10.999Z</time></trkpt><trkpt lat="48.59381125884316" lon="-4.426060839177986"><ele>72.0</ele><time>2026-05-02T13:47:13.999Z</time></trkpt><trkpt lat="48.593726561266585" lon="-4.426099312347059"><ele>72.0</ele><time>2026-05-02T13:47:27.999Z</time></trkpt><trkpt lat="48.593657849921925" lon="-4.426130206175892"><ele>72.0</ele><time>2026-05-02T13:47:28.999Z</time></trkpt><trkpt lat="48.593588321221084" lon="-4.426140143441278"><ele>72.0</ele><time>2026-05-02T13:47:29.999Z</time></trkpt><trkpt lat="48.59346036189188" lon="-4.426168399321477"><ele>72.0</ele><time>2026-05-02T13:47:30.999Z</time></trkpt><trkpt lat="48.593346980115896" lon="-4.426205003914839"><ele>72.0</ele><time>2026-05-02T13:47:31.999Z</time></trkpt><trkpt lat="48.59321905281399" lon="-4.426242718460258"><ele>72.0</ele><time>2026-05-02T13:47:32.999Z</time></trkpt><trkpt lat="48.59309444749268" lon="-4.426300030828152"><ele>72.0</ele><time>2026-05-02T13:47:33.999Z</time></trkpt><trkpt lat="48.59297392205188" lon="-4.426364941257286"><ele>72.0</ele><time>2026-05-02T13:47:34.999Z</time></trkpt><trkpt lat="48.59284643518242" lon="-4.426387253228928"><ele>71.75</ele><time>2026-05-02T13:47:35.999Z</time></trkpt><trkpt lat="48.592718576919374" lon="-4.426433075064198"><ele>71.5</ele><time>2026-05-02T13:47:36.999Z</time></trkpt><trkpt lat="48.59257284877657" lon="-4.4264814709695255"><ele>71.25</ele><time>2026-05-02T13:47:37.999Z</time></trkpt><trkpt lat="48.5924176488962" lon="-4.426472543878684"><ele>71.0</ele><time>2026-05-02T13:47:38.999Z</time></trkpt><trkpt lat="48.592270716062636" lon="-4.4264932513694335"><ele>71.0</ele><time>2026-05-02T13:47:39.999Z</time></trkpt><trkpt lat="48.59213774118064" lon="-4.426495920438577"><ele>71.0</ele><time>2026-05-02T13:47:40.999Z</time></trkpt><trkpt lat="48.59199874159889" lon="-4.426521129842168"><ele>71.0</ele><time>2026-05-02T13:47:41.999Z</time></trkpt><trkpt lat="48.591841840009124" lon="-4.42653974907418"><ele>71.0</ele><time>2026-05-02T13:47:42.998Z</time></trkpt><trkpt lat="48.59169435690405" lon="-4.426523930356931"><ele>70.66666666666667</ele><time>2026-05-02T13:47:43.998Z</time></trkpt><trkpt lat="48.59154206535716" lon="-4.426518457359539"><ele>70.33333333333333</ele><time>2026-05-02T13:47:44.998Z</time></trkpt><trkpt lat="48.591384747964334" lon="-4.4265121336584095"><ele>70.0</ele><time>2026-05-02T13:47:45.998Z</time></trkpt><trkpt lat="48.591229716239674" lon="-4.426504128443742"><ele>68.66666666666666</ele><time>2026-05-02T13:47:46.998Z</time></trkpt><trkpt lat="48.59107103729032" lon="-4.4264706183502245"><ele>67.33333333333333</ele><time>2026-05-02T13:47:47.998Z</time></trkpt><trkpt lat="48.59091053327532" lon="-4.426464788533233"><ele>66.0</ele><time>2026-05-02T13:47:48.998Z</time></trkpt><trkpt lat="48.59075130001455" lon="-4.4264593868169255"><ele>66.0</ele><time>2026-05-02T13:47:49.998Z</time></trkpt><trkpt lat="48.59057612171805" lon="-4.426453444192486"><ele>66.0</ele><time>2026-05-02T13:47:50.998Z</time></trkpt><trkpt lat="48.590409642969625" lon="-4.426450419916866"><ele>66.0</ele><time>2026-05-02T13:47:51.998Z</time></trkpt><trkpt lat="48.59025147909351" lon="-4.426452585471562"><ele>65.66666666666667</ele><time>2026-05-02T13:47:52.998Z</time></trkpt><trkpt lat="48.590086055656265" lon="-4.426457883732431"><ele>65.33333333333334</ele><time>2026-05-02T13:47:53.998Z</time></trkpt><trkpt lat="48.58992328339891" lon="-4.426464734614381"><ele>65.0</ele><time>2026-05-02T13:47:54.998Z</time></trkpt><trkpt lat="48.5897573633746" lon="-4.4264726648718025"><ele>65.0</ele><time>2026-05-02T13:47:55.998Z</time></trkpt><trkpt lat="48.589609426755565" lon="-4.42647973560805"><ele>65.0</ele><time>2026-05-02T13:47:56.998Z</time></trkpt><trkpt lat="48.58948226588398" lon="-4.426485813365203"><ele>65.0</ele><time>2026-05-02T13:47:57.998Z</time></trkpt><trkpt lat="48.589386516061474" lon="-4.426467240711069"><ele>65.0</ele><time>2026-05-02T13:47:59Z</time></trkpt><trkpt lat="48.5893123145824" lon="-4.4265241590477356"><ele>64.83333333333334</ele><time>2026-05-02T13:48:00Z</time></trkpt><trkpt lat="48.58923319203451" lon="-4.426522780011561"><ele>64.66666666666667</ele><time>2026-05-02T13:48:01Z</time></trkpt><trkpt lat="48.58913863020506" lon="-4.426527269661746"><ele>64.5</ele><time>2026-05-02T13:48:02Z</time></trkpt><trkpt lat="48.589055887882" lon="-4.426531876762112"><ele>64.33333333333333</ele><time>2026-05-02T13:48:03Z</time></trkpt><trkpt lat="48.588977065051544" lon="-4.426536136221536"><ele>64.16666666666666</ele><time>2026-05-02T13:48:04Z</time></trkpt><trkpt lat="48.588884804626936" lon="-4.4265411272835555"><ele>64.0</ele><time>2026-05-02T13:48:05Z</time></trkpt><trkpt lat="48.588796580200075" lon="-4.42654590001339"><ele>64.0</ele><time>2026-05-02T13:48:06Z</time></trkpt><trkpt lat="48.58871745327945" lon="-4.426550180577885"><ele>64.0</ele><time>2026-05-02T13:48:07Z</time></trkpt><trkpt lat="48.58859693394961" lon="-4.426541182723455"><ele>64.0</ele><time>2026-05-02T13:48:08Z</time></trkpt><trkpt lat="48.588463022933865" lon="-4.426518659148503"><ele>64.0</ele><time>2026-05-02T13:48:09Z</time></trkpt><trkpt lat="48.58831188256207" lon="-4.426506682947716"><ele>64.0</ele><time>2026-05-02T13:48:10Z</time></trkpt><trkpt lat="48.58816586677752" lon="-4.426493610232933"><ele>64.0</ele><time>2026-05-02T13:48:11Z</time></trkpt><trkpt lat="48.58804648041388" lon="-4.426558943958456"><ele>64.0</ele><time>2026-05-02T13:48:12Z</time></trkpt><trkpt lat="48.58791028103179" lon="-4.426565406794372"><ele>64.0</ele><time>2026-05-02T13:48:13Z</time></trkpt><trkpt lat="48.58776192728492" lon="-4.426571389251295"><ele>64.0</ele><time>2026-05-02T13:48:14Z</time></trkpt><trkpt lat="48.587620398451534" lon="-4.426577096491582"><ele>64.0</ele><time>2026-05-02T13:48:15Z</time></trkpt><trkpt lat="48.587481563941466" lon="-4.426582695077501"><ele>64.0</ele><time>2026-05-02T13:48:16Z</time></trkpt><trkpt lat="48.5873597393602" lon="-4.426580729453827"><ele>64.0</ele><time>2026-05-02T13:48:16.999Z</time></trkpt><trkpt lat="48.58723292608918" lon="-4.426568874863345"><ele>64.0</ele><time>2026-05-02T13:48:17.999Z</time></trkpt><trkpt lat="48.58711248450665" lon="-4.426591744002819"><ele>64.0</ele><time>2026-05-02T13:48:18.999Z</time></trkpt><trkpt lat="48.58699602365137" lon="-4.426603216364475"><ele>64.0</ele><time>2026-05-02T13:48:19.999Z</time></trkpt><trkpt lat="48.5868888824849" lon="-4.426617772904948"><ele>64.0</ele><time>2026-05-02T13:48:20.999Z</time></trkpt><trkpt lat="48.58677446356135" lon="-4.426622970976957"><ele>64.0</ele><time>2026-05-02T13:48:21.999Z</time></trkpt><trkpt lat="48.586654965917255" lon="-4.426634689239794"><ele>64.0</ele><time>2026-05-02T13:48:22.999Z</time></trkpt><trkpt lat="48.586524156817354" lon="-4.426653949014075"><ele>64.0</ele><time>2026-05-02T13:48:23.999Z</time></trkpt><trkpt lat="48.586382559343356" lon="-4.426691024822376"><ele>64.0</ele><time>2026-05-02T13:48:24.999Z</time></trkpt><trkpt lat="48.58624261763932" lon="-4.426735348265727"><ele>64.0</ele><time>2026-05-02T13:48:25.999Z</time></trkpt><trkpt lat="48.586087433147775" lon="-4.426790513723666"><ele>64.0</ele><time>2026-05-02T13:48:26.999Z</time></trkpt><trkpt lat="48.585938058997854" lon="-4.4268495535381645"><ele>64.0</ele><time>2026-05-02T13:48:27.999Z</time></trkpt><trkpt lat="48.58580466213781" lon="-4.426917185838706"><ele>63.99999999999999</ele><time>2026-05-02T13:48:28.999Z</time></trkpt><trkpt lat="48.585696659025444" lon="-4.426968567459623"><ele>64.0</ele><time>2026-05-02T13:48:29.999Z</time></trkpt><trkpt lat="48.58560151696644" lon="-4.427014391492217"><ele>64.0</ele><time>2026-05-02T13:48:30.999Z</time></trkpt><trkpt lat="48.585528276559494" lon="-4.427031165271294"><ele>64.0</ele><time>2026-05-02T13:48:31.999Z</time></trkpt><trkpt lat="48.58546662209927" lon="-4.427091976209734"><ele>63.99999999999999</ele><time>2026-05-02T13:48:32.999Z</time></trkpt><trkpt lat="48.58539625802834" lon="-4.427117580222907"><ele>64.0</ele><time>2026-05-02T13:48:33.999Z</time></trkpt><trkpt lat="48.58532841617431" lon="-4.427146117159494"><ele>63.99999999999999</ele><time>2026-05-02T13:48:34.999Z</time></trkpt><trkpt lat="48.585259751218445" lon="-4.427177086633716"><ele>64.0</ele><time>2026-05-02T13:48:35.999Z</time></trkpt><trkpt lat="48.58519676459224" lon="-4.427227555153338"><ele>64.0</ele><time>2026-05-02T13:48:36.999Z</time></trkpt><trkpt lat="48.58512043007684" lon="-4.427265250092528"><ele>64.0</ele><time>2026-05-02T13:48:37.999Z</time></trkpt><trkpt lat="48.58504942679402" lon="-4.427247785375002"><ele>63.99999999999999</ele><time>2026-05-02T13:48:38.999Z</time></trkpt><trkpt lat="48.58498342044422" lon="-4.427300037073334"><ele>64.0</ele><time>2026-05-02T13:48:39.999Z</time></trkpt><trkpt lat="48.58489852347401" lon="-4.4273306379735"><ele>64.0</ele><time>2026-05-02T13:48:40.999Z</time></trkpt><trkpt lat="48.58481022926813" lon="-4.427360970465419"><ele>64.0</ele><time>2026-05-02T13:48:41.999Z</time></trkpt><trkpt lat="48.584712515271846" lon="-4.427392049606351"><ele>64.0</ele><time>2026-05-02T13:48:42.999Z</time></trkpt><trkpt lat="48.58460906529368" lon="-4.427424953087528"><ele>64.0</ele><time>2026-05-02T13:48:43.999Z</time></trkpt><trkpt lat="48.58450783287129" lon="-4.427433702157346"><ele>64.0</ele><time>2026-05-02T13:48:44.999Z</time></trkpt><trkpt lat="48.58441453742725" lon="-4.427509378206019"><ele>63.400000000000006</ele><time>2026-05-02T13:48:45.999Z</time></trkpt><trkpt lat="48.584315034245016" lon="-4.427555034032006"><ele>62.800000000000004</ele><time>2026-05-02T13:48:46.999Z</time></trkpt><trkpt lat="48.58420292391353" lon="-4.427605819665281"><ele>62.199999999999996</ele><time>2026-05-02T13:48:47.999Z</time></trkpt><trkpt lat="48.584100543906764" lon="-4.427642964711414"><ele>61.599999999999994</ele><time>2026-05-02T13:48:48.999Z</time></trkpt><trkpt lat="48.58400570004093" lon="-4.427720921301187"><ele>61.0</ele><time>2026-05-02T13:48:49.999Z</time></trkpt><trkpt lat="48.58393602457784" lon="-4.427800995295137"><ele>61.0</ele><time>2026-05-02T13:48:50.999Z</time></trkpt><trkpt lat="48.58386006551175" lon="-4.427887498851609"><ele>60.99999999999999</ele><time>2026-05-02T13:48:51.999Z</time></trkpt><trkpt lat="48.58378604299518" lon="-4.4279532636880194"><ele>60.99999999999999</ele><time>2026-05-02T13:48:52.999Z</time></trkpt><trkpt lat="48.583710399814144" lon="-4.4280498921262215"><ele>61.0</ele><time>2026-05-02T13:48:53.999Z</time></trkpt><trkpt lat="48.583638731513965" lon="-4.428162643964972"><ele>61.0</ele><time>2026-05-02T13:48:54.999Z</time></trkpt><trkpt lat="48.583560875668205" lon="-4.428310131998646"><ele>60.4</ele><time>2026-05-02T13:48:55.999Z</time></trkpt><trkpt lat="48.58350447927223" lon="-4.428456987664462"><ele>59.8</ele><time>2026-05-02T13:48:56.999Z</time></trkpt><trkpt lat="48.58343499231022" lon="-4.428551350648529"><ele>59.199999999999996</ele><time>2026-05-02T13:48:57.999Z</time></trkpt><trkpt lat="48.58336431921999" lon="-4.428666954759386"><ele>58.599999999999994</ele><time>2026-05-02T13:48:58.999Z</time></trkpt><trkpt lat="48.58329671975699" lon="-4.42877691566736"><ele>58.0</ele><time>2026-05-02T13:48:59.999Z</time></trkpt><trkpt lat="48.58322694372472" lon="-4.428891336355848"><ele>57.99999999999999</ele><time>2026-05-02T13:49:00.999Z</time></trkpt><trkpt lat="48.58318015228914" lon="-4.429013180385769"><ele>58.0</ele><time>2026-05-02T13:49:01.999Z</time></trkpt><trkpt lat="48.58313147665028" lon="-4.429104713082642"><ele>58.0</ele><time>2026-05-02T13:49:02.999Z</time></trkpt><trkpt lat="48.58308700655891" lon="-4.4291907955550585"><ele>58.0</ele><time>2026-05-02T13:49:03.999Z</time></trkpt><trkpt lat="48.5830461816224" lon="-4.429266364601213"><ele>57.99999999999999</ele><time>2026-05-02T13:49:04.999Z</time></trkpt><trkpt lat="48.58299988244366" lon="-4.429336402284386"><ele>58.0</ele><time>2026-05-02T13:49:06.999Z</time></trkpt><trkpt lat="48.5829603709809" lon="-4.429455754510573"><ele>57.99999999999999</ele><time>2026-05-02T13:49:08.999Z</time></trkpt><trkpt lat="48.583039115876005" lon="-4.429530377150664"><ele>58.0</ele><time>2026-05-02T13:49:09.999Z</time></trkpt><trkpt lat="48.58303636322642" lon="-4.4296575303791395"><ele>58.0</ele><time>2026-05-02T13:49:11.999Z</time></trkpt><trkpt lat="48.58302879528525" lon="-4.429821734088814"><ele>58.0</ele><time>2026-05-02T13:49:13.999Z</time></trkpt><trkpt lat="48.583010459464504" lon="-4.4299359517332695"><ele>57.99999999999999</ele><time>2026-05-02T13:49:15.999Z</time></trkpt><trkpt lat="48.582992998225734" lon="-4.430057056646914"><ele>58.0</ele><time>2026-05-02T13:49:17.999Z</time></trkpt><trkpt lat="48.58299628030873" lon="-4.4302220238681125"><ele>58.49999999999999</ele><time>2026-05-02T13:49:20.999Z</time></trkpt><trkpt lat="48.58299830197062" lon="-4.4303223058710435"><ele>59.0</ele><time>2026-05-02T13:49:21.999Z</time></trkpt><trkpt lat="48.583000983285956" lon="-4.430455309250726"><ele>59.5</ele><time>2026-05-02T13:49:22.999Z</time></trkpt><trkpt lat="48.5829864803906" lon="-4.430569905961646"><ele>60.0</ele><time>2026-05-02T13:49:23.999Z</time></trkpt><trkpt lat="48.58299342537567" lon="-4.430669356140501"><ele>60.49999999999999</ele><time>2026-05-02T13:49:24.999Z</time></trkpt><trkpt lat="48.583000237150934" lon="-4.430817293938484"><ele>61.0</ele><time>2026-05-02T13:49:25.999Z</time></trkpt><trkpt lat="48.58300577395902" lon="-4.4309824707972885"><ele>61.199999999999996</ele><time>2026-05-02T13:49:27.999Z</time></trkpt><trkpt lat="48.58300562464998" lon="-4.431145847043797"><ele>61.39999999999999</ele><time>2026-05-02T13:49:29.999Z</time></trkpt><trkpt lat="48.58301791132378" lon="-4.4313340556362"><ele>61.6</ele><time>2026-05-02T13:49:31.999Z</time></trkpt><trkpt lat="48.58297037608236" lon="-4.43152423504324"><ele>61.8</ele><time>2026-05-02T13:49:33.999Z</time></trkpt><trkpt lat="48.5829513139845" lon="-4.431625467811258"><ele>62.0</ele><time>2026-05-02T13:49:34.999Z</time></trkpt><trkpt lat="48.58292587474353" lon="-4.431741338893498"><ele>62.00000000000001</ele><time>2026-05-02T13:49:35.999Z</time></trkpt><trkpt lat="48.58289621989321" lon="-4.431846293687556"><ele>62.0</ele><time>2026-05-02T13:49:36.998Z</time></trkpt><trkpt lat="48.58287517739792" lon="-4.431943211171974"><ele>62.0</ele><time>2026-05-02T13:49:37.998Z</time></trkpt><trkpt lat="48.582861738308964" lon="-4.43204907858539"><ele>62.0</ele><time>2026-05-02T13:49:38.998Z</time></trkpt><trkpt lat="48.582841691803345" lon="-4.432242259674113"><ele>62.00000000000001</ele><time>2026-05-02T13:49:40.998Z</time></trkpt><trkpt lat="48.582827525014956" lon="-4.432399327969503"><ele>62.0</ele><time>2026-05-02T13:49:42.998Z</time></trkpt><trkpt lat="48.582828607613976" lon="-4.432557322892717"><ele>62.0</ele><time>2026-05-02T13:49:44.998Z</time></trkpt><trkpt lat="48.58285666048965" lon="-4.4326766690940405"><ele>62.0</ele><time>2026-05-02T13:49:46.998Z</time></trkpt><trkpt lat="48.58290779028541" lon="-4.43280955483098"><ele>62.0</ele><time>2026-05-02T13:49:48.998Z</time></trkpt><trkpt lat="48.58299286768746" lon="-4.432951427401977"><ele>62.0</ele><time>2026-05-02T13:49:50.998Z</time></trkpt><trkpt lat="48.58306302908816" lon="-4.433035977386253"><ele>62.0</ele><time>2026-05-02T13:49:52.998Z</time></trkpt><trkpt lat="48.583101687717246" lon="-4.433132069766754"><ele>61.833333333333336</ele><time>2026-05-02T13:49:54.998Z</time></trkpt><trkpt lat="48.583169579903625" lon="-4.4332296605386805"><ele>61.66666666666667</ele><time>2026-05-02T13:49:56.998Z</time></trkpt><trkpt lat="48.583218166693975" lon="-4.433302444759902"><ele>61.5</ele><time>2026-05-02T13:49:57.998Z</time></trkpt><trkpt lat="48.583306191351475" lon="-4.433369083591442"><ele>61.33333333333333</ele><time>2026-05-02T13:50:00.998Z</time></trkpt><trkpt lat="48.58338742710913" lon="-4.4334256851261635"><ele>61.166666666666664</ele><time>2026-05-02T13:50:02.998Z</time></trkpt><trkpt lat="48.58346607474316" lon="-4.433509994571555"><ele>61.0</ele><time>2026-05-02T13:50:05.999Z</time></trkpt><trkpt lat="48.5835381337248" lon="-4.433536415384203"><ele>61.0</ele><time>2026-05-02T13:50:07.999Z</time></trkpt><trkpt lat="48.58365439643237" lon="-4.433532453038465"><ele>61.0</ele><time>2026-05-02T13:50:10.999Z</time></trkpt><trkpt lat="48.583736831264204" lon="-4.433565275713999"><ele>61.0</ele><time>2026-05-02T13:50:12.999Z</time></trkpt><trkpt lat="48.58398201046446" lon="-4.433570129422937"><ele>61.0</ele><time>2026-05-02T13:50:18Z</time></trkpt><trkpt lat="48.584185130196296" lon="-4.433613096125821"><ele>61.166666666666664</ele><time>2026-05-02T13:50:21.999Z</time></trkpt><trkpt lat="48.58425924101978" lon="-4.433620162083181"><ele>61.33333333333333</ele><time>2026-05-02T13:50:22.999Z</time></trkpt><trkpt lat="48.58432460850134" lon="-4.433652289328238"><ele>61.5</ele><time>2026-05-02T13:50:23.999Z</time></trkpt><trkpt lat="48.58439482936045" lon="-4.433674078089868"><ele>61.66666666666667</ele><time>2026-05-02T13:50:24.999Z</time></trkpt><trkpt lat="48.584469572578335" lon="-4.433686699729029"><ele>61.833333333333336</ele><time>2026-05-02T13:50:25.999Z</time></trkpt><trkpt lat="48.58458456357419" lon="-4.433730639860022"><ele>62.0</ele><time>2026-05-02T13:50:27.999Z</time></trkpt><trkpt lat="48.584705842976376" lon="-4.4337161200453075"><ele>62.400000000000006</ele><time>2026-05-02T13:50:29.999Z</time></trkpt><trkpt lat="48.58479020444509" lon="-4.433698365680516"><ele>62.800000000000004</ele><time>2026-05-02T13:50:31.999Z</time></trkpt><trkpt lat="48.58493601984023" lon="-4.433696311281783"><ele>63.2</ele><time>2026-05-02T13:50:34.999Z</time></trkpt><trkpt lat="48.585023665415505" lon="-4.433763884194637"><ele>63.6</ele><time>2026-05-02T13:50:36.999Z</time></trkpt><trkpt lat="48.5851016786701" lon="-4.433885953240876"><ele>64.0</ele><time>2026-05-02T13:50:38.999Z</time></trkpt><trkpt lat="48.58516913350427" lon="-4.433935744476542"><ele>63.6</ele><time>2026-05-02T13:50:40.999Z</time></trkpt><trkpt lat="48.58529194053229" lon="-4.433898607838819"><ele>63.2</ele><time>2026-05-02T13:50:42.999Z</time></trkpt><trkpt lat="48.585388736408106" lon="-4.43387777048225"><ele>62.800000000000004</ele><time>2026-05-02T13:50:45.999Z</time></trkpt><trkpt lat="48.58546856185947" lon="-4.43386306044623"><ele>62.400000000000006</ele><time>2026-05-02T13:50:47.999Z</time></trkpt><trkpt lat="48.58554322434064" lon="-4.433862452540819"><ele>62.0</ele><time>2026-05-02T13:50:49.999Z</time></trkpt><trkpt lat="48.5856194863141" lon="-4.433854008344251"><ele>62.0</ele><time>2026-05-02T13:50:51.999Z</time></trkpt><trkpt lat="48.58568555547245" lon="-4.433823928209828"><ele>62.0</ele><time>2026-05-02T13:50:53.999Z</time></trkpt><trkpt lat="48.58586978608581" lon="-4.433786462402253"><ele>62.0</ele><time>2026-05-02T13:50:57.999Z</time></trkpt><trkpt lat="48.585930702985586" lon="-4.43374324456931"><ele>62.0</ele><time>2026-05-02T13:50:58.999Z</time></trkpt><trkpt lat="48.585990867855465" lon="-4.433713647655633"><ele>62.0</ele><time>2026-05-02T13:50:59.999Z</time></trkpt><trkpt lat="48.58605272560508" lon="-4.433676674541479"><ele>62.2</ele><time>2026-05-02T13:51:00.999Z</time></trkpt><trkpt lat="48.58612601497203" lon="-4.43362690568323"><ele>62.400000000000006</ele><time>2026-05-02T13:51:01.999Z</time></trkpt><trkpt lat="48.58624026573137" lon="-4.433583500923431"><ele>62.599999999999994</ele><time>2026-05-02T13:51:03.999Z</time></trkpt><trkpt lat="48.58629774666436" lon="-4.433531753068705"><ele>62.8</ele><time>2026-05-02T13:51:04.999Z</time></trkpt><trkpt lat="48.58639730924525" lon="-4.433506194385272"><ele>63.0</ele><time>2026-05-02T13:51:06.999Z</time></trkpt><trkpt lat="48.58648427770563" lon="-4.433452317067325"><ele>63.333333333333336</ele><time>2026-05-02T13:51:08.999Z</time></trkpt><trkpt lat="48.58656672648787" lon="-4.433405949456132"><ele>63.66666666666667</ele><time>2026-05-02T13:51:10.999Z</time></trkpt><trkpt lat="48.586634391844534" lon="-4.433410150635877"><ele>64.0</ele><time>2026-05-02T13:51:12.999Z</time></trkpt><trkpt lat="48.58672597982441" lon="-4.433389974528271"><ele>64.33333333333334</ele><time>2026-05-02T13:51:14.999Z</time></trkpt><trkpt lat="48.58680481741713" lon="-4.433363377375083"><ele>64.66666666666667</ele><time>2026-05-02T13:51:16.999Z</time></trkpt><trkpt lat="48.586867470535125" lon="-4.433429401847355"><ele>65.0</ele><time>2026-05-02T13:51:20.999Z</time></trkpt><trkpt lat="48.58692157828228" lon="-4.433508802097242"><ele>65.0</ele><time>2026-05-02T13:51:22.999Z</time></trkpt><trkpt lat="48.58692403663237" lon="-4.433612333626998"><ele>65.0</ele><time>2026-05-02T13:51:24.999Z</time></trkpt><trkpt lat="48.58693538589982" lon="-4.4337292250890314"><ele>65.0</ele><time>2026-05-02T13:51:26.999Z</time></trkpt><trkpt lat="48.58695444213947" lon="-4.433844699935217"><ele>65.0</ele><time>2026-05-02T13:51:27.999Z</time></trkpt><trkpt lat="48.58696848795506" lon="-4.434014677142044"><ele>65.0</ele><time>2026-05-02T13:51:29.999Z</time></trkpt><trkpt lat="48.58697980120889" lon="-4.434139842065036"><ele>65.0</ele><time>2026-05-02T13:51:30.999Z</time></trkpt><trkpt lat="48.58696483972046" lon="-4.434252786966235"><ele>64.8</ele><time>2026-05-02T13:51:31.999Z</time></trkpt><trkpt lat="48.58698075476766" lon="-4.434379040452203"><ele>64.6</ele><time>2026-05-02T13:51:32.999Z</time></trkpt><trkpt lat="48.587005083819385" lon="-4.434510667456712"><ele>64.4</ele><time>2026-05-02T13:51:33.999Z</time></trkpt><trkpt lat="48.587012258872306" lon="-4.434628324178903"><ele>64.2</ele><time>2026-05-02T13:51:34.999Z</time></trkpt><trkpt lat="48.587024788594626" lon="-4.434753920793777"><ele>64.0</ele><time>2026-05-02T13:51:35.999Z</time></trkpt><trkpt lat="48.58703813514596" lon="-4.434937321832075"><ele>64.0</ele><time>2026-05-02T13:51:37.999Z</time></trkpt><trkpt lat="48.58702230112072" lon="-4.435030040055131"><ele>64.0</ele><time>2026-05-02T13:51:38.999Z</time></trkpt><trkpt lat="48.58693064377097" lon="-4.435134241569033"><ele>64.0</ele><time>2026-05-02T13:51:40.999Z</time></trkpt><trkpt lat="48.58685465038537" lon="-4.435154953760797"><ele>64.0</ele><time>2026-05-02T13:51:41.999Z</time></trkpt><trkpt lat="48.586758362790164" lon="-4.435191685746643"><ele>64.0</ele><time>2026-05-02T13:51:42.999Z</time></trkpt><trkpt lat="48.58666618690509" lon="-4.43525245802539"><ele>64.0</ele><time>2026-05-02T13:51:43.999Z</time></trkpt><trkpt lat="48.58657404200269" lon="-4.435335876294751"><ele>64.0</ele><time>2026-05-02T13:51:44.999Z</time></trkpt><trkpt lat="48.586489511779796" lon="-4.435395283245064"><ele>64.0</ele><time>2026-05-02T13:51:45.999Z</time></trkpt><trkpt lat="48.58640511911912" lon="-4.435461930268157"><ele>64.0</ele><time>2026-05-02T13:51:46.999Z</time></trkpt><trkpt lat="48.5863350315997" lon="-4.435553571646333"><ele>64.0</ele><time>2026-05-02T13:51:47.999Z</time></trkpt><trkpt lat="48.586262803582024" lon="-4.4356491048441615"><ele>63.99999999999999</ele><time>2026-05-02T13:51:48.999Z</time></trkpt><trkpt lat="48.58618781877434" lon="-4.435740498730184"><ele>64.0</ele><time>2026-05-02T13:51:49.999Z</time></trkpt><trkpt lat="48.58612712565188" lon="-4.435814446133443"><ele>64.0</ele><time>2026-05-02T13:51:50.998Z</time></trkpt><trkpt lat="48.58608127381705" lon="-4.435880262672742"><ele>64.0</ele><time>2026-05-02T13:51:51.998Z</time></trkpt><trkpt lat="48.58603190052617" lon="-4.436046177140674"><ele>63.99999999999999</ele><time>2026-05-02T13:51:53.998Z</time></trkpt><trkpt lat="48.58602445169757" lon="-4.436173406451518"><ele>64.0</ele><time>2026-05-02T13:51:54.998Z</time></trkpt><trkpt lat="48.58602054889307" lon="-4.4362769227975045"><ele>63.6</ele><time>2026-05-02T13:51:55.998Z</time></trkpt><trkpt lat="48.58601645520398" lon="-4.436452291069572"><ele>63.2</ele><time>2026-05-02T13:51:56.998Z</time></trkpt><trkpt lat="48.58601439020314" lon="-4.436636742591915"><ele>62.800000000000004</ele><time>2026-05-02T13:51:58.998Z</time></trkpt><trkpt lat="48.58601402530027" lon="-4.43676960443074"><ele>62.400000000000006</ele><time>2026-05-02T13:51:59.998Z</time></trkpt><trkpt lat="48.58601593125085" lon="-4.436924113379519"><ele>62.0</ele><time>2026-05-02T13:52:00.998Z</time></trkpt><trkpt lat="48.586018136267754" lon="-4.437104102655816"><ele>62.333333333333336</ele><time>2026-05-02T13:52:01.998Z</time></trkpt><trkpt lat="48.586018136267185" lon="-4.437272044311609"><ele>62.66666666666667</ele><time>2026-05-02T13:52:02.998Z</time></trkpt><trkpt lat="48.586004744678796" lon="-4.437408908689191"><ele>63.0</ele><time>2026-05-02T13:52:03.998Z</time></trkpt><trkpt lat="48.5860098306657" lon="-4.437548516618346"><ele>63.33333333333333</ele><time>2026-05-02T13:52:04.998Z</time></trkpt><trkpt lat="48.586015415253556" lon="-4.437646488312645"><ele>63.666666666666664</ele><time>2026-05-02T13:52:05.998Z</time></trkpt><trkpt lat="48.586023315646315" lon="-4.4377617376913765"><ele>64.0</ele><time>2026-05-02T13:52:06.998Z</time></trkpt><trkpt lat="48.586030575368085" lon="-4.437860690319002"><ele>64.0</ele><time>2026-05-02T13:52:07.998Z</time></trkpt><trkpt lat="48.58603955349299" lon="-4.438031973298541"><ele>64.0</ele><time>2026-05-02T13:52:09.998Z</time></trkpt><trkpt lat="48.58606094314526" lon="-4.438169022926142"><ele>64.0</ele><time>2026-05-02T13:52:12Z</time></trkpt><trkpt lat="48.586061588348386" lon="-4.438337588437061"><ele>64.0</ele><time>2026-05-02T13:52:14Z</time></trkpt><trkpt lat="48.58601837330953" lon="-4.438508081800601"><ele>64.0</ele><time>2026-05-02T13:52:16Z</time></trkpt><trkpt lat="48.58601719229999" lon="-4.438699053708793"><ele>63.99999999999999</ele><time>2026-05-02T13:52:18Z</time></trkpt><trkpt lat="48.58602582756595" lon="-4.438793524980722"><ele>64.0</ele><time>2026-05-02T13:52:19Z</time></trkpt><trkpt lat="48.58604425734636" lon="-4.4389556515649"><ele>64.0</ele><time>2026-05-02T13:52:21Z</time></trkpt><trkpt lat="48.58604548674639" lon="-4.4390970997465375"><ele>64.0</ele><time>2026-05-02T13:52:23Z</time></trkpt><trkpt lat="48.58606491862269" lon="-4.439213364765138"><ele>63.99999999999999</ele><time>2026-05-02T13:52:25Z</time></trkpt><trkpt lat="48.58607516641731" lon="-4.439343027451241"><ele>64.0</ele><time>2026-05-02T13:52:27Z</time></trkpt><trkpt lat="48.586091891990584" lon="-4.439529002480388"><ele>63.800000000000004</ele><time>2026-05-02T13:52:28.999Z</time></trkpt><trkpt lat="48.586106504857895" lon="-4.439684479114096"><ele>63.60000000000001</ele><time>2026-05-02T13:52:29.999Z</time></trkpt><trkpt lat="48.58611224023277" lon="-4.439790593482683"><ele>63.4</ele><time>2026-05-02T13:52:30.999Z</time></trkpt><trkpt lat="48.58613517174642" lon="-4.439963602205651"><ele>63.2</ele><time>2026-05-02T13:52:32.999Z</time></trkpt><trkpt lat="48.58613184517317" lon="-4.440116068114415"><ele>63.0</ele><time>2026-05-02T13:52:34.999Z</time></trkpt><trkpt lat="48.586054707104786" lon="-4.4400891307183"><ele>63.0</ele><time>2026-05-02T13:52:55.999Z</time></trkpt><trkpt lat="48.58598486009349" lon="-4.440076493595603"><ele>63.0</ele><time>2026-05-02T13:52:56.999Z</time></trkpt><trkpt lat="48.58592329382618" lon="-4.440056030012501"><ele>63.0</ele><time>2026-05-02T13:52:57.999Z</time></trkpt><trkpt lat="48.58584137203985" lon="-4.440047726446239"><ele>63.0</ele><time>2026-05-02T13:52:58.999Z</time></trkpt><trkpt lat="48.585745680211424" lon="-4.440042151275193"><ele>63.0</ele><time>2026-05-02T13:52:59.999Z</time></trkpt><trkpt lat="48.585645144380614" lon="-4.440028693167554"><ele>63.0</ele><time>2026-05-02T13:53:00.999Z</time></trkpt><trkpt lat="48.58552207288189" lon="-4.4400070745207145"><ele>63.0</ele><time>2026-05-02T13:53:01.999Z</time></trkpt><trkpt lat="48.58541822039088" lon="-4.439995599720067"><ele>63.0</ele><time>2026-05-02T13:53:02.999Z</time></trkpt><trkpt lat="48.585291391218384" lon="-4.439992742794387"><ele>63.0</ele><time>2026-05-02T13:53:03.999Z</time></trkpt><trkpt lat="48.58518140100252" lon="-4.439963366769653"><ele>63.0</ele><time>2026-05-02T13:53:04.999Z</time></trkpt><trkpt lat="48.585079961599185" lon="-4.439939482089799"><ele>63.0</ele><time>2026-05-02T13:53:05.999Z</time></trkpt><trkpt lat="48.584973552689256" lon="-4.43992476578659"><ele>62.8</ele><time>2026-05-02T13:53:06.999Z</time></trkpt><trkpt lat="48.584868000042356" lon="-4.439898422677425"><ele>62.599999999999994</ele><time>2026-05-02T13:53:07.999Z</time></trkpt><trkpt lat="48.58478447707399" lon="-4.439862146323205"><ele>62.400000000000006</ele><time>2026-05-02T13:53:08.999Z</time></trkpt><trkpt lat="48.58468706115791" lon="-4.439814776202752"><ele>62.2</ele><time>2026-05-02T13:53:09.999Z</time></trkpt><trkpt lat="48.584584428268016" lon="-4.439752833176638"><ele>62.0</ele><time>2026-05-02T13:53:10.999Z</time></trkpt><trkpt lat="48.58444992973209" lon="-4.439701412194212"><ele>61.5</ele><time>2026-05-02T13:53:11.999Z</time></trkpt><trkpt lat="48.58430971804885" lon="-4.439589318334596"><ele>61.0</ele><time>2026-05-02T13:53:12.999Z</time></trkpt><trkpt lat="48.58418258758188" lon="-4.439484705599277"><ele>60.5</ele><time>2026-05-02T13:53:13.999Z</time></trkpt><trkpt lat="48.58406956366329" lon="-4.43938766127576"><ele>60.0</ele><time>2026-05-02T13:53:14.999Z</time></trkpt><trkpt lat="48.58394340151055" lon="-4.4392786840052825"><ele>60.0</ele><time>2026-05-02T13:53:15.999Z</time></trkpt><trkpt lat="48.58380866993845" lon="-4.439162304564281"><ele>60.0</ele><time>2026-05-02T13:53:16.999Z</time></trkpt><trkpt lat="48.58368827944981" lon="-4.439056134095549"><ele>60.0</ele><time>2026-05-02T13:53:17.999Z</time></trkpt><trkpt lat="48.583576629747434" lon="-4.438956873773596"><ele>60.0</ele><time>2026-05-02T13:53:18.999Z</time></trkpt><trkpt lat="48.58346428864334" lon="-4.438856998698143"><ele>59.75</ele><time>2026-05-02T13:53:19.999Z</time></trkpt><trkpt lat="48.583363380463645" lon="-4.438767287911719"><ele>59.5</ele><time>2026-05-02T13:53:20.999Z</time></trkpt><trkpt lat="48.583261587108254" lon="-4.438676790135135"><ele>59.25</ele><time>2026-05-02T13:53:21.999Z</time></trkpt><trkpt lat="48.5831669431324" lon="-4.438592648424367"><ele>59.0</ele><time>2026-05-02T13:53:22.999Z</time></trkpt><trkpt lat="48.58306665150698" lon="-4.438503861622685"><ele>59.0</ele><time>2026-05-02T13:53:23.999Z</time></trkpt><trkpt lat="48.58297343575398" lon="-4.438422884638371"><ele>59.00000000000001</ele><time>2026-05-02T13:53:24.999Z</time></trkpt><trkpt lat="48.58288593077418" lon="-4.438348613271459"><ele>59.00000000000001</ele><time>2026-05-02T13:53:25.999Z</time></trkpt><trkpt lat="48.58277902003431" lon="-4.438294489032854"><ele>59.0</ele><time>2026-05-02T13:53:26.999Z</time></trkpt><trkpt lat="48.58268976539498" lon="-4.438230434741694"><ele>59.0</ele><time>2026-05-02T13:53:27.999Z</time></trkpt><trkpt lat="48.58260632258919" lon="-4.438153766393271"><ele>58.833333333333336</ele><time>2026-05-02T13:53:28.999Z</time></trkpt><trkpt lat="48.58253420684265" lon="-4.438089628385278"><ele>58.66666666666667</ele><time>2026-05-02T13:53:29.999Z</time></trkpt><trkpt lat="48.58246528083987" lon="-4.4380237427067515"><ele>58.5</ele><time>2026-05-02T13:53:30.999Z</time></trkpt><trkpt lat="48.582402599417286" lon="-4.4380007653520295"><ele>58.33333333333333</ele><time>2026-05-02T13:53:31.999Z</time></trkpt><trkpt lat="48.58230031390414" lon="-4.437983610666481"><ele>58.166666666666664</ele><time>2026-05-02T13:53:33.999Z</time></trkpt><trkpt lat="48.58219570319094" lon="-4.437990172677935"><ele>58.0</ele><time>2026-05-02T13:53:35.999Z</time></trkpt><trkpt lat="48.582076582400674" lon="-4.438029040210003"><ele>57.83333333333333</ele><time>2026-05-02T13:53:37.999Z</time></trkpt><trkpt lat="48.58200611149188" lon="-4.4380382204788456"><ele>57.666666666666664</ele><time>2026-05-02T13:53:39.999Z</time></trkpt><trkpt lat="48.58193029524037" lon="-4.438103209981153"><ele>57.5</ele><time>2026-05-02T13:53:40.999Z</time></trkpt><trkpt lat="48.581844902115805" lon="-4.438168992398772"><ele>57.33333333333333</ele><time>2026-05-02T13:53:41.999Z</time></trkpt><trkpt lat="48.581737728491845" lon="-4.438211117430703"><ele>57.166666666666664</ele><time>2026-05-02T13:53:42.999Z</time></trkpt><trkpt lat="48.58167217730792" lon="-4.4382726639804995"><ele>57.0</ele><time>2026-05-02T13:53:43.999Z</time></trkpt><trkpt lat="48.58157121761041" lon="-4.438310920542227"><ele>57.0</ele><time>2026-05-02T13:53:44.999Z</time></trkpt><trkpt lat="48.581495516416005" lon="-4.438357262943806"><ele>57.0</ele><time>2026-05-02T13:53:45.999Z</time></trkpt><trkpt lat="48.58140988271672" lon="-4.438403349522099"><ele>57.0</ele><time>2026-05-02T13:53:46.999Z</time></trkpt><trkpt lat="48.58131599786137" lon="-4.438448993082228"><ele>57.0</ele><time>2026-05-02T13:53:47.999Z</time></trkpt><trkpt lat="48.58123520580537" lon="-4.438475999023936"><ele>57.0</ele><time>2026-05-02T13:53:48.999Z</time></trkpt><trkpt lat="48.58113080165904" lon="-4.438500872495024"><ele>57.400000000000006</ele><time>2026-05-02T13:53:49.999Z</time></trkpt><trkpt lat="48.581037334067645" lon="-4.438528581074395"><ele>57.800000000000004</ele><time>2026-05-02T13:53:50.999Z</time></trkpt><trkpt lat="48.580950647603636" lon="-4.438586642818057"><ele>58.2</ele><time>2026-05-02T13:53:51.999Z</time></trkpt><trkpt lat="48.580849493256174" lon="-4.438639692877773"><ele>58.6</ele><time>2026-05-02T13:53:52.999Z</time></trkpt><trkpt lat="48.58076991080593" lon="-4.438683556844336"><ele>59.0</ele><time>2026-05-02T13:53:53.999Z</time></trkpt><trkpt lat="48.580696309816304" lon="-4.438725716545823"><ele>59.0</ele><time>2026-05-02T13:53:55.998Z</time></trkpt><trkpt lat="48.58057868634055" lon="-4.438803524798453"><ele>59.00000000000001</ele><time>2026-05-02T13:54:03.998Z</time></trkpt><trkpt lat="48.58050967328703" lon="-4.438852405035363"><ele>59.00000000000001</ele><time>2026-05-02T13:54:04.998Z</time></trkpt><trkpt lat="48.58044286318735" lon="-4.438911877567794"><ele>59.0</ele><time>2026-05-02T13:54:05.998Z</time></trkpt><trkpt lat="48.58036332980743" lon="-4.438970345996335"><ele>59.0</ele><time>2026-05-02T13:54:06.998Z</time></trkpt><trkpt lat="48.58028444044601" lon="-4.439028340994522"><ele>59.0</ele><time>2026-05-02T13:54:07.998Z</time></trkpt><trkpt lat="48.58018051387422" lon="-4.43910910145591"><ele>59.0</ele><time>2026-05-02T13:54:08.998Z</time></trkpt><trkpt lat="48.58008775724167" lon="-4.439188447564761"><ele>59.0</ele><time>2026-05-02T13:54:09.998Z</time></trkpt><trkpt lat="48.57998814973903" lon="-4.439297975884782"><ele>59.0</ele><time>2026-05-02T13:54:10.998Z</time></trkpt><trkpt lat="48.579895284506925" lon="-4.439420963960704"><ele>59.0</ele><time>2026-05-02T13:54:11.998Z</time></trkpt><trkpt lat="48.57980336330703" lon="-4.439564349076936"><ele>59.0</ele><time>2026-05-02T13:54:12.998Z</time></trkpt><trkpt lat="48.57971659254648" lon="-4.439712600441329"><ele>59.0</ele><time>2026-05-02T13:54:13.998Z</time></trkpt><trkpt lat="48.5796313878324" lon="-4.43990161825233"><ele>59.0</ele><time>2026-05-02T13:54:14.998Z</time></trkpt><trkpt lat="48.57956138962186" lon="-4.440067384147488"><ele>59.0</ele><time>2026-05-02T13:54:15.998Z</time></trkpt><trkpt lat="48.579503346053286" lon="-4.440204211671978"><ele>59.00000000000001</ele><time>2026-05-02T13:54:17Z</time></trkpt><trkpt lat="48.57943935326309" lon="-4.440344908945452"><ele>59.00000000000001</ele><time>2026-05-02T13:54:18Z</time></trkpt><trkpt lat="48.57936385602654" lon="-4.440452665830078"><ele>59.0</ele><time>2026-05-02T13:54:19Z</time></trkpt><trkpt lat="48.57929247665071" lon="-4.440519008477179"><ele>59.0</ele><time>2026-05-02T13:54:20Z</time></trkpt><trkpt lat="48.579208703752386" lon="-4.440578512825058"><ele>59.00000000000001</ele><time>2026-05-02T13:54:21Z</time></trkpt><trkpt lat="48.579123192826245" lon="-4.440635345170282"><ele>59.0</ele><time>2026-05-02T13:54:22Z</time></trkpt><trkpt lat="48.5790267947965" lon="-4.440678949315425"><ele>59.0</ele><time>2026-05-02T13:54:23Z</time></trkpt><trkpt lat="48.57895357286569" lon="-4.440768860303257"><ele>59.0</ele><time>2026-05-02T13:54:24Z</time></trkpt><trkpt lat="48.57888008890173" lon="-4.440829638064561"><ele>59.00000000000001</ele><time>2026-05-02T13:54:25Z</time></trkpt><trkpt lat="48.57881443399247" lon="-4.440888261984697"><ele>59.0</ele><time>2026-05-02T13:54:26Z</time></trkpt><trkpt lat="48.57874172027239" lon="-4.440914417193937"><ele>58.66666666666667</ele><time>2026-05-02T13:54:27Z</time></trkpt><trkpt lat="48.57866267557542" lon="-4.440967394211309"><ele>58.333333333333336</ele><time>2026-05-02T13:54:29Z</time></trkpt><trkpt lat="48.57858832639868" lon="-4.441037551100261"><ele>58.0</ele><time>2026-05-02T13:54:31Z</time></trkpt><trkpt lat="48.57850309206578" lon="-4.441071151301774"><ele>57.66666666666667</ele><time>2026-05-02T13:54:33Z</time></trkpt><trkpt lat="48.57842546774224" lon="-4.441122099774291"><ele>57.333333333333336</ele><time>2026-05-02T13:54:36Z</time></trkpt><trkpt lat="48.578403944875994" lon="-4.441265585112831"><ele>57.0</ele><time>2026-05-02T13:54:59.999Z</time></trkpt><trkpt lat="48.57843156975313" lon="-4.441444956152925"><ele>57.0</ele><time>2026-05-02T13:55:01.999Z</time></trkpt><trkpt lat="48.57844557905403" lon="-4.441583090305627"><ele>57.0</ele><time>2026-05-02T13:55:02.999Z</time></trkpt><trkpt lat="48.5784753912888" lon="-4.441767065977609"><ele>57.0</ele><time>2026-05-02T13:55:03.999Z</time></trkpt><trkpt lat="48.57848313519048" lon="-4.441991737158031"><ele>57.0</ele><time>2026-05-02T13:55:04.999Z</time></trkpt><trkpt lat="48.5784842400579" lon="-4.442199097342049"><ele>57.25</ele><time>2026-05-02T13:55:05.999Z</time></trkpt><trkpt lat="48.578510523047406" lon="-4.4424384793642515"><ele>57.5</ele><time>2026-05-02T13:55:06.999Z</time></trkpt><trkpt lat="48.57852152877638" lon="-4.442630861164392"><ele>57.75</ele><time>2026-05-02T13:55:07.999Z</time></trkpt><trkpt lat="48.5785435525728" lon="-4.442851589851741"><ele>58.0</ele><time>2026-05-02T13:55:08.999Z</time></trkpt><trkpt lat="48.578578370045065" lon="-4.443041282541698"><ele>58.33333333333333</ele><time>2026-05-02T13:55:09.999Z</time></trkpt><trkpt lat="48.57860051936277" lon="-4.443163333163967"><ele>58.666666666666664</ele><time>2026-05-02T13:55:10.999Z</time></trkpt><trkpt lat="48.578623488574124" lon="-4.4432727703751125"><ele>59.0</ele><time>2026-05-02T13:55:11.999Z</time></trkpt><trkpt lat="48.57864023745364" lon="-4.443386980701103"><ele>59.33333333333333</ele><time>2026-05-02T13:55:12.999Z</time></trkpt><trkpt lat="48.57866614865934" lon="-4.443507757710305"><ele>59.666666666666664</ele><time>2026-05-02T13:55:13.999Z</time></trkpt><trkpt lat="48.578677217290576" lon="-4.443650310886644"><ele>60.0</ele><time>2026-05-02T13:55:14.999Z</time></trkpt><trkpt lat="48.57869291495159" lon="-4.44379272490185"><ele>60.4</ele><time>2026-05-02T13:55:15.999Z</time></trkpt><trkpt lat="48.578710368655415" lon="-4.443929140998879"><ele>60.8</ele><time>2026-05-02T13:55:16.999Z</time></trkpt><trkpt lat="48.57873512310733" lon="-4.444054935586986"><ele>61.2</ele><time>2026-05-02T13:55:17.999Z</time></trkpt><trkpt lat="48.578758014785286" lon="-4.444184838048766"><ele>61.6</ele><time>2026-05-02T13:55:18.999Z</time></trkpt><trkpt lat="48.578804743104826" lon="-4.44429929812426"><ele>62.0</ele><time>2026-05-02T13:55:19.999Z</time></trkpt><trkpt lat="48.57887608893291" lon="-4.444416592566014"><ele>62.0</ele><time>2026-05-02T13:55:20.999Z</time></trkpt><trkpt lat="48.578974247298035" lon="-4.444515713462057"><ele>62.0</ele><time>2026-05-02T13:55:21.999Z</time></trkpt><trkpt lat="48.579029492404445" lon="-4.444597032605936"><ele>62.0</ele><time>2026-05-02T13:55:22.999Z</time></trkpt><trkpt lat="48.57909818421443" lon="-4.444684460375688"><ele>62.0</ele><time>2026-05-02T13:55:23.999Z</time></trkpt><trkpt lat="48.5791562821658" lon="-4.444781770221985"><ele>62.0</ele><time>2026-05-02T13:55:24.999Z</time></trkpt><trkpt lat="48.57906919960536" lon="-4.444895817070889"><ele>62.333333333333336</ele><time>2026-05-02T13:55:25.999Z</time></trkpt><trkpt lat="48.57906854098263" lon="-4.445016508560037"><ele>62.66666666666667</ele><time>2026-05-02T13:55:26.999Z</time></trkpt><trkpt lat="48.57907890731048" lon="-4.445127654136411"><ele>63.0</ele><time>2026-05-02T13:55:27.999Z</time></trkpt><trkpt lat="48.57909870748417" lon="-4.445243649051751"><ele>63.33333333333333</ele><time>2026-05-02T13:55:28.999Z</time></trkpt><trkpt lat="48.57913586980392" lon="-4.4453343173314135"><ele>63.666666666666664</ele><time>2026-05-02T13:55:29.999Z</time></trkpt><trkpt lat="48.57917301123562" lon="-4.445425665056523"><ele>64.0</ele><time>2026-05-02T13:55:30.999Z</time></trkpt><trkpt lat="48.5792210171053" lon="-4.445527770530055"><ele>64.0</ele><time>2026-05-02T13:55:31.999Z</time></trkpt><trkpt lat="48.579289887868796" lon="-4.445668607362614"><ele>64.0</ele><time>2026-05-02T13:55:32.999Z</time></trkpt><trkpt lat="48.57934880132502" lon="-4.445808258642818"><ele>64.0</ele><time>2026-05-02T13:55:33.999Z</time></trkpt><trkpt lat="48.57941305881949" lon="-4.445957083181191"><ele>64.0</ele><time>2026-05-02T13:55:34.999Z</time></trkpt><trkpt lat="48.57947200990936" lon="-4.4460802486005475"><ele>64.0</ele><time>2026-05-02T13:55:35.999Z</time></trkpt><trkpt lat="48.57952917431721" lon="-4.446166589362184"><ele>64.0</ele><time>2026-05-02T13:55:36.999Z</time></trkpt><trkpt lat="48.57959073009526" lon="-4.446254681978607"><ele>64.0</ele><time>2026-05-02T13:55:37.999Z</time></trkpt><trkpt lat="48.57972794113736" lon="-4.446290851904436"><ele>64.0</ele><time>2026-05-02T13:55:38.999Z</time></trkpt><trkpt lat="48.579807379115614" lon="-4.446366701755205"><ele>64.0</ele><time>2026-05-02T13:55:39.999Z</time></trkpt><trkpt lat="48.57988822767085" lon="-4.446445123552477"><ele>64.0</ele><time>2026-05-02T13:55:40.999Z</time></trkpt><trkpt lat="48.57992096159302" lon="-4.446566847596356"><ele>64.0</ele><time>2026-05-02T13:55:41.999Z</time></trkpt><trkpt lat="48.579984143005476" lon="-4.446677495616881"><ele>64.0</ele><time>2026-05-02T13:55:42.999Z</time></trkpt><trkpt lat="48.580165399839736" lon="-4.446826012863985"><ele>64.0</ele><time>2026-05-02T13:55:43.999Z</time></trkpt><trkpt lat="48.58023703116707" lon="-4.446965637931272"><ele>64.0</ele><time>2026-05-02T13:55:44.999Z</time></trkpt><trkpt lat="48.58028075271894" lon="-4.447137928663358"><ele>64.0</ele><time>2026-05-02T13:55:45.999Z</time></trkpt><trkpt lat="48.580320783652155" lon="-4.447310210270855"><ele>64.0</ele><time>2026-05-02T13:55:46.999Z</time></trkpt><trkpt lat="48.580347015670206" lon="-4.447472440449314"><ele>64.0</ele><time>2026-05-02T13:55:47.999Z</time></trkpt><trkpt lat="48.58040275966146" lon="-4.447615418971768"><ele>64.0</ele><time>2026-05-02T13:55:48.999Z</time></trkpt><trkpt lat="48.58043432608689" lon="-4.447755174133949"><ele>64.0</ele><time>2026-05-02T13:55:49.999Z</time></trkpt><trkpt lat="48.58049916864392" lon="-4.447820677358601"><ele>64.2</ele><time>2026-05-02T13:55:50.999Z</time></trkpt><trkpt lat="48.58059091338574" lon="-4.447895891823574"><ele>64.4</ele><time>2026-05-02T13:55:51.999Z</time></trkpt><trkpt lat="48.58067877704737" lon="-4.447933477736734"><ele>64.6</ele><time>2026-05-02T13:55:52.999Z</time></trkpt><trkpt lat="48.58078167106769" lon="-4.447932300428624"><ele>64.8</ele><time>2026-05-02T13:55:53.999Z</time></trkpt><trkpt lat="48.58091559494268" lon="-4.447904405832496"><ele>65.0</ele><time>2026-05-02T13:55:54.999Z</time></trkpt><trkpt lat="48.58107765381675" lon="-4.447850125954326"><ele>64.66666666666667</ele><time>2026-05-02T13:55:55.999Z</time></trkpt><trkpt lat="48.58124119117915" lon="-4.447782595040364"><ele>64.33333333333333</ele><time>2026-05-02T13:55:56.999Z</time></trkpt><trkpt lat="48.58138253169497" lon="-4.447704739645894"><ele>64.0</ele><time>2026-05-02T13:55:57.999Z</time></trkpt><trkpt lat="48.58150789253703" lon="-4.447618974785074"><ele>64.0</ele><time>2026-05-02T13:55:58.999Z</time></trkpt><trkpt lat="48.58157553679745" lon="-4.447534083917401"><ele>64.0</ele><time>2026-05-02T13:55:59.999Z</time></trkpt><trkpt lat="48.581677575390756" lon="-4.447487377474012"><ele>64.0</ele><time>2026-05-02T13:56:00.999Z</time></trkpt><trkpt lat="48.581777728989714" lon="-4.4474452296893565"><ele>64.0</ele><time>2026-05-02T13:56:01.999Z</time></trkpt><trkpt lat="48.58187419042243" lon="-4.44736926381381"><ele>64.0</ele><time>2026-05-02T13:56:02.999Z</time></trkpt><trkpt lat="48.58198284417578" lon="-4.447312658617027"><ele>63.800000000000004</ele><time>2026-05-02T13:56:03.999Z</time></trkpt><trkpt lat="48.58208878459711" lon="-4.447266669236244"><ele>63.60000000000001</ele><time>2026-05-02T13:56:04.999Z</time></trkpt><trkpt lat="48.5821709537791" lon="-4.447213663338259"><ele>63.4</ele><time>2026-05-02T13:56:05.999Z</time></trkpt><trkpt lat="48.58224088416426" lon="-4.447201402979992"><ele>63.2</ele><time>2026-05-02T13:56:06.999Z</time></trkpt><trkpt lat="48.58234752843643" lon="-4.447175924361188"><ele>63.0</ele><time>2026-05-02T13:56:08.998Z</time></trkpt><trkpt lat="48.582464878439126" lon="-4.447160866756654"><ele>63.0</ele><time>2026-05-02T13:56:10.998Z</time></trkpt><trkpt lat="48.58252826465419" lon="-4.447182362113689"><ele>63.0</ele><time>2026-05-02T13:56:11.998Z</time></trkpt><trkpt lat="48.582579517286014" lon="-4.447261224010167"><ele>63.0</ele><time>2026-05-02T13:56:12.998Z</time></trkpt><trkpt lat="48.58263007871727" lon="-4.447339759124396"><ele>63.0</ele><time>2026-05-02T13:56:13.998Z</time></trkpt><trkpt lat="48.58267414998596" lon="-4.44743069459489"><ele>63.0</ele><time>2026-05-02T13:56:14.998Z</time></trkpt><trkpt lat="48.58270545984078" lon="-4.447529636141844"><ele>63.0</ele><time>2026-05-02T13:56:15.998Z</time></trkpt><trkpt lat="48.582731776412565" lon="-4.4476478843872345"><ele>63.0</ele><time>2026-05-02T13:56:16.998Z</time></trkpt><trkpt lat="48.58274565849557" lon="-4.447778210918638"><ele>63.0</ele><time>2026-05-02T13:56:17.998Z</time></trkpt><trkpt lat="48.58275509355739" lon="-4.4479264866496475"><ele>63.0</ele><time>2026-05-02T13:56:18.998Z</time></trkpt><trkpt lat="48.582763696606875" lon="-4.4480865300283225"><ele>63.0</ele><time>2026-05-02T13:56:19.998Z</time></trkpt><trkpt lat="48.58276109217961" lon="-4.448227303861439"><ele>63.0</ele><time>2026-05-02T13:56:20.998Z</time></trkpt><trkpt lat="48.582759647019664" lon="-4.4484143102858225"><ele>63.0</ele><time>2026-05-02T13:56:21.998Z</time></trkpt><trkpt lat="48.58276031932828" lon="-4.4486071100511495"><ele>63.0</ele><time>2026-05-02T13:56:23Z</time></trkpt><trkpt lat="48.58278841143288" lon="-4.4487829370445855"><ele>63.0</ele><time>2026-05-02T13:56:24Z</time></trkpt><trkpt lat="48.5828005696754" lon="-4.448968692470687"><ele>63.0</ele><time>2026-05-02T13:56:25Z</time></trkpt><trkpt lat="48.5828142367514" lon="-4.449177500046603"><ele>63.0</ele><time>2026-05-02T13:56:26Z</time></trkpt><trkpt lat="48.58282660630456" lon="-4.449366483877862"><ele>63.0</ele><time>2026-05-02T13:56:27Z</time></trkpt><trkpt lat="48.582837967595616" lon="-4.449545343475686"><ele>63.0</ele><time>2026-05-02T13:56:28Z</time></trkpt><trkpt lat="48.582849596669845" lon="-4.44973480732355"><ele>63.0</ele><time>2026-05-02T13:56:29Z</time></trkpt><trkpt lat="48.582856326478186" lon="-4.44986070907666"><ele>63.0</ele><time>2026-05-02T13:56:30Z</time></trkpt><trkpt lat="48.58287773423582" lon="-4.4499512339018805"><ele>63.0</ele><time>2026-05-02T13:56:31Z</time></trkpt><trkpt lat="48.58293508193842" lon="-4.449735163366935"><ele>62.599999999999994</ele><time>2026-05-02T13:56:40Z</time></trkpt><trkpt lat="48.58294870001344" lon="-4.449624534875474"><ele>62.199999999999996</ele><time>2026-05-02T13:56:41Z</time></trkpt><trkpt lat="48.582976387639725" lon="-4.449499622821189"><ele>61.8</ele><time>2026-05-02T13:56:42Z</time></trkpt><trkpt lat="48.58302442958481" lon="-4.449357295688185"><ele>61.4</ele><time>2026-05-02T13:56:44Z</time></trkpt><trkpt lat="48.58309084271126" lon="-4.449240372518487"><ele>61.0</ele><time>2026-05-02T13:56:45.999Z</time></trkpt><trkpt lat="48.58317279958657" lon="-4.449084863277528"><ele>60.99999999999999</ele><time>2026-05-02T13:56:47.999Z</time></trkpt><trkpt lat="48.58323133107787" lon="-4.449012977076528"><ele>61.0</ele><time>2026-05-02T13:56:48.999Z</time></trkpt><trkpt lat="48.58329046722286" lon="-4.448945707911776"><ele>61.0</ele><time>2026-05-02T13:56:49.999Z</time></trkpt><trkpt lat="48.58337019206495" lon="-4.448883078028204"><ele>61.0</ele><time>2026-05-02T13:56:50.999Z</time></trkpt><trkpt lat="48.58345472375532" lon="-4.448818709211509"><ele>60.99999999999999</ele><time>2026-05-02T13:56:51.999Z</time></trkpt><trkpt lat="48.58354454658325" lon="-4.448758768235618"><ele>61.0</ele><time>2026-05-02T13:56:52.999Z</time></trkpt><trkpt lat="48.58361981870048" lon="-4.448731146030381"><ele>60.99999999999999</ele><time>2026-05-02T13:56:53.999Z</time></trkpt><trkpt lat="48.583686339673136" lon="-4.448694860719139"><ele>61.0</ele><time>2026-05-02T13:56:54.999Z</time></trkpt><trkpt lat="48.58375281402943" lon="-4.448672420607512"><ele>61.0</ele><time>2026-05-02T13:56:55.999Z</time></trkpt><trkpt lat="48.58387495943524" lon="-4.448608993441263"><ele>61.0</ele><time>2026-05-02T13:56:57.999Z</time></trkpt><trkpt lat="48.583934932680556" lon="-4.448561151601386"><ele>60.99999999999999</ele><time>2026-05-02T13:56:58.999Z</time></trkpt><trkpt lat="48.5840308693098" lon="-4.448527493752696"><ele>61.0</ele><time>2026-05-02T13:57:00.999Z</time></trkpt><trkpt lat="48.58409138030879" lon="-4.4484882301787385"><ele>61.0</ele><time>2026-05-02T13:57:01.999Z</time></trkpt><trkpt lat="48.584218470335955" lon="-4.448410484925006"><ele>61.0</ele><time>2026-05-02T13:57:03.999Z</time></trkpt><trkpt lat="48.584403995852185" lon="-4.448363057543401"><ele>61.0</ele><time>2026-05-02T13:57:04.999Z</time></trkpt><trkpt lat="48.58453936395236" lon="-4.448295911167947"><ele>60.8</ele><time>2026-05-02T13:57:05.999Z</time></trkpt><trkpt lat="48.58467524583272" lon="-4.448210360154767"><ele>60.599999999999994</ele><time>2026-05-02T13:57:06.999Z</time></trkpt><trkpt lat="48.58475518801036" lon="-4.44819816377489"><ele>60.4</ele><time>2026-05-02T13:57:07.999Z</time></trkpt><trkpt lat="48.58481923064022" lon="-4.448234561501149"><ele>60.2</ele><time>2026-05-02T13:57:08.999Z</time></trkpt><trkpt lat="48.58489672942078" lon="-4.448238417699375"><ele>60.0</ele><time>2026-05-02T13:57:09.999Z</time></trkpt><trkpt lat="48.5850214309722" lon="-4.448280897736049"><ele>60.0</ele><time>2026-05-02T13:57:11.999Z</time></trkpt><trkpt lat="48.585101480541894" lon="-4.448307531679665"><ele>60.0</ele><time>2026-05-02T13:57:12.999Z</time></trkpt><trkpt lat="48.58518415133272" lon="-4.448339220447306"><ele>60.0</ele><time>2026-05-02T13:57:13.999Z</time></trkpt><trkpt lat="48.58525171368831" lon="-4.448392052506648"><ele>60.0</ele><time>2026-05-02T13:57:14.999Z</time></trkpt><trkpt lat="48.585325208245756" lon="-4.448411430610622"><ele>60.0</ele><time>2026-05-02T13:57:15.999Z</time></trkpt><trkpt lat="48.58539492643219" lon="-4.44842654049349"><ele>60.0</ele><time>2026-05-02T13:57:16.999Z</time></trkpt><trkpt lat="48.585500429204856" lon="-4.448450041417502"><ele>60.0</ele><time>2026-05-02T13:57:17.999Z</time></trkpt><trkpt lat="48.58561802742897" lon="-4.4484445281052"><ele>60.0</ele><time>2026-05-02T13:57:18.999Z</time></trkpt><trkpt lat="48.58573185987786" lon="-4.448453096477103"><ele>60.0</ele><time>2026-05-02T13:57:19.999Z</time></trkpt><trkpt lat="48.58584819927943" lon="-4.448451379301605"><ele>60.0</ele><time>2026-05-02T13:57:20.999Z</time></trkpt><trkpt lat="48.58599064186574" lon="-4.448411422057457"><ele>60.33333333333333</ele><time>2026-05-02T13:57:21.999Z</time></trkpt><trkpt lat="48.58621804361498" lon="-4.448409858656169"><ele>60.666666666666664</ele><time>2026-05-02T13:57:23.999Z</time></trkpt><trkpt lat="48.586331740922674" lon="-4.44839507456135"><ele>61.0</ele><time>2026-05-02T13:57:24.999Z</time></trkpt><trkpt lat="48.58645702795955" lon="-4.448372966331846"><ele>61.0</ele><time>2026-05-02T13:57:25.999Z</time></trkpt><trkpt lat="48.58656051853535" lon="-4.448357849806756"><ele>60.99999999999999</ele><time>2026-05-02T13:57:26.999Z</time></trkpt><trkpt lat="48.58669718688688" lon="-4.44829915334417"><ele>60.99999999999999</ele><time>2026-05-02T13:57:29.999Z</time></trkpt><trkpt lat="48.58663560394496" lon="-4.4483520310295015"><ele>61.0</ele><time>2026-05-02T13:57:49.999Z</time></trkpt><trkpt lat="48.586571652719506" lon="-4.44831744420211"><ele>61.0</ele><time>2026-05-02T13:57:51.999Z</time></trkpt><trkpt lat="48.58647131872543" lon="-4.448318085094114"><ele>61.0</ele><time>2026-05-02T13:57:55.999Z</time></trkpt><trkpt lat="48.58640391393171" lon="-4.44833286801065"><ele>60.99999999999999</ele><time>2026-05-02T13:57:57.999Z</time></trkpt><trkpt lat="48.58630770891629" lon="-4.448320023650404"><ele>60.99999999999999</ele><time>2026-05-02T13:58:00.999Z</time></trkpt><trkpt lat="48.5862183934339" lon="-4.448353786728672"><ele>61.0</ele><time>2026-05-02T13:58:02.999Z</time></trkpt><trkpt lat="48.58616830763481" lon="-4.448529316003809"><ele>61.0</ele><time>2026-05-02T13:58:12.998Z</time></trkpt><trkpt lat="48.58619069062268" lon="-4.448649186082994"><ele>60.83333333333333</ele><time>2026-05-02T13:58:14.998Z</time></trkpt><trkpt lat="48.58621146641239" lon="-4.448830970245623"><ele>60.666666666666664</ele><time>2026-05-02T13:58:15.998Z</time></trkpt><trkpt lat="48.58613031714612" lon="-4.448820482098818"><ele>60.5</ele><time>2026-05-02T13:58:25.998Z</time></trkpt><trkpt lat="48.5861053264661" lon="-4.4487275617246524"><ele>60.33333333333333</ele><time>2026-05-02T13:58:29Z</time></trkpt><trkpt lat="48.58611121988957" lon="-4.44860922451632"><ele>60.166666666666664</ele><time>2026-05-02T13:58:32Z</time></trkpt><trkpt lat="48.58612745814824" lon="-4.4484793611450195"><ele>60.0</ele><time>2026-05-02T13:58:35Z</time></trkpt><trkpt lat="48.586154360785535" lon="-4.4483926074003595"><ele>60.25</ele><time>2026-05-02T13:58:36Z</time></trkpt><trkpt lat="48.58625504769891" lon="-4.448367250261347"><ele>60.5</ele><time>2026-05-02T13:58:38Z</time></trkpt><trkpt lat="48.58640278586942" lon="-4.44840838909743"><ele>60.75</ele><time>2026-05-02T13:58:40Z</time></trkpt><trkpt lat="48.58650925135573" lon="-4.448442797989152"><ele>61.0</ele><time>2026-05-02T13:58:41Z</time></trkpt><trkpt lat="48.58661917377979" lon="-4.448463711753775"><ele>60.99999999999999</ele><time>2026-05-02T13:58:42Z</time></trkpt><trkpt lat="48.58670937862014" lon="-4.448458287569502"><ele>61.0</ele><time>2026-05-02T13:58:43Z</time></trkpt><trkpt lat="48.586777771545876" lon="-4.44847479857401"><ele>61.0</ele><time>2026-05-02T13:58:44Z</time></trkpt><trkpt lat="48.5868718905374" lon="-4.448468038938712"><ele>61.0</ele><time>2026-05-02T13:58:45Z</time></trkpt><trkpt lat="48.58697324763053" lon="-4.448437793732578"><ele>60.99999999999999</ele><time>2026-05-02T13:58:46Z</time></trkpt><trkpt lat="48.587046472890044" lon="-4.448446285957791"><ele>61.0</ele><time>2026-05-02T13:58:47Z</time></trkpt><trkpt lat="48.58711451091332" lon="-4.448481829858419"><ele>60.666666666666664</ele><time>2026-05-02T13:58:47.999Z</time></trkpt><trkpt lat="48.58718286642209" lon="-4.4485187526155"><ele>60.33333333333333</ele><time>2026-05-02T13:58:48.999Z</time></trkpt><trkpt lat="48.58730426848757" lon="-4.448526390034042"><ele>60.0</ele><time>2026-05-02T13:58:50.999Z</time></trkpt><trkpt lat="48.58737460864326" lon="-4.448522017303575"><ele>59.66666666666667</ele><time>2026-05-02T13:58:51.999Z</time></trkpt><trkpt lat="48.58745368186938" lon="-4.448509498545631"><ele>59.333333333333336</ele><time>2026-05-02T13:58:52.999Z</time></trkpt><trkpt lat="48.587521670571704" lon="-4.448488831526567"><ele>59.0</ele><time>2026-05-02T13:58:53.999Z</time></trkpt><trkpt lat="48.58762003238428" lon="-4.448446122587653"><ele>59.00000000000001</ele><time>2026-05-02T13:58:55.999Z</time></trkpt><trkpt lat="48.58773277432502" lon="-4.448445607262815"><ele>59.0</ele><time>2026-05-02T13:58:57.999Z</time></trkpt><trkpt lat="48.587795665695786" lon="-4.4484255600141465"><ele>59.0</ele><time>2026-05-02T13:58:58.999Z</time></trkpt><trkpt lat="48.58787209755272" lon="-4.448356752093804"><ele>59.0</ele><time>2026-05-02T13:58:59.999Z</time></trkpt><trkpt lat="48.58793279721045" lon="-4.44829845982977"><ele>59.00000000000001</ele><time>2026-05-02T13:59:00.999Z</time></trkpt><trkpt lat="48.58799336291274" lon="-4.448248551742925"><ele>59.0</ele><time>2026-05-02T13:59:01.999Z</time></trkpt><trkpt lat="48.588051951490975" lon="-4.448206130981965"><ele>59.0</ele><time>2026-05-02T13:59:02.999Z</time></trkpt><trkpt lat="48.58812779817901" lon="-4.4480940324637395"><ele>59.00000000000001</ele><time>2026-05-02T13:59:04.999Z</time></trkpt><trkpt lat="48.58816799452567" lon="-4.448002242500476"><ele>59.00000000000001</ele><time>2026-05-02T13:59:06.999Z</time></trkpt><trkpt lat="48.588238189185155" lon="-4.4479454826422"><ele>59.0</ele><time>2026-05-02T13:59:08.999Z</time></trkpt><trkpt lat="48.588314151480745" lon="-4.447866969541965"><ele>59.0</ele><time>2026-05-02T13:59:11.999Z</time></trkpt><trkpt lat="48.58839265309214" lon="-4.44775168044441"><ele>59.16666666666667</ele><time>2026-05-02T13:59:13.999Z</time></trkpt><trkpt lat="48.58843300662059" lon="-4.447660757138563"><ele>59.333333333333336</ele><time>2026-05-02T13:59:14.999Z</time></trkpt><trkpt lat="48.58848628962352" lon="-4.447538972260488"><ele>59.5</ele><time>2026-05-02T13:59:16.999Z</time></trkpt><trkpt lat="48.588565974162115" lon="-4.447405054964777"><ele>59.66666666666667</ele><time>2026-05-02T13:59:18.999Z</time></trkpt><trkpt lat="48.588600132126366" lon="-4.447321023211743"><ele>59.833333333333336</ele><time>2026-05-02T13:59:19.999Z</time></trkpt><trkpt lat="48.58863875831658" lon="-4.447234233351368"><ele>60.0</ele><time>2026-05-02T13:59:20.999Z</time></trkpt><trkpt lat="48.58867763267708" lon="-4.447137190731963"><ele>60.2</ele><time>2026-05-02T13:59:21.999Z</time></trkpt><trkpt lat="48.58871605174852" lon="-4.4470533236227725"><ele>60.4</ele><time>2026-05-02T13:59:22.999Z</time></trkpt><trkpt lat="48.588792332755915" lon="-4.446915826897973"><ele>60.599999999999994</ele><time>2026-05-02T13:59:24.999Z</time></trkpt><trkpt lat="48.58885395736853" lon="-4.446755580819619"><ele>60.8</ele><time>2026-05-02T13:59:26.999Z</time></trkpt><trkpt lat="48.58889674028928" lon="-4.446660272162392"><ele>61.0</ele><time>2026-05-02T13:59:27.999Z</time></trkpt><trkpt lat="48.588777398513884" lon="-4.446904205599939"><ele>60.99999999999999</ele><time>2026-05-02T13:59:29.999Z</time></trkpt><trkpt lat="48.5888457671755" lon="-4.446944445396181"><ele>61.0</ele><time>2026-05-02T13:59:45.999Z</time></trkpt><trkpt lat="48.58890548982395" lon="-4.447027162440241"><ele>61.0</ele><time>2026-05-02T13:59:48.999Z</time></trkpt><trkpt lat="48.58892947387123" lon="-4.447182512184336"><ele>61.0</ele><time>2026-05-02T13:59:50.999Z</time></trkpt><trkpt lat="48.58897138702367" lon="-4.447296243630375"><ele>60.99999999999999</ele><time>2026-05-02T13:59:52.999Z</time></trkpt><trkpt lat="48.58900122413682" lon="-4.447399465411931"><ele>61.0</ele><time>2026-05-02T13:59:54.999Z</time></trkpt><trkpt lat="48.58903828974948" lon="-4.447523723627956"><ele>60.83333333333333</ele><time>2026-05-02T13:59:55.999Z</time></trkpt><trkpt lat="48.589074911295" lon="-4.447663855673085"><ele>60.666666666666664</ele><time>2026-05-02T13:59:57.999Z</time></trkpt><trkpt lat="48.589083586628966" lon="-4.44776798931687"><ele>60.5</ele><time>2026-05-02T13:59:58.999Z</time></trkpt><trkpt lat="48.58910212473054" lon="-4.447864483940072"><ele>60.33333333333333</ele><time>2026-05-02T13:59:59.999Z</time></trkpt><trkpt lat="48.58912429671751" lon="-4.447954122498118"><ele>60.166666666666664</ele><time>2026-05-02T14:00:00.999Z</time></trkpt><trkpt lat="48.589183426916854" lon="-4.448097287432072"><ele>60.0</ele><time>2026-05-02T14:00:02.999Z</time></trkpt><trkpt lat="48.58925607403072" lon="-4.448212445926628"><ele>59.666666666666664</ele><time>2026-05-02T14:00:04.999Z</time></trkpt><trkpt lat="48.589296190050035" lon="-4.448291381191163"><ele>59.33333333333333</ele><time>2026-05-02T14:00:05.999Z</time></trkpt><trkpt lat="48.5893138200374" lon="-4.44845212736131"><ele>59.0</ele><time>2026-05-02T14:00:07.999Z</time></trkpt><trkpt lat="48.58932611547852" lon="-4.448546322044149"><ele>58.666666666666664</ele><time>2026-05-02T14:00:08.999Z</time></trkpt><trkpt lat="48.589349213553554" lon="-4.448637049782326"><ele>58.33333333333333</ele><time>2026-05-02T14:00:09.999Z</time></trkpt><trkpt lat="48.58937011430103" lon="-4.448745747162761"><ele>58.0</ele><time>2026-05-02T14:00:10.999Z</time></trkpt><trkpt lat="48.58938142155139" lon="-4.448916388758796"><ele>57.83333333333333</ele><time>2026-05-02T14:00:12.999Z</time></trkpt><trkpt lat="48.58943607794475" lon="-4.44906329585376"><ele>57.666666666666664</ele><time>2026-05-02T14:00:14.999Z</time></trkpt><trkpt lat="48.58938722142079" lon="-4.449152533632196"><ele>57.5</ele><time>2026-05-02T14:00:15.998Z</time></trkpt><trkpt lat="48.589402293169584" lon="-4.449244940723435"><ele>57.33333333333333</ele><time>2026-05-02T14:00:16.998Z</time></trkpt><trkpt lat="48.58942357607777" lon="-4.449341640978231"><ele>57.166666666666664</ele><time>2026-05-02T14:00:17.998Z</time></trkpt><trkpt lat="48.589447076867984" lon="-4.449449331705257"><ele>57.0</ele><time>2026-05-02T14:00:18.998Z</time></trkpt><trkpt lat="48.58946928724066" lon="-4.4496193632689165"><ele>57.0</ele><time>2026-05-02T14:00:20.998Z</time></trkpt><trkpt lat="48.58949023462689" lon="-4.449729489000778"><ele>57.0</ele><time>2026-05-02T14:00:21.998Z</time></trkpt><trkpt lat="48.58950892827633" lon="-4.449822235771089"><ele>57.0</ele><time>2026-05-02T14:00:22.998Z</time></trkpt><trkpt lat="48.589537461156894" lon="-4.450010623671642"><ele>57.0</ele><time>2026-05-02T14:00:24.998Z</time></trkpt><trkpt lat="48.58949257334753" lon="-4.450099947585528"><ele>57.0</ele><time>2026-05-02T14:00:25.998Z</time></trkpt><trkpt lat="48.58942504588964" lon="-4.450142623511314"><ele>57.0</ele><time>2026-05-02T14:00:26.998Z</time></trkpt><trkpt lat="48.58938580859502" lon="-4.45021923300023"><ele>57.0</ele><time>2026-05-02T14:00:28.998Z</time></trkpt><trkpt lat="48.58937333249313" lon="-4.450350286356296"><ele>57.0</ele><time>2026-05-02T14:00:30.998Z</time></trkpt><trkpt lat="48.5894108398891" lon="-4.450464343753666"><ele>57.0</ele><time>2026-05-02T14:00:32.998Z</time></trkpt><trkpt lat="48.589431675358355" lon="-4.450629311817283"><ele>57.0</ele><time>2026-05-02T14:00:33.998Z</time></trkpt><trkpt lat="48.58945991923654" lon="-4.450900807151034"><ele>56.833333333333336</ele><time>2026-05-02T14:00:35Z</time></trkpt><trkpt lat="48.58948781799065" lon="-4.451056634872561"><ele>56.66666666666667</ele><time>2026-05-02T14:00:36Z</time></trkpt><trkpt lat="48.5895005515797" lon="-4.451156120216236"><ele>56.5</ele><time>2026-05-02T14:00:37Z</time></trkpt><trkpt lat="48.58943207350223" lon="-4.451112093624986"><ele>56.333333333333336</ele><time>2026-05-02T14:00:39Z</time></trkpt><trkpt lat="48.589406199867156" lon="-4.451019482684847"><ele>56.16666666666667</ele><time>2026-05-02T14:00:41Z</time></trkpt><trkpt lat="48.58935913446189" lon="-4.450938367123045"><ele>56.0</ele><time>2026-05-02T14:00:42Z</time></trkpt><trkpt lat="48.589437570175875" lon="-4.450915845919143"><ele>56.0</ele><time>2026-05-02T14:00:53.999Z</time></trkpt><trkpt lat="48.589521113095586" lon="-4.4509596689416195"><ele>56.0</ele><time>2026-05-02T14:00:55.999Z</time></trkpt><trkpt lat="48.58966837531081" lon="-4.451063342808568"><ele>56.0</ele><time>2026-05-02T14:00:59.999Z</time></trkpt><trkpt lat="48.58974106509386" lon="-4.4512546716390995"><ele>56.0</ele><time>2026-05-02T14:01:00.999Z</time></trkpt><trkpt lat="48.589821058395216" lon="-4.451361628247825"><ele>55.8</ele><time>2026-05-02T14:01:02.999Z</time></trkpt><trkpt lat="48.58991279658114" lon="-4.451436727948354"><ele>55.599999999999994</ele><time>2026-05-02T14:01:05.999Z</time></trkpt><trkpt lat="48.59001002533517" lon="-4.4515508194030575"><ele>55.4</ele><time>2026-05-02T14:01:07.999Z</time></trkpt><trkpt lat="48.59009996358376" lon="-4.45165119018238"><ele>55.2</ele><time>2026-05-02T14:01:10.143Z</time></trkpt><trkpt lat="48.59017045180496" lon="-4.45176359049608"><ele>55.0</ele><time>2026-05-02T14:01:11.143Z</time></trkpt><trkpt lat="48.59028646880519" lon="-4.451938762943173"><ele>55.0</ele><time>2026-05-02T14:01:12.143Z</time></trkpt><trkpt lat="48.5903800074551" lon="-4.452061096678123"><ele>55.0</ele><time>2026-05-02T14:01:13.999Z</time></trkpt><trkpt lat="48.59039073828985" lon="-4.452169887409464"><ele>55.0</ele><time>2026-05-02T14:01:14.999Z</time></trkpt><trkpt lat="48.59047746117909" lon="-4.452257460736625"><ele>55.0</ele><time>2026-05-02T14:01:16.999Z</time></trkpt><trkpt lat="48.59056758346733" lon="-4.452223766139439"><ele>55.0</ele><time>2026-05-02T14:01:20.999Z</time></trkpt><trkpt lat="48.59065588530685" lon="-4.45213608045651"><ele>54.99999999999999</ele><time>2026-05-02T14:01:22.999Z</time></trkpt><trkpt lat="48.590722250927996" lon="-4.452050709787056"><ele>55.0</ele><time>2026-05-02T14:01:25.999Z</time></trkpt><trkpt lat="48.59075558143529" lon="-4.4519610631925985"><ele>55.0</ele><time>2026-05-02T14:01:27.999Z</time></trkpt><trkpt lat="48.59082301394963" lon="-4.451837193255886"><ele>55.0</ele><time>2026-05-02T14:01:29.999Z</time></trkpt><trkpt lat="48.59087459723248" lon="-4.451723821441841"><ele>54.99999999999999</ele><time>2026-05-02T14:01:31.999Z</time></trkpt><trkpt lat="48.59095038640985" lon="-4.451659618257798"><ele>55.0</ele><time>2026-05-02T14:01:33.999Z</time></trkpt><trkpt lat="48.59102718598072" lon="-4.451523149692588"><ele>55.0</ele><time>2026-05-02T14:01:35.999Z</time></trkpt><trkpt lat="48.5911628021942" lon="-4.451436239248386"><ele>55.0</ele><time>2026-05-02T14:01:37.999Z</time></trkpt><trkpt lat="48.59123933260449" lon="-4.4513981758855214"><ele>55.0</ele><time>2026-05-02T14:01:38.999Z</time></trkpt><trkpt lat="48.59133524724166" lon="-4.451318327373923"><ele>55.0</ele><time>2026-05-02T14:01:40.999Z</time></trkpt><trkpt lat="48.591426242672085" lon="-4.451287999162391"><ele>55.0</ele><time>2026-05-02T14:01:42.999Z</time></trkpt><trkpt lat="48.59153442417516" lon="-4.451284518625991"><ele>55.0</ele><time>2026-05-02T14:01:44.999Z</time></trkpt><trkpt lat="48.59130028543161" lon="-4.451371914975896"><ele>55.0</ele><time>2026-05-02T14:02:04.999Z</time></trkpt><trkpt lat="48.59118523712746" lon="-4.451379272492901"><ele>55.0</ele><time>2026-05-02T14:02:06.999Z</time></trkpt><trkpt lat="48.59106463801294" lon="-4.451484067950785"><ele>55.0</ele><time>2026-05-02T14:02:08.999Z</time></trkpt><trkpt lat="48.59097505670547" lon="-4.451615814273022"><ele>55.0</ele><time>2026-05-02T14:02:09.999Z</time></trkpt><trkpt lat="48.59088045795392" lon="-4.451761916443978"><ele>55.0</ele><time>2026-05-02T14:02:10.999Z</time></trkpt><trkpt lat="48.59080819315653" lon="-4.451833010697692"><ele>55.0</ele><time>2026-05-02T14:02:11.999Z</time></trkpt><trkpt lat="48.5907559430795" lon="-4.451926668625515"><ele>55.0</ele><time>2026-05-02T14:02:12.999Z</time></trkpt><trkpt lat="48.590711215995675" lon="-4.4520024824914275"><ele>55.0</ele><time>2026-05-02T14:02:13.999Z</time></trkpt><trkpt lat="48.59068931607647" lon="-4.452114578556824"><ele>55.0</ele><time>2026-05-02T14:02:14.999Z</time></trkpt><trkpt lat="48.59061492769964" lon="-4.452127011392081"><ele>55.0</ele><time>2026-05-02T14:02:15.999Z</time></trkpt><trkpt lat="48.590576568386865" lon="-4.452289594569074"><ele>55.0</ele><time>2026-05-02T14:02:17.999Z</time></trkpt><trkpt lat="48.590559255993014" lon="-4.452168998897939"><ele>55.0</ele><time>2026-05-02T14:02:20.998Z</time></trkpt><trkpt lat="48.59048025713686" lon="-4.452011464447159"><ele>55.0</ele><time>2026-05-02T14:02:23.998Z</time></trkpt><trkpt lat="48.59042318588285" lon="-4.451882626898399"><ele>55.0</ele><time>2026-05-02T14:02:25.998Z</time></trkpt><trkpt lat="48.59036959290971" lon="-4.451791897864203"><ele>55.0</ele><time>2026-05-02T14:02:27.998Z</time></trkpt><trkpt lat="48.59031892030021" lon="-4.45167810965176"><ele>55.0</ele><time>2026-05-02T14:02:29.998Z</time></trkpt><trkpt lat="48.5902225390518" lon="-4.451615616317129"><ele>55.0</ele><time>2026-05-02T14:02:31.998Z</time></trkpt><trkpt lat="48.590145757040965" lon="-4.451528746737586"><ele>55.0</ele><time>2026-05-02T14:02:33.998Z</time></trkpt><trkpt lat="48.59008138730409" lon="-4.4513797143675475"><ele>55.0</ele><time>2026-05-02T14:02:36.998Z</time></trkpt><trkpt lat="48.589951089958376" lon="-4.451351614133995"><ele>55.0</ele><time>2026-05-02T14:02:37.998Z</time></trkpt><trkpt lat="48.5898353978903" lon="-4.451315384463459"><ele>55.0</ele><time>2026-05-02T14:02:38.998Z</time></trkpt><trkpt lat="48.589755333649194" lon="-4.451277460080647"><ele>55.166666666666664</ele><time>2026-05-02T14:02:39.998Z</time></trkpt><trkpt lat="48.58969167816602" lon="-4.45121949261933"><ele>55.33333333333333</ele><time>2026-05-02T14:02:40.999Z</time></trkpt><trkpt lat="48.58966873918688" lon="-4.451126063065785"><ele>55.5</ele><time>2026-05-02T14:02:43.999Z</time></trkpt><trkpt lat="48.58957944062065" lon="-4.45111748356289"><ele>55.66666666666667</ele><time>2026-05-02T14:02:44.999Z</time></trkpt><trkpt lat="48.58952558993557" lon="-4.45105675395018"><ele>55.833333333333336</ele><time>2026-05-02T14:03:40.999Z</time></trkpt><trkpt lat="48.58941885891311" lon="-4.451031735917954"><ele>56.0</ele><time>2026-05-02T14:04:23.999Z</time></trkpt><trkpt lat="48.58942670874578" lon="-4.451135284578191"><ele>56.00000000000001</ele><time>2026-05-02T14:04:42.998Z</time></trkpt><trkpt lat="48.5894845515457" lon="-4.45118430786746"><ele>56.0</ele><time>2026-05-02T14:04:44.998Z</time></trkpt><trkpt lat="48.589553810948125" lon="-4.4512744606815104"><ele>56.0</ele><time>2026-05-02T14:04:47Z</time></trkpt><trkpt lat="48.58964339573296" lon="-4.451361221276907"><ele>56.0</ele><time>2026-05-02T14:04:49Z</time></trkpt><trkpt lat="48.58970756614754" lon="-4.451424045381918"><ele>56.00000000000001</ele><time>2026-05-02T14:04:51Z</time></trkpt><trkpt lat="48.589769367903095" lon="-4.45150055471771"><ele>56.0</ele><time>2026-05-02T14:04:53Z</time></trkpt><trkpt lat="48.58983913587162" lon="-4.451592422045269"><ele>56.0</ele><time>2026-05-02T14:04:55Z</time></trkpt><trkpt lat="48.589936695864246" lon="-4.451535307586535"><ele>55.99999999999999</ele><time>2026-05-02T14:05:17.999Z</time></trkpt><trkpt lat="48.58988084595695" lon="-4.451424837778729"><ele>55.99999999999999</ele><time>2026-05-02T14:05:19.999Z</time></trkpt><trkpt lat="48.58981554075448" lon="-4.451370367592581"><ele>56.0</ele><time>2026-05-02T14:05:20.999Z</time></trkpt><trkpt lat="48.58972417768108" lon="-4.451329589765069"><ele>56.0</ele><time>2026-05-02T14:05:21.999Z</time></trkpt><trkpt lat="48.58964048714732" lon="-4.451244136468465"><ele>56.00000000000001</ele><time>2026-05-02T14:05:24.999Z</time></trkpt><trkpt lat="48.58960875149922" lon="-4.451149507157542"><ele>56.0</ele><time>2026-05-02T14:05:28.999Z</time></trkpt><trkpt lat="48.589536398536104" lon="-4.45113455275952"><ele>56.0</ele><time>2026-05-02T14:05:35.999Z</time></trkpt><trkpt lat="48.5894572791519" lon="-4.4511098273296135"><ele>56.0</ele><time>2026-05-02T14:05:45.999Z</time></trkpt><trkpt lat="48.58939721560351" lon="-4.45108051577992"><ele>56.00000000000001</ele><time>2026-05-02T14:05:53.999Z</time></trkpt><trkpt lat="48.58936479791163" lon="-4.450965660707543"><ele>56.0</ele><time>2026-05-02T14:05:58.999Z</time></trkpt><trkpt lat="48.58932665209358" lon="-4.4508571504656205"><ele>56.00000000000001</ele><time>2026-05-02T14:06:01.999Z</time></trkpt><trkpt lat="48.58926310873167" lon="-4.450818628877401"><ele>56.0</ele><time>2026-05-02T14:06:03.999Z</time></trkpt><trkpt lat="48.58920692349031" lon="-4.4507430002344295"><ele>56.0</ele><time>2026-05-02T14:06:06.999Z</time></trkpt><trkpt lat="48.58916575676695" lon="-4.450669483185452"><ele>56.0</ele><time>2026-05-02T14:06:09.999Z</time></trkpt><trkpt lat="48.58913739364038" lon="-4.45053651032157"><ele>56.00000000000001</ele><time>2026-05-02T14:06:16.999Z</time></trkpt><trkpt lat="48.58907437318413" lon="-4.450477721458691"><ele>56.0</ele><time>2026-05-02T14:06:20.999Z</time></trkpt><trkpt lat="48.589006733998595" lon="-4.450394499313086"><ele>56.00000000000001</ele><time>2026-05-02T14:06:25.999Z</time></trkpt><trkpt lat="48.588924084669245" lon="-4.450426421163978"><ele>56.0</ele><time>2026-05-02T14:06:27.999Z</time></trkpt><trkpt lat="48.58890119208724" lon="-4.450299192510428"><ele>56.0</ele><time>2026-05-02T14:06:50.998Z</time></trkpt><trkpt lat="48.58882576162793" lon="-4.450297020023471"><ele>56.0</ele><time>2026-05-02T14:07:00Z</time></trkpt><trkpt lat="48.588769418834794" lon="-4.450358441351605"><ele>56.00000000000001</ele><time>2026-05-02T14:07:10.147Z</time></trkpt><trkpt lat="48.58871353007449" lon="-4.450313705502845"><ele>56.0</ele><time>2026-05-02T14:07:15.143Z</time></trkpt><trkpt lat="48.58864732193222" lon="-4.450363577499532"><ele>56.0</ele><time>2026-05-02T14:07:36.999Z</time></trkpt><trkpt lat="48.588709888258165" lon="-4.45040396752513"><ele>56.0</ele><time>2026-05-02T14:08:43.999Z</time></trkpt><trkpt lat="48.58867028570772" lon="-4.450489006384178"><ele>56.0</ele><time>2026-05-02T14:09:12Z</time></trkpt><trkpt lat="48.58873339239136" lon="-4.4504734006753575"><ele>56.0</ele><time>2026-05-02T14:09:29.999Z</time></trkpt><trkpt lat="48.58871254469523" lon="-4.450380114604336"><ele>56.0</ele><time>2026-05-02T14:09:37.999Z</time></trkpt><trkpt lat="48.58867044479568" lon="-4.450287675923047"><ele>56.0</ele><time>2026-05-02T14:10:00.999Z</time></trkpt><trkpt lat="48.58862310271498" lon="-4.450216465142284"><ele>56.0</ele><time>2026-05-02T14:10:04.999Z</time></trkpt><trkpt lat="48.58855811247962" lon="-4.450154807132039"><ele>56.0</ele><time>2026-05-02T14:10:18.999Z</time></trkpt><trkpt lat="48.588518236727275" lon="-4.450067895986634"><ele>56.0</ele><time>2026-05-02T14:10:26.999Z</time></trkpt><trkpt lat="48.588481084024664" lon="-4.449958550012334"><ele>56.0</ele><time>2026-05-02T14:10:36.999Z</time></trkpt><trkpt lat="48.58842222842996" lon="-4.449915089731851"><ele>56.0</ele><time>2026-05-02T14:10:44.999Z</time></trkpt><trkpt lat="48.58835665265231" lon="-4.449908662125059"><ele>56.0</ele><time>2026-05-02T14:10:51.999Z</time></trkpt><trkpt lat="48.5884272202398" lon="-4.449951287597326"><ele>56.0</ele><time>2026-05-02T14:12:12.999Z</time></trkpt><trkpt lat="48.58846102069633" lon="-4.450034065311318"><ele>56.0</ele><time>2026-05-02T14:12:16.999Z</time></trkpt><trkpt lat="48.58854368143478" lon="-4.4500640037804216"><ele>56.0</ele><time>2026-05-02T14:12:29.999Z</time></trkpt><trkpt lat="48.58858375781436" lon="-4.450176115194285"><ele>55.99999999999999</ele><time>2026-05-02T14:12:59.999Z</time></trkpt><trkpt lat="48.588683269410474" lon="-4.450215564793456"><ele>55.99999999999999</ele><time>2026-05-02T14:13:02.998Z</time></trkpt><trkpt lat="48.58876640765656" lon="-4.450321282578"><ele>56.0</ele><time>2026-05-02T14:13:09.998Z</time></trkpt><trkpt lat="48.58879307423336" lon="-4.450443369459179"><ele>56.0</ele><time>2026-05-02T14:13:13Z</time></trkpt><trkpt lat="48.588820623751495" lon="-4.450563583257339"><ele>56.0</ele><time>2026-05-02T14:13:17Z</time></trkpt><trkpt lat="48.58883038910045" lon="-4.450698028940732"><ele>56.0</ele><time>2026-05-02T14:13:19Z</time></trkpt><trkpt lat="48.588987483318014" lon="-4.450714332460986"><ele>56.0</ele><time>2026-05-02T14:13:27Z</time></trkpt><trkpt lat="48.58907278713865" lon="-4.450789021942696"><ele>56.0</ele><time>2026-05-02T14:13:29Z</time></trkpt><trkpt lat="48.589274088251436" lon="-4.450854282876425"><ele>56.0</ele><time>2026-05-02T14:13:48.999Z</time></trkpt><trkpt lat="48.58934877515777" lon="-4.450746027340481"><ele>55.99999999999999</ele><time>2026-05-02T14:14:02.999Z</time></trkpt><trkpt lat="48.589360635860295" lon="-4.450636152603131"><ele>55.99999999999999</ele><time>2026-05-02T14:14:04.999Z</time></trkpt><trkpt lat="48.58938175377348" lon="-4.450489069255651"><ele>56.0</ele><time>2026-05-02T14:14:06.999Z</time></trkpt><trkpt lat="48.58937518251915" lon="-4.450352340396931"><ele>56.0</ele><time>2026-05-02T14:14:08.999Z</time></trkpt><trkpt lat="48.58936013311192" lon="-4.450219137545757"><ele>56.16666666666667</ele><time>2026-05-02T14:14:11.999Z</time></trkpt><trkpt lat="48.589372834307206" lon="-4.450124700671211"><ele>56.333333333333336</ele><time>2026-05-02T14:14:27.999Z</time></trkpt><trkpt lat="48.58940240614877" lon="-4.450033764368739"><ele>56.5</ele><time>2026-05-02T14:14:49.999Z</time></trkpt><trkpt lat="48.5894184387889" lon="-4.4499007610927"><ele>56.66666666666667</ele><time>2026-05-02T14:14:52.999Z</time></trkpt><trkpt lat="48.58942515914016" lon="-4.449769564301122"><ele>56.833333333333336</ele><time>2026-05-02T14:14:54.999Z</time></trkpt><trkpt lat="48.58942385426283" lon="-4.449650995557677"><ele>57.0</ele><time>2026-05-02T14:14:57.999Z</time></trkpt><trkpt lat="48.58940543495184" lon="-4.449525148970969"><ele>57.0</ele><time>2026-05-02T14:14:59.999Z</time></trkpt><trkpt lat="48.5894146930522" lon="-4.449422864555656"><ele>56.99999999999999</ele><time>2026-05-02T14:15:01.999Z</time></trkpt><trkpt lat="48.589428029165745" lon="-4.449311094906546"><ele>57.0</ele><time>2026-05-02T14:15:03.999Z</time></trkpt><trkpt lat="48.589426893295986" lon="-4.449206422097135"><ele>57.0</ele><time>2026-05-02T14:15:04.999Z</time></trkpt><trkpt lat="48.58943770366115" lon="-4.449107364379915"><ele>56.99999999999999</ele><time>2026-05-02T14:15:05.999Z</time></trkpt><trkpt lat="48.58946415548088" lon="-4.449019897249016"><ele>57.0</ele><time>2026-05-02T14:15:06.999Z</time></trkpt><trkpt lat="48.58943702688486" lon="-4.448903577370336"><ele>57.0</ele><time>2026-05-02T14:15:08.998Z</time></trkpt><trkpt lat="48.58939425219272" lon="-4.448798392288957"><ele>57.166666666666664</ele><time>2026-05-02T14:15:11.998Z</time></trkpt><trkpt lat="48.589312998355744" lon="-4.448713726188888"><ele>57.33333333333333</ele><time>2026-05-02T14:16:47.999Z</time></trkpt><trkpt lat="48.58931353204615" lon="-4.448606678372878"><ele>57.5</ele><time>2026-05-02T14:18:29.999Z</time></trkpt><trkpt lat="48.589321225116215" lon="-4.448488035276068"><ele>57.666666666666664</ele><time>2026-05-02T14:19:07.999Z</time></trkpt><trkpt lat="48.58933132297477" lon="-4.448365699072781"><ele>57.83333333333333</ele><time>2026-05-02T14:22:18.999Z</time></trkpt><trkpt lat="48.589301688961804" lon="-4.448207619029948"><ele>58.0</ele><time>2026-05-02T14:22:21.999Z</time></trkpt><trkpt lat="48.58927417846404" lon="-4.448067919020751"><ele>57.99999999999999</ele><time>2026-05-02T14:22:23.999Z</time></trkpt><trkpt lat="48.589234141727026" lon="-4.447970696637572"><ele>58.0</ele><time>2026-05-02T14:22:25.999Z</time></trkpt><trkpt lat="48.58920816019056" lon="-4.447880925772383"><ele>58.0</ele><time>2026-05-02T14:22:27.999Z</time></trkpt><trkpt lat="48.58918648939877" lon="-4.447770855529762"><ele>58.0</ele><time>2026-05-02T14:22:34.999Z</time></trkpt><trkpt lat="48.58915276817381" lon="-4.4476437262751345"><ele>57.99999999999999</ele><time>2026-05-02T14:22:37.999Z</time></trkpt><trkpt lat="48.589112486195475" lon="-4.447524021006116"><ele>58.0</ele><time>2026-05-02T14:22:39.999Z</time></trkpt><trkpt lat="48.58909632557018" lon="-4.4473948698278445"><ele>58.33333333333333</ele><time>2026-05-02T14:22:41.999Z</time></trkpt><trkpt lat="48.589045569033885" lon="-4.447286917276907"><ele>58.666666666666664</ele><time>2026-05-02T14:22:43.999Z</time></trkpt><trkpt lat="48.5890040770192" lon="-4.4471644221167"><ele>59.0</ele><time>2026-05-02T14:22:45.999Z</time></trkpt><trkpt lat="48.58896308143026" lon="-4.447031673883897"><ele>59.33333333333333</ele><time>2026-05-02T14:22:47.999Z</time></trkpt><trkpt lat="48.588923469681326" lon="-4.44692736683873"><ele>59.666666666666664</ele><time>2026-05-02T14:22:49.999Z</time></trkpt><trkpt lat="48.5888776993247" lon="-4.446835340761485"><ele>60.0</ele><time>2026-05-02T14:22:52.999Z</time></trkpt><trkpt lat="48.588909033109445" lon="-4.446724389406505"><ele>60.166666666666664</ele><time>2026-05-02T14:22:54.999Z</time></trkpt><trkpt lat="48.58892646827461" lon="-4.446584436124868"><ele>60.33333333333333</ele><time>2026-05-02T14:22:55.999Z</time></trkpt><trkpt lat="48.58896522855635" lon="-4.446467908380329"><ele>60.5</ele><time>2026-05-02T14:22:56.999Z</time></trkpt><trkpt lat="48.58897179074396" lon="-4.446351055287613"><ele>60.666666666666664</ele><time>2026-05-02T14:22:57.999Z</time></trkpt><trkpt lat="48.58897316562803" lon="-4.446251630114267"><ele>60.83333333333333</ele><time>2026-05-02T14:22:58.999Z</time></trkpt><trkpt lat="48.5890066014662" lon="-4.4460856962881055"><ele>61.0</ele><time>2026-05-02T14:23:00.999Z</time></trkpt><trkpt lat="48.58903439405033" lon="-4.44596177030335"><ele>61.0</ele><time>2026-05-02T14:23:01.999Z</time></trkpt><trkpt lat="48.58913641751691" lon="-4.445942412319663"><ele>60.99999999999999</ele><time>2026-05-02T14:23:02.999Z</time></trkpt><trkpt lat="48.589227737656216" lon="-4.4459130394717"><ele>60.99999999999999</ele><time>2026-05-02T14:23:03.999Z</time></trkpt><trkpt lat="48.58932917873579" lon="-4.445758603278344"><ele>61.0</ele><time>2026-05-02T14:23:05.999Z</time></trkpt><trkpt lat="48.58937754648361" lon="-4.445691660600601"><ele>61.0</ele><time>2026-05-02T14:23:06.999Z</time></trkpt><trkpt lat="48.589422538952356" lon="-4.445611504563162"><ele>61.0</ele><time>2026-05-02T14:23:07.999Z</time></trkpt><trkpt lat="48.589463959061796" lon="-4.4455048649373685"><ele>60.99999999999999</ele><time>2026-05-02T14:23:09.999Z</time></trkpt><trkpt lat="48.58941851412196" lon="-4.445383218684933"><ele>60.99999999999999</ele><time>2026-05-02T14:23:10.999Z</time></trkpt><trkpt lat="48.58944197832732" lon="-4.445233669653064"><ele>61.0</ele><time>2026-05-02T14:23:11.999Z</time></trkpt><trkpt lat="48.589475231639014" lon="-4.445096307970917"><ele>61.0</ele><time>2026-05-02T14:23:12.999Z</time></trkpt><trkpt lat="48.58949085679493" lon="-4.444966211637417"><ele>60.4</ele><time>2026-05-02T14:23:13.999Z</time></trkpt><trkpt lat="48.589509613492254" lon="-4.444815396901504"><ele>59.8</ele><time>2026-05-02T14:23:14.999Z</time></trkpt><trkpt lat="48.589526385077825" lon="-4.444664330708099"><ele>59.199999999999996</ele><time>2026-05-02T14:23:15.999Z</time></trkpt><trkpt lat="48.58954617889554" lon="-4.4445312637614665"><ele>58.599999999999994</ele><time>2026-05-02T14:23:16.999Z</time></trkpt><trkpt lat="48.589581407942724" lon="-4.444411951462278"><ele>58.0</ele><time>2026-05-02T14:23:17.999Z</time></trkpt><trkpt lat="48.58959330424379" lon="-4.4442802198722315"><ele>57.99999999999999</ele><time>2026-05-02T14:23:18.999Z</time></trkpt><trkpt lat="48.58962120497623" lon="-4.444146838544781"><ele>58.0</ele><time>2026-05-02T14:23:19.999Z</time></trkpt><trkpt lat="48.589655041071744" lon="-4.44401481174471"><ele>58.0</ele><time>2026-05-02T14:23:20.999Z</time></trkpt><trkpt lat="48.589685061716246" lon="-4.443886225034591"><ele>58.0</ele><time>2026-05-02T14:23:21.999Z</time></trkpt><trkpt lat="48.58970874225678" lon="-4.443774208806688"><ele>57.99999999999999</ele><time>2026-05-02T14:23:22.999Z</time></trkpt><trkpt lat="48.58973746814561" lon="-4.4436581349526465"><ele>58.0</ele><time>2026-05-02T14:23:23.999Z</time></trkpt><trkpt lat="48.58976898304589" lon="-4.443524618787569"><ele>58.0</ele><time>2026-05-02T14:23:24.999Z</time></trkpt><trkpt lat="48.58979729083519" lon="-4.443427243076059"><ele>58.0</ele><time>2026-05-02T14:23:25.999Z</time></trkpt><trkpt lat="48.58984207869975" lon="-4.443241716257255"><ele>58.0</ele><time>2026-05-02T14:23:27.999Z</time></trkpt><trkpt lat="48.58987095163142" lon="-4.4431351995073705"><ele>58.0</ele><time>2026-05-02T14:23:28.999Z</time></trkpt><trkpt lat="48.5898805499952" lon="-4.442969869279203"><ele>58.0</ele><time>2026-05-02T14:23:30.999Z</time></trkpt><trkpt lat="48.589931111309845" lon="-4.442901369832669"><ele>58.5</ele><time>2026-05-02T14:23:33.998Z</time></trkpt><trkpt lat="48.589913030217865" lon="-4.442788266254786"><ele>59.0</ele><time>2026-05-02T14:23:36.998Z</time></trkpt><trkpt lat="48.589668609194185" lon="-4.44266407357833"><ele>59.5</ele><time>2026-05-02T14:23:52Z</time></trkpt><trkpt lat="48.58959387950978" lon="-4.442655077995576"><ele>60.0</ele><time>2026-05-02T14:23:53Z</time></trkpt><trkpt lat="48.589501514439114" lon="-4.442658068355684"><ele>60.2</ele><time>2026-05-02T14:23:54Z</time></trkpt><trkpt lat="48.58940360066222" lon="-4.442646533065709"><ele>60.4</ele><time>2026-05-02T14:23:55Z</time></trkpt><trkpt lat="48.589296804078515" lon="-4.442634475533012"><ele>60.599999999999994</ele><time>2026-05-02T14:23:56Z</time></trkpt><trkpt lat="48.589179593176986" lon="-4.442631887436618"><ele>60.8</ele><time>2026-05-02T14:23:57Z</time></trkpt><trkpt lat="48.58907101057661" lon="-4.442638177865658"><ele>61.0</ele><time>2026-05-02T14:23:58Z</time></trkpt><trkpt lat="48.58894475332822" lon="-4.44263898488068"><ele>61.0</ele><time>2026-05-02T14:23:59Z</time></trkpt><trkpt lat="48.58883953940937" lon="-4.4426533239026895"><ele>60.99999999999999</ele><time>2026-05-02T14:24:00Z</time></trkpt><trkpt lat="48.588744738512105" lon="-4.442651741420802"><ele>60.99999999999999</ele><time>2026-05-02T14:24:01Z</time></trkpt><trkpt lat="48.588674851626315" lon="-4.44266849732704"><ele>61.0</ele><time>2026-05-02T14:24:02Z</time></trkpt><trkpt lat="48.58856963228809" lon="-4.442673013632559"><ele>61.0</ele><time>2026-05-02T14:24:04Z</time></trkpt><trkpt lat="48.58846550134577" lon="-4.442712138009187"><ele>61.0</ele><time>2026-05-02T14:24:06Z</time></trkpt><trkpt lat="48.58838105575372" lon="-4.442798077887387"><ele>60.99999999999999</ele><time>2026-05-02T14:24:08Z</time></trkpt><trkpt lat="48.58829303995497" lon="-4.442921252445555"><ele>60.99999999999999</ele><time>2026-05-02T14:24:10Z</time></trkpt><trkpt lat="48.58823474343238" lon="-4.443031761454422"><ele>61.0</ele><time>2026-05-02T14:24:11Z</time></trkpt><trkpt lat="48.58815604846091" lon="-4.443144610946414"><ele>61.0</ele><time>2026-05-02T14:24:11.999Z</time></trkpt><trkpt lat="48.588088399277396" lon="-4.44322845445393"><ele>61.199999999999996</ele><time>2026-05-02T14:24:12.999Z</time></trkpt><trkpt lat="48.58802927241733" lon="-4.443300412479503"><ele>61.39999999999999</ele><time>2026-05-02T14:24:13.999Z</time></trkpt><trkpt lat="48.58793314500907" lon="-4.443426560613575"><ele>61.6</ele><time>2026-05-02T14:24:15.999Z</time></trkpt><trkpt lat="48.58782848913443" lon="-4.44346042737295"><ele>61.8</ele><time>2026-05-02T14:24:17.999Z</time></trkpt><trkpt lat="48.58777260112256" lon="-4.443379475217599"><ele>62.0</ele><time>2026-05-02T14:24:18.999Z</time></trkpt><trkpt lat="48.5877387223963" lon="-4.443294282695668"><ele>62.00000000000001</ele><time>2026-05-02T14:24:19.999Z</time></trkpt><trkpt lat="48.58769002589893" lon="-4.443211519876076"><ele>62.0</ele><time>2026-05-02T14:24:20.999Z</time></trkpt><trkpt lat="48.58762491803219" lon="-4.443042058349351"><ele>62.0</ele><time>2026-05-02T14:24:22.999Z</time></trkpt><trkpt lat="48.587583652038305" lon="-4.442940555896001"><ele>62.0</ele><time>2026-05-02T14:24:23.999Z</time></trkpt><trkpt lat="48.5875237154196" lon="-4.442845148243615"><ele>62.00000000000001</ele><time>2026-05-02T14:24:24.999Z</time></trkpt><trkpt lat="48.58747088701466" lon="-4.442758598132659"><ele>62.0</ele><time>2026-05-02T14:24:25.999Z</time></trkpt><trkpt lat="48.58743124449706" lon="-4.442662313927566"><ele>62.00000000000001</ele><time>2026-05-02T14:24:26.999Z</time></trkpt><trkpt lat="48.587394733187345" lon="-4.442560505884918"><ele>62.0</ele><time>2026-05-02T14:24:27.999Z</time></trkpt><trkpt lat="48.5873458978799" lon="-4.442474258043453"><ele>62.0</ele><time>2026-05-02T14:24:28.999Z</time></trkpt><trkpt lat="48.58728191877405" lon="-4.442385101702169"><ele>62.0</ele><time>2026-05-02T14:24:29.999Z</time></trkpt><trkpt lat="48.5872269507275" lon="-4.442279736982332"><ele>62.00000000000001</ele><time>2026-05-02T14:24:30.999Z</time></trkpt><trkpt lat="48.58716898290158" lon="-4.442195963351244"><ele>62.0</ele><time>2026-05-02T14:24:31.999Z</time></trkpt><trkpt lat="48.58710196776474" lon="-4.442108221140061"><ele>62.0</ele><time>2026-05-02T14:24:32.999Z</time></trkpt><trkpt lat="48.58702083545806" lon="-4.442009850519799"><ele>62.0</ele><time>2026-05-02T14:24:33.999Z</time></trkpt><trkpt lat="48.586952601536204" lon="-4.441906889950168"><ele>62.0</ele><time>2026-05-02T14:24:34.999Z</time></trkpt><trkpt lat="48.58688018569612" lon="-4.441807960998284"><ele>62.0</ele><time>2026-05-02T14:24:35.999Z</time></trkpt><trkpt lat="48.58681196687263" lon="-4.4417090250744335"><ele>62.0</ele><time>2026-05-02T14:24:36.999Z</time></trkpt><trkpt lat="48.58677419380916" lon="-4.441608472756568"><ele>62.16666666666667</ele><time>2026-05-02T14:24:37.999Z</time></trkpt><trkpt lat="48.586730565828894" lon="-4.441514471799116"><ele>62.333333333333336</ele><time>2026-05-02T14:24:38.999Z</time></trkpt><trkpt lat="48.58667459858266" lon="-4.441385706821394"><ele>62.5</ele><time>2026-05-02T14:24:39.999Z</time></trkpt><trkpt lat="48.5866216937548" lon="-4.441272418219654"><ele>62.66666666666667</ele><time>2026-05-02T14:24:40.999Z</time></trkpt><trkpt lat="48.58658048948974" lon="-4.441173706359261"><ele>62.833333333333336</ele><time>2026-05-02T14:24:41.999Z</time></trkpt><trkpt lat="48.58654543864711" lon="-4.441047718335505"><ele>63.0</ele><time>2026-05-02T14:24:42.999Z</time></trkpt><trkpt lat="48.58650372182661" lon="-4.440913617268685"><ele>63.0</ele><time>2026-05-02T14:24:43.999Z</time></trkpt><trkpt lat="48.58645909832246" lon="-4.4407883941038815"><ele>63.0</ele><time>2026-05-02T14:24:44.999Z</time></trkpt><trkpt lat="48.58641886329056" lon="-4.4406804100339565"><ele>63.0</ele><time>2026-05-02T14:24:45.999Z</time></trkpt><trkpt lat="48.586382365723416" lon="-4.440556056369476"><ele>63.0</ele><time>2026-05-02T14:24:46.999Z</time></trkpt><trkpt lat="48.58635957485687" lon="-4.440455252187896"><ele>63.0</ele><time>2026-05-02T14:24:47.999Z</time></trkpt><trkpt lat="48.58632107475651" lon="-4.440364910398498"><ele>63.0</ele><time>2026-05-02T14:24:48.999Z</time></trkpt><trkpt lat="48.58627391036109" lon="-4.440237762050155"><ele>63.0</ele><time>2026-05-02T14:24:50.999Z</time></trkpt><trkpt lat="48.58620426764514" lon="-4.440125630979046"><ele>63.0</ele><time>2026-05-02T14:24:52.999Z</time></trkpt><trkpt lat="48.586177517969205" lon="-4.440033035938826"><ele>63.0</ele><time>2026-05-02T14:24:55.999Z</time></trkpt><trkpt lat="48.58608849696419" lon="-4.440027913141626"><ele>63.0</ele><time>2026-05-02T14:25:03.999Z</time></trkpt><trkpt lat="48.58600471988382" lon="-4.44000778458499"><ele>63.0</ele><time>2026-05-02T14:25:04.999Z</time></trkpt><trkpt lat="48.58588400157335" lon="-4.439979191579815"><ele>63.0</ele><time>2026-05-02T14:25:06.999Z</time></trkpt><trkpt lat="48.5857944194748" lon="-4.439959577706271"><ele>63.0</ele><time>2026-05-02T14:25:07.999Z</time></trkpt><trkpt lat="48.58570140783882" lon="-4.439952669277718"><ele>63.0</ele><time>2026-05-02T14:25:08.999Z</time></trkpt><trkpt lat="48.585619034517514" lon="-4.4399315046087375"><ele>63.0</ele><time>2026-05-02T14:25:09.999Z</time></trkpt><trkpt lat="48.5855525186197" lon="-4.439922249311587"><ele>63.0</ele><time>2026-05-02T14:25:10.999Z</time></trkpt><trkpt lat="48.58548486942905" lon="-4.439915255970648"><ele>63.0</ele><time>2026-05-02T14:25:11.999Z</time></trkpt><trkpt lat="48.58540676152948" lon="-4.439915112080171"><ele>62.833333333333336</ele><time>2026-05-02T14:25:12.999Z</time></trkpt><trkpt lat="48.58531935626954" lon="-4.43991211107738"><ele>62.66666666666667</ele><time>2026-05-02T14:25:13.999Z</time></trkpt><trkpt lat="48.58523679850754" lon="-4.439908482049373"><ele>62.5</ele><time>2026-05-02T14:25:14.999Z</time></trkpt><trkpt lat="48.58515861592857" lon="-4.439914877389539"><ele>62.333333333333336</ele><time>2026-05-02T14:25:15.999Z</time></trkpt><trkpt lat="48.58507457883257" lon="-4.439895346277577"><ele>62.16666666666667</ele><time>2026-05-02T14:25:16.999Z</time></trkpt><trkpt lat="48.58499330767729" lon="-4.439872780610263"><ele>62.0</ele><time>2026-05-02T14:25:17.999Z</time></trkpt><trkpt lat="48.58491424540723" lon="-4.439850404586292"><ele>62.0</ele><time>2026-05-02T14:25:18.999Z</time></trkpt><trkpt lat="48.58482791485621" lon="-4.4398280840869635"><ele>62.0</ele><time>2026-05-02T14:25:19.999Z</time></trkpt><trkpt lat="48.58473052911485" lon="-4.439787540553258"><ele>62.0</ele><time>2026-05-02T14:25:20.999Z</time></trkpt><trkpt lat="48.584617730366936" lon="-4.439718495814483"><ele>62.0</ele><time>2026-05-02T14:25:21.999Z</time></trkpt><trkpt lat="48.58451051638014" lon="-4.4396365067921995"><ele>62.0</ele><time>2026-05-02T14:25:22.999Z</time></trkpt><trkpt lat="48.58441389941815" lon="-4.439572656544984"><ele>61.6</ele><time>2026-05-02T14:25:23.999Z</time></trkpt><trkpt lat="48.584323206566864" lon="-4.439498171662012"><ele>61.2</ele><time>2026-05-02T14:25:24.999Z</time></trkpt><trkpt lat="48.58423736424906" lon="-4.439424490915097"><ele>60.8</ele><time>2026-05-02T14:25:25.999Z</time></trkpt><trkpt lat="48.5841456586312" lon="-4.439344905557755"><ele>60.4</ele><time>2026-05-02T14:25:26.999Z</time></trkpt><trkpt lat="48.584043703771286" lon="-4.43925504812087"><ele>60.0</ele><time>2026-05-02T14:25:27.999Z</time></trkpt><trkpt lat="48.583929336094286" lon="-4.4391529516806365"><ele>60.0</ele><time>2026-05-02T14:25:28.999Z</time></trkpt><trkpt lat="48.583810268924914" lon="-4.439043727221303"><ele>60.0</ele><time>2026-05-02T14:25:29.999Z</time></trkpt><trkpt lat="48.583691325212754" lon="-4.438937056076456"><ele>60.0</ele><time>2026-05-02T14:25:30.999Z</time></trkpt><trkpt lat="48.5835743854023" lon="-4.43883461514027"><ele>60.0</ele><time>2026-05-02T14:25:31.999Z</time></trkpt><trkpt lat="48.583475065835074" lon="-4.438754289911527"><ele>59.8</ele><time>2026-05-02T14:25:32.999Z</time></trkpt><trkpt lat="48.5833765912828" lon="-4.438666440376519"><ele>59.6</ele><time>2026-05-02T14:25:33.999Z</time></trkpt><trkpt lat="48.58328906388677" lon="-4.438583329442395"><ele>59.400000000000006</ele><time>2026-05-02T14:25:34.999Z</time></trkpt><trkpt lat="48.58320395970966" lon="-4.438507136598128"><ele>59.2</ele><time>2026-05-02T14:25:35.998Z</time></trkpt><trkpt lat="48.583140428025494" lon="-4.4384566343494125"><ele>59.0</ele><time>2026-05-02T14:25:36.998Z</time></trkpt><trkpt lat="48.58307368405159" lon="-4.4384119962125546"><ele>59.00000000000001</ele><time>2026-05-02T14:25:37.998Z</time></trkpt><trkpt lat="48.5830187642626" lon="-4.438361168386446"><ele>59.0</ele><time>2026-05-02T14:25:38.998Z</time></trkpt><trkpt lat="48.58295022654652" lon="-4.438290429021669"><ele>59.0</ele><time>2026-05-02T14:25:39.998Z</time></trkpt><trkpt lat="48.58288714327817" lon="-4.438224891415631"><ele>59.0</ele><time>2026-05-02T14:25:40.998Z</time></trkpt><trkpt lat="48.58279928568359" lon="-4.438172143430152"><ele>59.00000000000001</ele><time>2026-05-02T14:25:41.998Z</time></trkpt><trkpt lat="48.582708274540494" lon="-4.438124209651012"><ele>59.0</ele><time>2026-05-02T14:25:42.998Z</time></trkpt><trkpt lat="48.58263542449155" lon="-4.438069190040129"><ele>58.833333333333336</ele><time>2026-05-02T14:25:43.998Z</time></trkpt><trkpt lat="48.58255724770775" lon="-4.4380364830076395"><ele>58.66666666666667</ele><time>2026-05-02T14:25:44.998Z</time></trkpt><trkpt lat="48.58249103179876" lon="-4.437991889896118"><ele>58.5</ele><time>2026-05-02T14:25:45.998Z</time></trkpt><trkpt lat="48.582416975482914" lon="-4.437956612527523"><ele>58.33333333333333</ele><time>2026-05-02T14:25:47Z</time></trkpt><trkpt lat="48.58232907764215" lon="-4.437941383161301"><ele>58.166666666666664</ele><time>2026-05-02T14:25:48Z</time></trkpt><trkpt lat="48.58224810722121" lon="-4.437942145091044"><ele>58.0</ele><time>2026-05-02T14:25:49Z</time></trkpt><trkpt lat="48.582171773082756" lon="-4.4379696093456475"><ele>57.99999999999999</ele><time>2026-05-02T14:25:50Z</time></trkpt><trkpt lat="48.58209644778788" lon="-4.437991503384501"><ele>58.0</ele><time>2026-05-02T14:25:51Z</time></trkpt><trkpt lat="48.58203026942891" lon="-4.4380214094486865"><ele>58.0</ele><time>2026-05-02T14:25:52Z</time></trkpt><trkpt lat="48.58194306438905" lon="-4.43805808202734"><ele>58.0</ele><time>2026-05-02T14:25:53Z</time></trkpt><trkpt lat="48.58184257008907" lon="-4.438101964597953"><ele>57.99999999999999</ele><time>2026-05-02T14:25:54Z</time></trkpt><trkpt lat="48.58175582547276" lon="-4.438151290308396"><ele>58.0</ele><time>2026-05-02T14:25:55Z</time></trkpt><trkpt lat="48.58167952763651" lon="-4.438194416365857"><ele>57.8</ele><time>2026-05-02T14:25:56Z</time></trkpt><trkpt lat="48.581586153174364" lon="-4.438246220241551"><ele>57.599999999999994</ele><time>2026-05-02T14:25:57Z</time></trkpt><trkpt lat="48.581488724075" lon="-4.43829399953405"><ele>57.400000000000006</ele><time>2026-05-02T14:25:58Z</time></trkpt><trkpt lat="48.58139774753365" lon="-4.438343342519383"><ele>57.2</ele><time>2026-05-02T14:25:59Z</time></trkpt><trkpt lat="48.58131263136983" lon="-4.438381998242096"><ele>57.0</ele><time>2026-05-02T14:26:00Z</time></trkpt><trkpt lat="48.58123270217732" lon="-4.438421640592837"><ele>57.400000000000006</ele><time>2026-05-02T14:26:01Z</time></trkpt><trkpt lat="48.58115995658204" lon="-4.438453800618444"><ele>57.800000000000004</ele><time>2026-05-02T14:26:02Z</time></trkpt><trkpt lat="48.581090454479146" lon="-4.438469761756942"><ele>58.2</ele><time>2026-05-02T14:26:03Z</time></trkpt><trkpt lat="48.581027651288125" lon="-4.438503130106182"><ele>58.6</ele><time>2026-05-02T14:26:04Z</time></trkpt><trkpt lat="48.58091668639613" lon="-4.438556415005553"><ele>59.0</ele><time>2026-05-02T14:26:06Z</time></trkpt><trkpt lat="48.58079999999933" lon="-4.438615592342517"><ele>59.00000000000001</ele><time>2026-05-02T14:26:08Z</time></trkpt><trkpt lat="48.58073616689599" lon="-4.4386505970204855"><ele>59.0</ele><time>2026-05-02T14:26:09Z</time></trkpt><trkpt lat="48.58066422186482" lon="-4.438691344768087"><ele>59.0</ele><time>2026-05-02T14:26:10Z</time></trkpt><trkpt lat="48.58058939395061" lon="-4.438733698568595"><ele>59.0</ele><time>2026-05-02T14:26:11Z</time></trkpt><trkpt lat="48.58050532051051" lon="-4.4387865633193435"><ele>59.00000000000001</ele><time>2026-05-02T14:26:12Z</time></trkpt><trkpt lat="48.580438833507166" lon="-4.438839407764505"><ele>59.0</ele><time>2026-05-02T14:26:13Z</time></trkpt><trkpt lat="48.580363037199604" lon="-4.438898748313094"><ele>59.0</ele><time>2026-05-02T14:26:14Z</time></trkpt><trkpt lat="48.58026922879915" lon="-4.438970064077786"><ele>59.00000000000001</ele><time>2026-05-02T14:26:15Z</time></trkpt><trkpt lat="48.58018771712882" lon="-4.439029080697268"><ele>59.00000000000001</ele><time>2026-05-02T14:26:16Z</time></trkpt><trkpt lat="48.580105864595374" lon="-4.4391052120111265"><ele>59.0</ele><time>2026-05-02T14:26:17Z</time></trkpt><trkpt lat="48.58001466875095" lon="-4.439198263163881"><ele>59.0</ele><time>2026-05-02T14:26:17.999Z</time></trkpt><trkpt lat="48.57993042694336" lon="-4.43929818224145"><ele>59.0</ele><time>2026-05-02T14:26:18.999Z</time></trkpt><trkpt lat="48.579851782438276" lon="-4.43943346371642"><ele>59.0</ele><time>2026-05-02T14:26:19.999Z</time></trkpt><trkpt lat="48.57978290522002" lon="-4.439570209544501"><ele>59.0</ele><time>2026-05-02T14:26:20.999Z</time></trkpt><trkpt lat="48.57969799774985" lon="-4.439715915662412"><ele>59.0</ele><time>2026-05-02T14:26:21.999Z</time></trkpt><trkpt lat="48.5796182504197" lon="-4.439867415001331"><ele>59.0</ele><time>2026-05-02T14:26:22.999Z</time></trkpt><trkpt lat="48.57955058731043" lon="-4.439994765086034"><ele>59.00000000000001</ele><time>2026-05-02T14:26:23.999Z</time></trkpt><trkpt lat="48.57948717084687" lon="-4.440161756224587"><ele>59.00000000000001</ele><time>2026-05-02T14:26:24.999Z</time></trkpt><trkpt lat="48.579439014713294" lon="-4.440286778837108"><ele>59.0</ele><time>2026-05-02T14:26:25.999Z</time></trkpt><trkpt lat="48.57938024025713" lon="-4.440379589047615"><ele>59.0</ele><time>2026-05-02T14:26:26.999Z</time></trkpt><trkpt lat="48.579316903066655" lon="-4.44045936154793"><ele>59.0</ele><time>2026-05-02T14:26:27.999Z</time></trkpt><trkpt lat="48.579224904893856" lon="-4.440514842018085"><ele>59.00000000000001</ele><time>2026-05-02T14:26:28.999Z</time></trkpt><trkpt lat="48.579114911765934" lon="-4.440578091204309"><ele>59.00000000000001</ele><time>2026-05-02T14:26:29.999Z</time></trkpt><trkpt lat="48.57899927191192" lon="-4.4406425061994685"><ele>59.0</ele><time>2026-05-02T14:26:30.999Z</time></trkpt><trkpt lat="48.5789036195759" lon="-4.440718486853105"><ele>59.0</ele><time>2026-05-02T14:26:31.999Z</time></trkpt><trkpt lat="48.57880951758164" lon="-4.440802026356571"><ele>59.00000000000001</ele><time>2026-05-02T14:26:32.999Z</time></trkpt><trkpt lat="48.57871198404769" lon="-4.4408603971824165"><ele>59.0</ele><time>2026-05-02T14:26:33.999Z</time></trkpt><trkpt lat="48.57864116086212" lon="-4.4408947132968315"><ele>59.0</ele><time>2026-05-02T14:26:34.999Z</time></trkpt><trkpt lat="48.57857039686538" lon="-4.440936833548186"><ele>59.0</ele><time>2026-05-02T14:26:35.999Z</time></trkpt><trkpt lat="48.578506666452064" lon="-4.440964385591843"><ele>59.00000000000001</ele><time>2026-05-02T14:26:36.999Z</time></trkpt><trkpt lat="48.57842145350613" lon="-4.441016111066613"><ele>59.0</ele><time>2026-05-02T14:26:38.999Z</time></trkpt><trkpt lat="48.57835740789548" lon="-4.440998344786482"><ele>58.66666666666667</ele><time>2026-05-02T14:26:41.999Z</time></trkpt><trkpt lat="48.57830165918825" lon="-4.440915280869215"><ele>58.333333333333336</ele><time>2026-05-02T14:26:45.999Z</time></trkpt><trkpt lat="48.57823718896372" lon="-4.440816063095981"><ele>58.0</ele><time>2026-05-02T14:26:47.999Z</time></trkpt><trkpt lat="48.578210120753766" lon="-4.440717643622372"><ele>57.66666666666667</ele><time>2026-05-02T14:26:49.999Z</time></trkpt><trkpt lat="48.57815502571196" lon="-4.440613118056865"><ele>57.333333333333336</ele><time>2026-05-02T14:26:58.999Z</time></trkpt><trkpt lat="48.5781289749873" lon="-4.440515331795162"><ele>57.0</ele><time>2026-05-02T14:27:01.999Z</time></trkpt><trkpt lat="48.57809211764055" lon="-4.440396447026519"><ele>57.0</ele><time>2026-05-02T14:27:03.999Z</time></trkpt><trkpt lat="48.578053763690974" lon="-4.440250984424949"><ele>57.0</ele><time>2026-05-02T14:27:05.999Z</time></trkpt><trkpt lat="48.57801977549379" lon="-4.440144564538319"><ele>57.0</ele><time>2026-05-02T14:27:06.999Z</time></trkpt><trkpt lat="48.57797342848158" lon="-4.44001830891589"><ele>57.0</ele><time>2026-05-02T14:27:07.999Z</time></trkpt><trkpt lat="48.57792855887624" lon="-4.439884743133854"><ele>57.0</ele><time>2026-05-02T14:27:08.999Z</time></trkpt><trkpt lat="48.577875679968884" lon="-4.4397611906025904"><ele>56.6</ele><time>2026-05-02T14:27:09.999Z</time></trkpt><trkpt lat="48.57783180043486" lon="-4.439669820780389"><ele>56.2</ele><time>2026-05-02T14:27:10.999Z</time></trkpt><trkpt lat="48.577775621565465" lon="-4.43956181383382"><ele>55.8</ele><time>2026-05-02T14:27:11.999Z</time></trkpt><trkpt lat="48.57773704444781" lon="-4.439432489718024"><ele>55.4</ele><time>2026-05-02T14:27:12.999Z</time></trkpt><trkpt lat="48.57769556688898" lon="-4.4392950569107"><ele>55.0</ele><time>2026-05-02T14:27:13.999Z</time></trkpt><trkpt lat="48.57764276869828" lon="-4.4391641411719105"><ele>54.8</ele><time>2026-05-02T14:27:14.999Z</time></trkpt><trkpt lat="48.577607759402" lon="-4.439062745501347"><ele>54.6</ele><time>2026-05-02T14:27:15.999Z</time></trkpt><trkpt lat="48.57756662988475" lon="-4.438965820790494"><ele>54.400000000000006</ele><time>2026-05-02T14:27:16.999Z</time></trkpt><trkpt lat="48.5775278045693" lon="-4.438842269771072"><ele>54.2</ele><time>2026-05-02T14:27:17.999Z</time></trkpt><trkpt lat="48.577477330156064" lon="-4.438701395714404"><ele>54.0</ele><time>2026-05-02T14:27:18.999Z</time></trkpt><trkpt lat="48.57742216290079" lon="-4.438534787283948"><ele>54.0</ele><time>2026-05-02T14:27:19.999Z</time></trkpt><trkpt lat="48.57737254615192" lon="-4.438390876909928"><ele>54.00000000000001</ele><time>2026-05-02T14:27:20.999Z</time></trkpt><trkpt lat="48.57732537113416" lon="-4.4382658339736425"><ele>54.00000000000001</ele><time>2026-05-02T14:27:21.999Z</time></trkpt><trkpt lat="48.577283923792905" lon="-4.438143656680913"><ele>54.0</ele><time>2026-05-02T14:27:22.999Z</time></trkpt><trkpt lat="48.57724278963743" lon="-4.4380260969306775"><ele>54.0</ele><time>2026-05-02T14:27:23.999Z</time></trkpt><trkpt lat="48.57719785191788" lon="-4.437888983416658"><ele>54.0</ele><time>2026-05-02T14:27:24.999Z</time></trkpt><trkpt lat="48.57715436840635" lon="-4.437749258455976"><ele>54.0</ele><time>2026-05-02T14:27:25.999Z</time></trkpt><trkpt lat="48.577112229692986" lon="-4.437612691377107"><ele>54.0</ele><time>2026-05-02T14:27:26.999Z</time></trkpt><trkpt lat="48.57703947976209" lon="-4.437462588534522"><ele>54.0</ele><time>2026-05-02T14:27:27.999Z</time></trkpt><trkpt lat="48.576981056517035" lon="-4.4372948180863245"><ele>53.75</ele><time>2026-05-02T14:27:28.999Z</time></trkpt><trkpt lat="48.57692522082333" lon="-4.437113829220284"><ele>53.5</ele><time>2026-05-02T14:27:29.999Z</time></trkpt><trkpt lat="48.57685880509587" lon="-4.436936519554147"><ele>53.25</ele><time>2026-05-02T14:27:30.999Z</time></trkpt><trkpt lat="48.576817145467835" lon="-4.436762848001387"><ele>53.0</ele><time>2026-05-02T14:27:31.999Z</time></trkpt><trkpt lat="48.57677950754184" lon="-4.436593713508969"><ele>53.0</ele><time>2026-05-02T14:27:32.999Z</time></trkpt><trkpt lat="48.57675832205998" lon="-4.436418991705844"><ele>53.0</ele><time>2026-05-02T14:27:33.999Z</time></trkpt><trkpt lat="48.5767609607122" lon="-4.436216526300273"><ele>53.0</ele><time>2026-05-02T14:27:34.999Z</time></trkpt><trkpt lat="48.57677116296578" lon="-4.436005452009944"><ele>53.0</ele><time>2026-05-02T14:27:35.999Z</time></trkpt><trkpt lat="48.57679827450794" lon="-4.435811806643714"><ele>53.0</ele><time>2026-05-02T14:27:36.999Z</time></trkpt><trkpt lat="48.576813526277334" lon="-4.435608186253949"><ele>53.0</ele><time>2026-05-02T14:27:37.999Z</time></trkpt><trkpt lat="48.57684224819768" lon="-4.435381118184168"><ele>53.0</ele><time>2026-05-02T14:27:38.999Z</time></trkpt><trkpt lat="48.5768896650982" lon="-4.435168293534176"><ele>53.0</ele><time>2026-05-02T14:27:39.999Z</time></trkpt><trkpt lat="48.57692131877636" lon="-4.434969100628082"><ele>53.0</ele><time>2026-05-02T14:27:40.998Z</time></trkpt><trkpt lat="48.57695943978371" lon="-4.434812582531474"><ele>53.0</ele><time>2026-05-02T14:27:41.998Z</time></trkpt><trkpt lat="48.57699869356295" lon="-4.434675233345421"><ele>53.0</ele><time>2026-05-02T14:27:42.998Z</time></trkpt><trkpt lat="48.577034339945634" lon="-4.434571908401998"><ele>53.0</ele><time>2026-05-02T14:27:43.998Z</time></trkpt><trkpt lat="48.57706701931818" lon="-4.434417353198684"><ele>53.0</ele><time>2026-05-02T14:27:45.998Z</time></trkpt><trkpt lat="48.577097334718" lon="-4.434317227974791"><ele>53.0</ele><time>2026-05-02T14:27:46.998Z</time></trkpt><trkpt lat="48.57712899926255" lon="-4.4342244845900565"><ele>53.0</ele><time>2026-05-02T14:27:47.998Z</time></trkpt><trkpt lat="48.57717160799904" lon="-4.434115667017129"><ele>53.0</ele><time>2026-05-02T14:27:48.998Z</time></trkpt><trkpt lat="48.57722544818057" lon="-4.43399217206333"><ele>53.0</ele><time>2026-05-02T14:27:49.998Z</time></trkpt><trkpt lat="48.57728055985449" lon="-4.433849081842792"><ele>53.0</ele><time>2026-05-02T14:27:50.998Z</time></trkpt><trkpt lat="48.57733598535946" lon="-4.433683890565183"><ele>53.0</ele><time>2026-05-02T14:27:51.998Z</time></trkpt><trkpt lat="48.57739387437699" lon="-4.433518266505902"><ele>53.0</ele><time>2026-05-02T14:27:53Z</time></trkpt><trkpt lat="48.5774526642431" lon="-4.433353800321323"><ele>53.0</ele><time>2026-05-02T14:27:54Z</time></trkpt><trkpt lat="48.57750979402979" lon="-4.433165205354872"><ele>53.0</ele><time>2026-05-02T14:27:55Z</time></trkpt><trkpt lat="48.57755109510936" lon="-4.432947824597832"><ele>53.0</ele><time>2026-05-02T14:27:56Z</time></trkpt><trkpt lat="48.57758670539747" lon="-4.4327355715388785"><ele>53.0</ele><time>2026-05-02T14:27:57Z</time></trkpt><trkpt lat="48.57762020480493" lon="-4.432556374393333"><ele>53.0</ele><time>2026-05-02T14:27:58Z</time></trkpt><trkpt lat="48.57764636762094" lon="-4.432370186058382"><ele>53.0</ele><time>2026-05-02T14:27:59Z</time></trkpt><trkpt lat="48.577680631665935" lon="-4.4321632704787355"><ele>53.25</ele><time>2026-05-02T14:28:00Z</time></trkpt><trkpt lat="48.57770926361816" lon="-4.431960332568309"><ele>53.5</ele><time>2026-05-02T14:28:01Z</time></trkpt><trkpt lat="48.57772748106261" lon="-4.431768255522472"><ele>53.75</ele><time>2026-05-02T14:28:02Z</time></trkpt><trkpt lat="48.5777563272484" lon="-4.431597774717702"><ele>54.0</ele><time>2026-05-02T14:28:03Z</time></trkpt><trkpt lat="48.577798253347154" lon="-4.431441810697365"><ele>54.25</ele><time>2026-05-02T14:28:04Z</time></trkpt><trkpt lat="48.57785986561334" lon="-4.4313097508814"><ele>54.5</ele><time>2026-05-02T14:28:05Z</time></trkpt><trkpt lat="48.577955705568" lon="-4.431195347528925"><ele>54.75</ele><time>2026-05-02T14:28:06Z</time></trkpt><trkpt lat="48.57807408306306" lon="-4.431110146963527"><ele>55.0</ele><time>2026-05-02T14:28:07Z</time></trkpt><trkpt lat="48.5781828574826" lon="-4.431028298416479"><ele>54.99999999999999</ele><time>2026-05-02T14:28:08Z</time></trkpt><trkpt lat="48.578277219968996" lon="-4.430958737765864"><ele>55.0</ele><time>2026-05-02T14:28:09Z</time></trkpt><trkpt lat="48.57835212078028" lon="-4.4309230314078"><ele>55.0</ele><time>2026-05-02T14:28:10Z</time></trkpt><trkpt lat="48.57842789277599" lon="-4.430890218171632"><ele>55.0</ele><time>2026-05-02T14:28:11Z</time></trkpt><trkpt lat="48.57849963837492" lon="-4.4308589460305905"><ele>54.99999999999999</ele><time>2026-05-02T14:28:12Z</time></trkpt><trkpt lat="48.57857735929468" lon="-4.430818463997311"><ele>55.0</ele><time>2026-05-02T14:28:14Z</time></trkpt><trkpt lat="48.57857154489089" lon="-4.43066431285524"><ele>55.0</ele><time>2026-05-02T14:28:16Z</time></trkpt><trkpt lat="48.578548296628846" lon="-4.430521990966102"><ele>55.0</ele><time>2026-05-02T14:28:17Z</time></trkpt><trkpt lat="48.578511184323986" lon="-4.430340413318793"><ele>55.0</ele><time>2026-05-02T14:28:18Z</time></trkpt><trkpt lat="48.57847810181605" lon="-4.430165179485601"><ele>55.0</ele><time>2026-05-02T14:28:19Z</time></trkpt><trkpt lat="48.578458963987366" lon="-4.429984248908155"><ele>55.0</ele><time>2026-05-02T14:28:20Z</time></trkpt><trkpt lat="48.57843058692933" lon="-4.429824675016503"><ele>55.0</ele><time>2026-05-02T14:28:21Z</time></trkpt><trkpt lat="48.57839926817304" lon="-4.429648654443507"><ele>55.0</ele><time>2026-05-02T14:28:22Z</time></trkpt><trkpt lat="48.57837296780934" lon="-4.429502064089896"><ele>55.0</ele><time>2026-05-02T14:28:23Z</time></trkpt><trkpt lat="48.578342807696295" lon="-4.4293675385108235"><ele>55.0</ele><time>2026-05-02T14:28:23.999Z</time></trkpt><trkpt lat="48.578311123410785" lon="-4.429243338952295"><ele>55.4</ele><time>2026-05-02T14:28:24.999Z</time></trkpt><trkpt lat="48.57828159845213" lon="-4.429105077314424"><ele>55.8</ele><time>2026-05-02T14:28:25.999Z</time></trkpt><trkpt lat="48.57825276688402" lon="-4.428970219043769"><ele>56.2</ele><time>2026-05-02T14:28:26.999Z</time></trkpt><trkpt lat="48.57823173381332" lon="-4.428818677018706"><ele>56.6</ele><time>2026-05-02T14:28:27.999Z</time></trkpt><trkpt lat="48.578198034194905" lon="-4.428677339478579"><ele>57.0</ele><time>2026-05-02T14:28:28.999Z</time></trkpt><trkpt lat="48.57815448845712" lon="-4.428540431347987"><ele>57.25</ele><time>2026-05-02T14:28:29.999Z</time></trkpt><trkpt lat="48.5781151691794" lon="-4.428390201402274"><ele>57.5</ele><time>2026-05-02T14:28:30.999Z</time></trkpt><trkpt lat="48.578081009078446" lon="-4.4282210946336775"><ele>57.75</ele><time>2026-05-02T14:28:31.999Z</time></trkpt><trkpt lat="48.57804144482559" lon="-4.42804448727214"><ele>58.0</ele><time>2026-05-02T14:28:32.999Z</time></trkpt><trkpt lat="48.577987588412235" lon="-4.427872439007569"><ele>58.2</ele><time>2026-05-02T14:28:33.999Z</time></trkpt><trkpt lat="48.57793477907587" lon="-4.4277002795587945"><ele>58.4</ele><time>2026-05-02T14:28:34.999Z</time></trkpt><trkpt lat="48.577899714060216" lon="-4.427544314803482"><ele>58.60000000000001</ele><time>2026-05-02T14:28:35.999Z</time></trkpt><trkpt lat="48.57786500333248" lon="-4.427398957023231"><ele>58.800000000000004</ele><time>2026-05-02T14:28:36.999Z</time></trkpt><trkpt lat="48.577834954729816" lon="-4.427260779990279"><ele>59.0</ele><time>2026-05-02T14:28:37.999Z</time></trkpt><trkpt lat="48.57779601363183" lon="-4.4271218270600645"><ele>59.400000000000006</ele><time>2026-05-02T14:28:38.999Z</time></trkpt><trkpt lat="48.57776593414129" lon="-4.426989370316254"><ele>59.800000000000004</ele><time>2026-05-02T14:28:39.999Z</time></trkpt><trkpt lat="48.577738327828385" lon="-4.426844804840901"><ele>60.199999999999996</ele><time>2026-05-02T14:28:40.999Z</time></trkpt><trkpt lat="48.57770929649457" lon="-4.426691613084227"><ele>60.599999999999994</ele><time>2026-05-02T14:28:41.999Z</time></trkpt><trkpt lat="48.57768019542384" lon="-4.426531008969718"><ele>61.0</ele><time>2026-05-02T14:28:42.999Z</time></trkpt><trkpt lat="48.57765891962551" lon="-4.426364927697986"><ele>61.199999999999996</ele><time>2026-05-02T14:28:43.999Z</time></trkpt><trkpt lat="48.57762385660082" lon="-4.426204569805616"><ele>61.39999999999999</ele><time>2026-05-02T14:28:44.999Z</time></trkpt><trkpt lat="48.57758253601422" lon="-4.426051110080002"><ele>61.6</ele><time>2026-05-02T14:28:45.999Z</time></trkpt><trkpt lat="48.577522089862974" lon="-4.425916628181377"><ele>61.8</ele><time>2026-05-02T14:28:46.999Z</time></trkpt><trkpt lat="48.57747356032661" lon="-4.425782166614622"><ele>62.0</ele><time>2026-05-02T14:28:47.999Z</time></trkpt><trkpt lat="48.577417172426735" lon="-4.425633601641453"><ele>62.0</ele><time>2026-05-02T14:28:48.999Z</time></trkpt><trkpt lat="48.5773682686641" lon="-4.425488565410759"><ele>62.0</ele><time>2026-05-02T14:28:49.999Z</time></trkpt><trkpt lat="48.577324122917155" lon="-4.425346072510885"><ele>62.0</ele><time>2026-05-02T14:28:50.999Z</time></trkpt><trkpt lat="48.57727478472141" lon="-4.425187826143648"><ele>62.0</ele><time>2026-05-02T14:28:51.999Z</time></trkpt><trkpt lat="48.577218449106454" lon="-4.42502603217472"><ele>62.0</ele><time>2026-05-02T14:28:52.999Z</time></trkpt><trkpt lat="48.577166463667375" lon="-4.424870328313094"><ele>62.0</ele><time>2026-05-02T14:28:53.999Z</time></trkpt><trkpt lat="48.577134470215874" lon="-4.424721362062167"><ele>62.0</ele><time>2026-05-02T14:28:54.999Z</time></trkpt><trkpt lat="48.577095833468974" lon="-4.424567180191809"><ele>62.0</ele><time>2026-05-02T14:28:55.999Z</time></trkpt><trkpt lat="48.577055952835494" lon="-4.424408046595651"><ele>62.0</ele><time>2026-05-02T14:28:56.999Z</time></trkpt><trkpt lat="48.577028191090264" lon="-4.424256364193756"><ele>62.0</ele><time>2026-05-02T14:28:57.999Z</time></trkpt><trkpt lat="48.57701183243179" lon="-4.424123575805515"><ele>62.00000000000001</ele><time>2026-05-02T14:28:58.999Z</time></trkpt><trkpt lat="48.57698420471553" lon="-4.423971775064129"><ele>62.0</ele><time>2026-05-02T14:28:59.999Z</time></trkpt><trkpt lat="48.57697621520167" lon="-4.4238203215912515"><ele>62.0</ele><time>2026-05-02T14:29:00.999Z</time></trkpt><trkpt lat="48.57697770693317" lon="-4.423677819345639"><ele>62.0</ele><time>2026-05-02T14:29:01.999Z</time></trkpt><trkpt lat="48.576980874232305" lon="-4.423555484275609"><ele>62.00000000000001</ele><time>2026-05-02T14:29:02.999Z</time></trkpt><trkpt lat="48.5769947728942" lon="-4.423452999412868"><ele>62.0</ele><time>2026-05-02T14:29:03.999Z</time></trkpt><trkpt lat="48.57699532461287" lon="-4.423345502631243"><ele>62.0</ele><time>2026-05-02T14:29:05.999Z</time></trkpt><trkpt lat="48.57699257887572" lon="-4.423226606301767"><ele>62.0</ele><time>2026-05-02T14:29:17.999Z</time></trkpt><trkpt lat="48.5771812254274" lon="-4.423177024003225"><ele>62.0</ele><time>2026-05-02T14:29:27.999Z</time></trkpt><trkpt lat="48.57725147982162" lon="-4.423204973144368"><ele>62.0</ele><time>2026-05-02T14:29:28.999Z</time></trkpt><trkpt lat="48.57733100066124" lon="-4.423235655520162"><ele>62.0</ele><time>2026-05-02T14:29:29.999Z</time></trkpt><trkpt lat="48.57741386574325" lon="-4.423248573283994"><ele>62.2</ele><time>2026-05-02T14:29:30.999Z</time></trkpt><trkpt lat="48.577509830512795" lon="-4.423257016956009"><ele>62.400000000000006</ele><time>2026-05-02T14:29:31.999Z</time></trkpt><trkpt lat="48.57761196186244" lon="-4.423257839513415"><ele>62.599999999999994</ele><time>2026-05-02T14:29:32.999Z</time></trkpt><trkpt lat="48.577718945921404" lon="-4.423262918202287"><ele>62.8</ele><time>2026-05-02T14:29:33.999Z</time></trkpt><trkpt lat="48.57783709055186" lon="-4.423260426576578"><ele>63.0</ele><time>2026-05-02T14:29:34.999Z</time></trkpt><trkpt lat="48.577937291029755" lon="-4.423250277651219"><ele>63.599999999999994</ele><time>2026-05-02T14:29:35.999Z</time></trkpt><trkpt lat="48.57803554409364" lon="-4.423252219219281"><ele>64.19999999999999</ele><time>2026-05-02T14:29:36.999Z</time></trkpt><trkpt lat="48.578133511324914" lon="-4.423251959887872"><ele>64.8</ele><time>2026-05-02T14:29:37.999Z</time></trkpt><trkpt lat="48.5782325431568" lon="-4.423262032162233"><ele>65.39999999999999</ele><time>2026-05-02T14:29:38.999Z</time></trkpt><trkpt lat="48.57833315787178" lon="-4.423253752686949"><ele>66.0</ele><time>2026-05-02T14:29:39.999Z</time></trkpt><trkpt lat="48.57841972702292" lon="-4.423251781099462"><ele>66.0</ele><time>2026-05-02T14:29:40.999Z</time></trkpt><trkpt lat="48.57853502516695" lon="-4.423252941140618"><ele>66.0</ele><time>2026-05-02T14:29:42.999Z</time></trkpt><trkpt lat="48.57865397940131" lon="-4.423253765271974"><ele>66.0</ele><time>2026-05-02T14:29:44.999Z</time></trkpt><trkpt lat="48.578774554043875" lon="-4.423196055464498"><ele>66.0</ele><time>2026-05-02T14:29:46.998Z</time></trkpt><trkpt lat="48.57883118774303" lon="-4.423148269438166"><ele>66.0</ele><time>2026-05-02T14:29:47.998Z</time></trkpt><trkpt lat="48.578876971251475" lon="-4.423060698792102"><ele>65.83333333333333</ele><time>2026-05-02T14:29:48.998Z</time></trkpt><trkpt lat="48.578907177576" lon="-4.422935621073791"><ele>65.66666666666667</ele><time>2026-05-02T14:29:49.998Z</time></trkpt><trkpt lat="48.57892586948419" lon="-4.422797529617981"><ele>65.5</ele><time>2026-05-02T14:29:51.998Z</time></trkpt><trkpt lat="48.57889648584707" lon="-4.422696086767606"><ele>65.33333333333334</ele><time>2026-05-02T14:29:53.998Z</time></trkpt><trkpt lat="48.57887179449035" lon="-4.422600797610741"><ele>65.16666666666667</ele><time>2026-05-02T14:30:16Z</time></trkpt><trkpt lat="48.57886037612444" lon="-4.422463644686728"><ele>65.0</ele><time>2026-05-02T14:30:18Z</time></trkpt><trkpt lat="48.578870629033595" lon="-4.422324756806493"><ele>65.0</ele><time>2026-05-02T14:30:20Z</time></trkpt><trkpt lat="48.57888105362312" lon="-4.4222066221790035"><ele>65.0</ele><time>2026-05-02T14:30:22Z</time></trkpt><trkpt lat="48.578894349535574" lon="-4.4220958823281995"><ele>65.0</ele><time>2026-05-02T14:30:24Z</time></trkpt><trkpt lat="48.578884926560264" lon="-4.421962375413002"><ele>65.0</ele><time>2026-05-02T14:30:26Z</time></trkpt><trkpt lat="48.578887135160386" lon="-4.42185706508447"><ele>65.0</ele><time>2026-05-02T14:30:27Z</time></trkpt><trkpt lat="48.578886472785314" lon="-4.421748086782996"><ele>65.0</ele><time>2026-05-02T14:30:27.999Z</time></trkpt><trkpt lat="48.57887107012783" lon="-4.42162160492546"><ele>65.4</ele><time>2026-05-02T14:30:28.999Z</time></trkpt><trkpt lat="48.578848478426785" lon="-4.421468808229348"><ele>65.8</ele><time>2026-05-02T14:30:29.999Z</time></trkpt><trkpt lat="48.57883728781824" lon="-4.4213093636778495"><ele>66.2</ele><time>2026-05-02T14:30:30.999Z</time></trkpt><trkpt lat="48.57882073920633" lon="-4.421156762413119"><ele>66.6</ele><time>2026-05-02T14:30:31.999Z</time></trkpt><trkpt lat="48.57878944959569" lon="-4.420980167272657"><ele>67.0</ele><time>2026-05-02T14:30:32.999Z</time></trkpt><trkpt lat="48.57877114634925" lon="-4.4207688792869"><ele>67.33333333333333</ele><time>2026-05-02T14:30:33.999Z</time></trkpt><trkpt lat="48.578756025495096" lon="-4.420546564387016"><ele>67.66666666666667</ele><time>2026-05-02T14:30:34.999Z</time></trkpt><trkpt lat="48.578734569498444" lon="-4.4203109819923325"><ele>68.0</ele><time>2026-05-02T14:30:35.999Z</time></trkpt><trkpt lat="48.5787267979533" lon="-4.420072915942314"><ele>68.0</ele><time>2026-05-02T14:30:36.999Z</time></trkpt><trkpt lat="48.57873097245541" lon="-4.419810397780211"><ele>68.0</ele><time>2026-05-02T14:30:37.999Z</time></trkpt><trkpt lat="48.57874072487626" lon="-4.419541818007605"><ele>68.0</ele><time>2026-05-02T14:30:38.999Z</time></trkpt><trkpt lat="48.578750723367975" lon="-4.4192791678510295"><ele>68.0</ele><time>2026-05-02T14:30:39.999Z</time></trkpt><trkpt lat="48.57876860686405" lon="-4.419046042197246"><ele>68.0</ele><time>2026-05-02T14:30:40.999Z</time></trkpt><trkpt lat="48.57880084455569" lon="-4.418850206584203"><ele>68.0</ele><time>2026-05-02T14:30:41.999Z</time></trkpt><trkpt lat="48.578821684863414" lon="-4.418698723107836"><ele>68.0</ele><time>2026-05-02T14:30:42.999Z</time></trkpt><trkpt lat="48.57884557086732" lon="-4.418536597910802"><ele>68.0</ele><time>2026-05-02T14:30:43.999Z</time></trkpt><trkpt lat="48.57887987342277" lon="-4.418348879100529"><ele>68.0</ele><time>2026-05-02T14:30:44.999Z</time></trkpt><trkpt lat="48.57890506054176" lon="-4.4181446853738295"><ele>68.0</ele><time>2026-05-02T14:30:45.999Z</time></trkpt><trkpt lat="48.578941111548225" lon="-4.4179316941419104"><ele>68.0</ele><time>2026-05-02T14:30:46.999Z</time></trkpt><trkpt lat="48.57898333997879" lon="-4.4177104465128805"><ele>68.0</ele><time>2026-05-02T14:30:47.999Z</time></trkpt><trkpt lat="48.57902915932725" lon="-4.417471541056613"><ele>68.0</ele><time>2026-05-02T14:30:48.999Z</time></trkpt><trkpt lat="48.57907941945555" lon="-4.41723463360473"><ele>68.0</ele><time>2026-05-02T14:30:49.999Z</time></trkpt><trkpt lat="48.57913053224178" lon="-4.416993412956191"><ele>68.33333333333334</ele><time>2026-05-02T14:30:50.999Z</time></trkpt><trkpt lat="48.57918514676364" lon="-4.416726666213092"><ele>68.66666666666667</ele><time>2026-05-02T14:30:51.999Z</time></trkpt><trkpt lat="48.57925131051829" lon="-4.416475514546997"><ele>69.0</ele><time>2026-05-02T14:30:52.999Z</time></trkpt><trkpt lat="48.57930846061279" lon="-4.416220567638623"><ele>69.25</ele><time>2026-05-02T14:30:53.999Z</time></trkpt><trkpt lat="48.57936434736128" lon="-4.415988840270055"><ele>69.5</ele><time>2026-05-02T14:30:54.999Z</time></trkpt><trkpt lat="48.5794016104914" lon="-4.415786072100463"><ele>69.75</ele><time>2026-05-02T14:30:55.999Z</time></trkpt><trkpt lat="48.579443396761874" lon="-4.415604658179642"><ele>70.0</ele><time>2026-05-02T14:30:56.999Z</time></trkpt><trkpt lat="48.579480005036416" lon="-4.415453755023115"><ele>70.0</ele><time>2026-05-02T14:30:57.999Z</time></trkpt><trkpt lat="48.57951565549086" lon="-4.415304164720342"><ele>70.0</ele><time>2026-05-02T14:30:58.999Z</time></trkpt><trkpt lat="48.57955623970451" lon="-4.41514923244954"><ele>70.0</ele><time>2026-05-02T14:30:59.999Z</time></trkpt><trkpt lat="48.579590143336915" lon="-4.41499092201603"><ele>70.0</ele><time>2026-05-02T14:31:00.999Z</time></trkpt><trkpt lat="48.57961816473192" lon="-4.414840247440291"><ele>70.0</ele><time>2026-05-02T14:31:01.999Z</time></trkpt><trkpt lat="48.579648918091664" lon="-4.414711300727641"><ele>69.5</ele><time>2026-05-02T14:31:02.999Z</time></trkpt><trkpt lat="48.57966574627306" lon="-4.414602690225949"><ele>69.0</ele><time>2026-05-02T14:31:03.999Z</time></trkpt><trkpt lat="48.57969101987708" lon="-4.414494581504052"><ele>68.5</ele><time>2026-05-02T14:31:04.999Z</time></trkpt><trkpt lat="48.57970868130337" lon="-4.414379691890628"><ele>68.0</ele><time>2026-05-02T14:31:05.999Z</time></trkpt><trkpt lat="48.57971679439383" lon="-4.414264473407288"><ele>67.5</ele><time>2026-05-02T14:31:06.999Z</time></trkpt><trkpt lat="48.57971879481502" lon="-4.414140390497863"><ele>67.0</ele><time>2026-05-02T14:31:07.999Z</time></trkpt><trkpt lat="48.57970772526639" lon="-4.414003806935364"><ele>67.0</ele><time>2026-05-02T14:31:08.999Z</time></trkpt><trkpt lat="48.57970831032157" lon="-4.413889747019237"><ele>67.0</ele><time>2026-05-02T14:31:09.999Z</time></trkpt><trkpt lat="48.579666936064385" lon="-4.413805070051456"><ele>67.0</ele><time>2026-05-02T14:31:10.999Z</time></trkpt><trkpt lat="48.579643396825695" lon="-4.41367013922907"><ele>67.0</ele><time>2026-05-02T14:31:12.999Z</time></trkpt><trkpt lat="48.57962923925332" lon="-4.413559116244766"><ele>67.0</ele><time>2026-05-02T14:31:15.999Z</time></trkpt><trkpt lat="48.57954350754687" lon="-4.4135578704578755"><ele>67.0</ele><time>2026-05-02T14:31:26.999Z</time></trkpt><trkpt lat="48.57946648931849" lon="-4.413606399254956"><ele>67.2</ele><time>2026-05-02T14:31:28.999Z</time></trkpt><trkpt lat="48.57940130792386" lon="-4.41364909586304"><ele>67.4</ele><time>2026-05-02T14:31:29.999Z</time></trkpt><trkpt lat="48.579313380190584" lon="-4.413706381287928"><ele>67.6</ele><time>2026-05-02T14:31:30.999Z</time></trkpt><trkpt lat="48.57921121306517" lon="-4.413769651830176"><ele>67.8</ele><time>2026-05-02T14:31:31.999Z</time></trkpt><trkpt lat="48.579086196944246" lon="-4.413846401008532"><ele>68.0</ele><time>2026-05-02T14:31:32.999Z</time></trkpt><trkpt lat="48.57894296799799" lon="-4.413901430608885"><ele>68.0</ele><time>2026-05-02T14:31:33.999Z</time></trkpt><trkpt lat="48.57880676137767" lon="-4.413980562495696"><ele>68.0</ele><time>2026-05-02T14:31:34.999Z</time></trkpt><trkpt lat="48.57866438100397" lon="-4.414047279286603"><ele>68.0</ele><time>2026-05-02T14:31:35.999Z</time></trkpt><trkpt lat="48.57851040266062" lon="-4.414095888094722"><ele>68.33333333333334</ele><time>2026-05-02T14:31:36.999Z</time></trkpt><trkpt lat="48.5783529491698" lon="-4.414133578038845"><ele>68.66666666666667</ele><time>2026-05-02T14:31:37.999Z</time></trkpt><trkpt lat="48.578190402109655" lon="-4.4141677139721365"><ele>69.0</ele><time>2026-05-02T14:31:38.999Z</time></trkpt><trkpt lat="48.57802509805191" lon="-4.414208105117386"><ele>69.0</ele><time>2026-05-02T14:31:39.999Z</time></trkpt><trkpt lat="48.57785326475913" lon="-4.41425365250293"><ele>69.0</ele><time>2026-05-02T14:31:40.999Z</time></trkpt><trkpt lat="48.57768918341064" lon="-4.4142922633084005"><ele>69.0</ele><time>2026-05-02T14:31:41.999Z</time></trkpt><trkpt lat="48.577517211536204" lon="-4.414329566971837"><ele>68.66666666666667</ele><time>2026-05-02T14:31:42.999Z</time></trkpt><trkpt lat="48.577344464918646" lon="-4.414369814331954"><ele>68.33333333333334</ele><time>2026-05-02T14:31:43.999Z</time></trkpt><trkpt lat="48.57717659399054" lon="-4.41441661683158"><ele>68.0</ele><time>2026-05-02T14:31:44.999Z</time></trkpt><trkpt lat="48.57700501659442" lon="-4.414423690083405"><ele>67.66666666666667</ele><time>2026-05-02T14:31:45.998Z</time></trkpt><trkpt lat="48.576826568385414" lon="-4.414423201256693"><ele>67.33333333333333</ele><time>2026-05-02T14:31:46.998Z</time></trkpt><trkpt lat="48.576648503959156" lon="-4.414435152458562"><ele>67.0</ele><time>2026-05-02T14:31:47.998Z</time></trkpt><trkpt lat="48.576471166185826" lon="-4.414415272084472"><ele>67.0</ele><time>2026-05-02T14:31:48.998Z</time></trkpt><trkpt lat="48.57629233536163" lon="-4.414396590904387"><ele>67.0</ele><time>2026-05-02T14:31:49.998Z</time></trkpt><trkpt lat="48.5761129538413" lon="-4.414388355120472"><ele>67.0</ele><time>2026-05-02T14:31:50.998Z</time></trkpt><trkpt lat="48.57593296430196" lon="-4.414378109794424"><ele>66.0</ele><time>2026-05-02T14:31:51.998Z</time></trkpt><trkpt lat="48.5757508696462" lon="-4.414364702050638"><ele>65.0</ele><time>2026-05-02T14:31:52.998Z</time></trkpt><trkpt lat="48.575572166658816" lon="-4.414354975357081"><ele>64.0</ele><time>2026-05-02T14:31:53.998Z</time></trkpt><trkpt lat="48.575392552474575" lon="-4.414339752091552"><ele>63.666666666666664</ele><time>2026-05-02T14:31:54.998Z</time></trkpt><trkpt lat="48.57521675500661" lon="-4.414338818636816"><ele>63.33333333333333</ele><time>2026-05-02T14:31:55.998Z</time></trkpt><trkpt lat="48.57505011053321" lon="-4.414325458383383"><ele>63.0</ele><time>2026-05-02T14:31:56.998Z</time></trkpt><trkpt lat="48.574914885290745" lon="-4.414308109228141"><ele>63.0</ele><time>2026-05-02T14:31:57.998Z</time></trkpt><trkpt lat="48.57479937164553" lon="-4.4142948846025725"><ele>63.0</ele><time>2026-05-02T14:31:58.998Z</time></trkpt><trkpt lat="48.57469694989165" lon="-4.414290794048874"><ele>63.0</ele><time>2026-05-02T14:31:59.998Z</time></trkpt><trkpt lat="48.57460436018302" lon="-4.414318924286531"><ele>63.0</ele><time>2026-05-02T14:32:00.998Z</time></trkpt><trkpt lat="48.57453550155434" lon="-4.414322081710532"><ele>63.0</ele><time>2026-05-02T14:32:01.998Z</time></trkpt><trkpt lat="48.5744523986654" lon="-4.414329702708099"><ele>62.833333333333336</ele><time>2026-05-02T14:32:02.998Z</time></trkpt><trkpt lat="48.57437367069315" lon="-4.414339230770551"><ele>62.66666666666667</ele><time>2026-05-02T14:32:03.998Z</time></trkpt><trkpt lat="48.57430071053888" lon="-4.414336175678054"><ele>62.5</ele><time>2026-05-02T14:32:05Z</time></trkpt><trkpt lat="48.57423938942818" lon="-4.414367173574942"><ele>62.333333333333336</ele><time>2026-05-02T14:32:06Z</time></trkpt><trkpt lat="48.57414396169182" lon="-4.414392044784506"><ele>62.16666666666667</ele><time>2026-05-02T14:32:07Z</time></trkpt><trkpt lat="48.574034445740274" lon="-4.414423812262987"><ele>62.0</ele><time>2026-05-02T14:32:08Z</time></trkpt><trkpt lat="48.57391704790198" lon="-4.41445735196177"><ele>62.0</ele><time>2026-05-02T14:32:09Z</time></trkpt><trkpt lat="48.573800712831385" lon="-4.414492676144202"><ele>62.0</ele><time>2026-05-02T14:32:10Z</time></trkpt><trkpt lat="48.57368626470801" lon="-4.414513779351227"><ele>62.0</ele><time>2026-05-02T14:32:11Z</time></trkpt><trkpt lat="48.573616903905275" lon="-4.414545808676195"><ele>62.0</ele><time>2026-05-02T14:32:12Z</time></trkpt><trkpt lat="48.57353946493325" lon="-4.414574714733552"><ele>62.0</ele><time>2026-05-02T14:32:13Z</time></trkpt><trkpt lat="48.57347544225364" lon="-4.414606061040244"><ele>61.8</ele><time>2026-05-02T14:32:14Z</time></trkpt><trkpt lat="48.57339377927465" lon="-4.414646474436783"><ele>61.6</ele><time>2026-05-02T14:32:16Z</time></trkpt><trkpt lat="48.5733161775732" lon="-4.414693008553183"><ele>61.39999999999999</ele><time>2026-05-02T14:32:19Z</time></trkpt><trkpt lat="48.57340334050732" lon="-4.414857254676957"><ele>61.199999999999996</ele><time>2026-05-02T14:32:20Z</time></trkpt><trkpt lat="48.57334030960048" lon="-4.414972346134009"><ele>61.0</ele><time>2026-05-02T14:32:21Z</time></trkpt><trkpt lat="48.57331738268797" lon="-4.415134062085387"><ele>63.0</ele><time>2026-05-02T14:32:23Z</time></trkpt><trkpt lat="48.57331893828989" lon="-4.4152634187815325"><ele>63.0</ele><time>2026-05-02T14:32:25Z</time></trkpt><trkpt lat="48.57334146461182" lon="-4.415374047724235"><ele>63.0</ele><time>2026-05-02T14:32:28Z</time></trkpt><trkpt lat="48.573320930271834" lon="-4.415483821752605"><ele>63.0</ele><time>2026-05-02T14:32:31Z</time></trkpt><trkpt lat="48.57330355010261" lon="-4.41557673397206"><ele>62.0</ele><time>2026-05-02T14:32:35.999Z</time></trkpt><trkpt lat="48.57341110245006" lon="-4.415647782901374"><ele>62.0</ele><time>2026-05-02T14:32:40.999Z</time></trkpt><trkpt lat="48.57341110245006" lon="-4.415647782901374"><ele>62.0</ele><time>2026-05-02T14:32:40.999Z</time></trkpt><trkpt lat="48.57341110245006" lon="-4.415647782901374"><ele>62.0</ele><time>2026-05-02T14:32:40.999Z</time></trkpt><trkpt lat="48.57341110245006" lon="-4.415647782901374"><ele>62.0</ele><time>2026-05-02T14:32:40.999Z</time></trkpt><trkpt lat="48.57341110245006" lon="-4.415647782901374"><ele>62.0</ele><time>2026-05-02T14:32:40.999Z</time></trkpt></trkseg></trk></gpx>